Darstellungsparameter: Aktuell verwendete Einstellungen:
Skalierung der Graphiken ... ?
xyx+y,   Skalierungsfaktor:      Skalierung: Modus: x, Faktor: 1
Darstellungszeitraum ... ?
Vom - - bis: - -   Zeitraum: 29.06.2011 - 04.09.2011
Min/Max/Avg-Anzeige ... ?
Zeige MMA aktuell
Zeige MMA Monat
Zeige MMA alles
Zeige --A aktuell
Zeige --A Monat
Zeige --A alles
Keine MMA-Anzeige
MMA:
Minimum Maximum Average (ber die Originaldaten)
MMA-Basis: 29.06.2011 - 04.09.2011
Quicknavigation für Darstellung... ?
Tage:      1T, 2T, 3T, 5T -1T -2T -3T -5T +1T +2T +3T +5T
Wochen: 1W, 2W, 3W -1W -2W -3W +1W +2W +3W
Monate: 1M, 3M, 6M -1M -3M -6M +1M +3M +6M
Jahre:    1J, 3J, 5J, 10J -1J -3J -5J -10J +1J +3J +5J +10J
Nutze für die Darstellung ... ?
Originaldaten oder Mittelwerte auf ...
Stundenbasis Tagesbasis Wochenbasis
Monatsbasis Jahresbasis      Datenbasis: Original-Daten
Darstellen als:
Statistik (Auto) Statistik J:M      Darstellung:
Zur Graphik,    zurück zur Übersicht aller Sensoren.
 
Tabellarische Datenbersicht: ?
 
Sensor: Nr:Datum:Temp:Abs-Feuchte:Windchill:Wind:
Aussen-T/F 1 29-06-2011 00:05:02 21.5 C 9.81 g/m*3 21.5 C 0 km/h
2 29-06-2011 00:17:03 21.1 C 9.95 g/m*3 21.1 C 0 km/h
3 29-06-2011 00:29:03 20.8 C 10.5 g/m*3 20.8 C 0 km/h
4 29-06-2011 00:41:02 21.1 C 10.32 g/m*3 21.1 C 0 km/h
5 29-06-2011 00:53:02 21 C 10.26 g/m*3 21 C 0 km/h
6 29-06-2011 01:05:02 20.8 C 10.32 g/m*3 20.8 C 0 km/h
7 29-06-2011 01:17:02 20.8 C 10.68 g/m*3 20.8 C 0 km/h
8 29-06-2011 01:29:03 20.7 C 10.8 g/m*3 20.7 C 0 km/h
9 29-06-2011 01:41:02 20.3 C 10.55 g/m*3 20.3 C 0 km/h
10 29-06-2011 01:53:02 20.6 C 10.74 g/m*3 20.6 C 0 km/h
11 29-06-2011 02:05:02 21.8 C 11.32 g/m*3 21.8 C 0 km/h
12 29-06-2011 02:17:02 22.3 C 11.26 g/m*3 22.3 C 0 km/h
13 29-06-2011 02:29:02 22.9 C 11.85 g/m*3 22.9 C 0 km/h
14 29-06-2011 02:41:03 22.7 C 11.92 g/m*3 22.7 C 0 km/h
15 29-06-2011 02:54:04 23.1 C 11.99 g/m*3 23.1 C 0 km/h
16 29-06-2011 03:06:04 22.5 C 12.18 g/m*3 22.5 C 0 km/h
17 29-06-2011 03:18:04 22.2 C 12.17 g/m*3 22.2 C 0 km/h
18 29-06-2011 03:30:04 23 C 12.33 g/m*3 23 C 0 km/h
19 29-06-2011 03:42:02 23.2 C 12.06 g/m*3 23.2 C 0 km/h
20 29-06-2011 03:54:02 23.1 C 11.99 g/m*3 23.1 C 0 km/h
21 29-06-2011 04:06:02 22.5 C 11.98 g/m*3 22.5 C 0 km/h
22 29-06-2011 04:18:02 21.6 C 11.95 g/m*3 21.6 C 0 km/h
23 29-06-2011 04:30:03 21.2 C 12.23 g/m*3 21.2 C 0 km/h
24 29-06-2011 04:42:01 21 C 12.27 g/m*3 21 C 0 km/h
25 29-06-2011 04:54:02 21 C 12.46 g/m*3 21 C 0 km/h
Sensor: Nr:Datum:Temp:Abs-Feuchte:Windchill:Wind:
Aussen-T/F 26 29-06-2011 05:06:01 21.3 C 12.3 g/m*3 21.3 C 0 km/h
27 29-06-2011 05:18:01 21.4 C 12.37 g/m*3 21.4 C 0 km/h
28 29-06-2011 05:30:01 21.9 C 11.96 g/m*3 21.9 C 0 km/h
29 29-06-2011 05:42:02 22.2 C 11.78 g/m*3 22.2 C 0 km/h
30 29-06-2011 05:54:02 22.2 C 11.78 g/m*3 22.2 C 0 km/h
31 29-06-2011 06:06:02 21.7 C 11.83 g/m*3 21.7 C 0 km/h
32 29-06-2011 06:18:01 21.6 C 11.95 g/m*3 21.6 C 0 km/h
33 29-06-2011 06:30:01 21.4 C 12 g/m*3 21.4 C 0 km/h
34 29-06-2011 06:42:02 21.4 C 12.19 g/m*3 21.4 C 0 km/h
35 29-06-2011 06:54:02 20.9 C 12.2 g/m*3 20.9 C 0 km/h
36 29-06-2011 07:06:02 21.3 C 12.86 g/m*3 21.3 C 0 km/h
37 29-06-2011 07:18:01 21.1 C 12.71 g/m*3 21.1 C 0 km/h
38 29-06-2011 07:30:01 21.8 C 12.66 g/m*3 21.8 C 0 km/h
39 29-06-2011 07:42:01 22.4 C 12.31 g/m*3 22.4 C 0 km/h
40 29-06-2011 07:54:01 22.6 C 12.25 g/m*3 22.6 C 0 km/h
41 29-06-2011 08:06:02 22.9 C 12.26 g/m*3 22.9 C 0 km/h
42 29-06-2011 08:18:01 23.4 C 12.2 g/m*3 23.4 C 0 km/h
43 29-06-2011 08:30:01 23.7 C 12.19 g/m*3 23.7 C 0 km/h
44 29-06-2011 08:42:01 23.6 C 12.55 g/m*3 23.6 C 0 km/h
45 29-06-2011 08:54:01 23.8 C 12.26 g/m*3 23.8 C 0 km/h
46 29-06-2011 09:06:01 23.9 C 12.33 g/m*3 23.9 C 0 km/h
47 29-06-2011 09:18:01 24.2 C 12.1 g/m*3 24.2 C 0 km/h
48 29-06-2011 09:30:01 24.4 C 12.24 g/m*3 24.4 C 0 km/h
49 29-06-2011 09:42:01 24.1 C 11.82 g/m*3 24.1 C 0 km/h
50 29-06-2011 09:54:02 24.3 C 12.17 g/m*3 24.3 C 0 km/h
Sensor: Nr:Datum:Temp:Abs-Feuchte:Windchill:Wind:
Aussen-T/F 51 29-06-2011 10:06:02 25.1 C 12.04 g/m*3 25.1 C 0 km/h
52 29-06-2011 10:18:02 24.9 C 12.13 g/m*3 24.9 C 0 km/h
53 29-06-2011 10:30:02 23.7 C 12.19 g/m*3 23.7 C 0 km/h
54 29-06-2011 10:42:02 23.3 C 12.55 g/m*3 23.3 C 0 km/h
55 29-06-2011 10:54:02 24.1 C 12.47 g/m*3 24.1 C 0 km/h
56 29-06-2011 11:06:03 23.8 C 12.48 g/m*3 23.8 C 0 km/h
57 29-06-2011 11:18:02 22.7 C 13.13 g/m*3 22.7 C 0 km/h
58 29-06-2011 11:30:02 24.1 C 12.91 g/m*3 24.1 C 0 km/h
59 29-06-2011 11:42:02 24.6 C 11.93 g/m*3 24.6 C 0 km/h
60 29-06-2011 11:54:01 24.7 C 11.32 g/m*3 24.7 C 0 km/h
61 29-06-2011 12:06:02 24.7 C 12 g/m*3 24.7 C 0 km/h
62 29-06-2011 12:18:01 24.8 C 11.84 g/m*3 24.8 C 0 km/h
63 29-06-2011 12:30:01 24.6 C 11.93 g/m*3 24.6 C 0 km/h
64 29-06-2011 12:42:02 24.7 C 12 g/m*3 24.7 C 0 km/h
65 29-06-2011 12:54:01 25.3 C 11.94 g/m*3 25.3 C 0 km/h
66 29-06-2011 13:06:02 25.8 C 12.04 g/m*3 25.8 C 0 km/h
67 29-06-2011 13:18:02 25.8 C 12.28 g/m*3 25.8 C 0 km/h
68 29-06-2011 13:30:02 25.6 C 11.9 g/m*3 25.6 C 0 km/h
69 29-06-2011 13:42:01 25.6 C 12.14 g/m*3 25.6 C 0 km/h
70 29-06-2011 13:54:01 25.8 C 11.8 g/m*3 25.8 C 0 km/h
71 29-06-2011 14:06:01 23.1 C 11.16 g/m*3 23.1 C 0 km/h
72 29-06-2011 14:18:02 21.5 C 11.13 g/m*3 21.5 C 0 km/h
73 29-06-2011 14:30:02 20.7 C 10.98 g/m*3 20.7 C 0 km/h
74 29-06-2011 14:42:01 19.8 C 10.76 g/m*3 19.8 C 0 km/h
75 29-06-2011 14:54:02 19.7 C 11.21 g/m*3 19.7 C 0 km/h
Sensor: Nr:Datum:Temp:Abs-Feuchte:Windchill:Wind:
Aussen-T/F 76 29-06-2011 15:06:02 19.4 C 10.84 g/m*3 19.4 C 0 km/h
77 29-06-2011 15:18:02 19.1 C 10.66 g/m*3 19.1 C 0 km/h
78 29-06-2011 15:30:02 18.8 C 10.79 g/m*3 18.8 C 0 km/h
79 29-06-2011 15:42:02 17.8 C 11.23 g/m*3 17.8 C 0 km/h
80 29-06-2011 15:54:02 17.5 C 11.33 g/m*3 17.5 C 0 km/h
81 29-06-2011 16:06:01 17.5 C 11.48 g/m*3 17.5 C 0 km/h
82 29-06-2011 16:18:02 17.5 C 11.48 g/m*3 17.5 C 0 km/h
83 29-06-2011 16:30:02 17.5 C 11.18 g/m*3 17.5 C 0 km/h
84 29-06-2011 16:42:02 17.5 C 10.88 g/m*3 17.5 C 0 km/h
85 29-06-2011 16:54:02 17.6 C 10.95 g/m*3 17.6 C 0 km/h
86 29-06-2011 17:06:03 17.5 C 10.73 g/m*3 17.5 C 0 km/h
87 29-06-2011 17:18:02 17.5 C 10.73 g/m*3 17.5 C 0 km/h
88 29-06-2011 17:30:02 17.6 C 10.65 g/m*3 17.6 C 0 km/h
89 29-06-2011 17:42:02 17.4 C 10.67 g/m*3 17.4 C 0 km/h
90 29-06-2011 17:54:01 17.3 C 10.61 g/m*3 17.3 C 0 km/h
91 29-06-2011 18:06:02 17.1 C 10.48 g/m*3 17.1 C 0 km/h
92 29-06-2011 18:18:01 17.1 C 10.48 g/m*3 17.1 C 0 km/h
93 29-06-2011 18:30:01 16.9 C 10.5 g/m*3 16.9 C 0 km/h
94 29-06-2011 18:42:02 17 C 10.27 g/m*3 17 C 0 km/h
95 29-06-2011 18:54:01 17 C 10.27 g/m*3 17 C 0 km/h
96 29-06-2011 19:06:02 17 C 10.13 g/m*3 17 C 0 km/h
97 29-06-2011 19:18:02 17 C 9.98 g/m*3 17 C 0 km/h
98 29-06-2011 19:30:02 17.1 C 10.19 g/m*3 17.1 C 0 km/h
99 29-06-2011 19:42:02 17 C 10.13 g/m*3 17 C 0 km/h
100 29-06-2011 19:54:01 17 C 10.27 g/m*3 17 C 0 km/h
Sensor: Nr:Datum:Temp:Abs-Feuchte:Windchill:Wind:
Aussen-T/F 101 29-06-2011 20:06:02 16.9 C 10.36 g/m*3 16.9 C 0 km/h
102 29-06-2011 20:18:02 16.8 C 10.44 g/m*3 16.8 C 0 km/h
103 29-06-2011 20:30:02 16.8 C 10.58 g/m*3 16.8 C 0 km/h
104 29-06-2011 20:42:01 16.7 C 10.52 g/m*3 16.7 C 0 km/h
105 29-06-2011 20:54:02 16.6 C 10.59 g/m*3 16.6 C 0 km/h
106 29-06-2011 21:06:01 16.6 C 10.59 g/m*3 16.6 C 0 km/h
107 29-06-2011 21:18:02 16.5 C 10.67 g/m*3 16.5 C 0 km/h
108 29-06-2011 21:30:02 16.5 C 10.67 g/m*3 16.5 C 0 km/h
109 29-06-2011 21:42:02 16.5 C 10.81 g/m*3 16.5 C 0 km/h
110 29-06-2011 21:54:02 16.4 C 10.75 g/m*3 16.4 C 0 km/h
111 29-06-2011 22:06:02 16.6 C 10.74 g/m*3 16.6 C 0 km/h
112 29-06-2011 22:18:02 16.4 C 10.75 g/m*3 16.4 C 0 km/h
113 29-06-2011 22:30:02 16.4 C 10.89 g/m*3 16.4 C 0 km/h
114 29-06-2011 22:42:02 16.3 C 10.96 g/m*3 16.3 C 0 km/h
115 29-06-2011 22:55:03 16.4 C 11.03 g/m*3 16.4 C 0 km/h
116 29-06-2011 23:07:03 16.5 C 10.81 g/m*3 16.5 C 0 km/h
117 29-06-2011 23:19:03 16.6 C 10.59 g/m*3 16.6 C 0 km/h
118 29-06-2011 23:31:03 16.9 C 10.21 g/m*3 16.9 C 0 km/h
119 29-06-2011 23:43:03 16.8 C 10.01 g/m*3 16.8 C 0 km/h
120 29-06-2011 23:55:03 16.7 C 10.09 g/m*3 16.7 C 0 km/h
121 30-06-2011 00:07:03 16.6 C 9.89 g/m*3 16.6 C 0 km/h
122 30-06-2011 00:19:03 16.7 C 9.81 g/m*3 16.7 C 0 km/h
123 30-06-2011 00:31:04 16.6 C 9.61 g/m*3 16.6 C 0 km/h
124 30-06-2011 00:43:04 16.5 C 9.69 g/m*3 16.5 C 0 km/h
125 30-06-2011 00:55:04 16.6 C 9.46 g/m*3 16.6 C 0 km/h
Sensor: Nr:Datum:Temp:Abs-Feuchte:Windchill:Wind:
Aussen-T/F 126 30-06-2011 01:07:04 16.5 C 9.27 g/m*3 16.5 C 0 km/h
127 30-06-2011 01:19:04 16.5 C 9.27 g/m*3 16.5 C 0 km/h
128 30-06-2011 01:31:04 16.4 C 9.21 g/m*3 16.4 C 0 km/h
129 30-06-2011 01:43:04 16.3 C 9.16 g/m*3 16.3 C 0 km/h
130 30-06-2011 01:55:04 16.2 C 9.1 g/m*3 16.2 C 0 km/h
131 30-06-2011 02:07:04 16.2 C 8.96 g/m*3 16.2 C 0 km/h
132 30-06-2011 02:19:04 16 C 8.99 g/m*3 16 C 0 km/h
133 30-06-2011 02:31:04 15.9 C 8.94 g/m*3 15.9 C 0 km/h
134 30-06-2011 02:43:04 15.8 C 8.62 g/m*3 15.8 C 0 km/h
135 30-06-2011 02:55:04 15.7 C 8.56 g/m*3 15.7 C 0 km/h
136 30-06-2011 03:07:04 15.6 C 8.25 g/m*3 15.6 C 0 km/h
137 30-06-2011 03:19:04 15.5 C 8.2 g/m*3 15.5 C 0 km/h
138 30-06-2011 03:31:04 15.3 C 8.1 g/m*3 15.3 C 0 km/h
139 30-06-2011 03:43:04 15.2 C 8.18 g/m*3 15.2 C 0 km/h
140 30-06-2011 03:55:04 15 C 8.21 g/m*3 15 C 0 km/h
141 30-06-2011 04:07:04 14.9 C 8.28 g/m*3 14.9 C 0 km/h
142 30-06-2011 04:19:04 14.9 C 8.28 g/m*3 14.9 C 0 km/h
143 30-06-2011 04:31:04 14.8 C 8.11 g/m*3 14.8 C 0 km/h
144 30-06-2011 04:43:05 14.6 C 8.01 g/m*3 14.6 C 0 km/h
145 30-06-2011 04:55:05 14.5 C 7.96 g/m*3 14.5 C 0 km/h
146 30-06-2011 05:07:05 14.4 C 7.79 g/m*3 14.4 C 0 km/h
147 30-06-2011 05:19:05 14 C 7.72 g/m*3 14 C 0 km/h
148 30-06-2011 05:31:05 13.7 C 7.7 g/m*3 13.7 C 0 km/h
149 30-06-2011 05:43:05 13.4 C 7.67 g/m*3 13.4 C 0 km/h
150 30-06-2011 05:55:05 13.5 C 7.72 g/m*3 13.5 C 0 km/h
Sensor: Nr:Datum:Temp:Abs-Feuchte:Windchill:Wind:
Aussen-T/F 151 30-06-2011 06:07:05 13 C 7.71 g/m*3 13 C 0 km/h
152 30-06-2011 06:19:05 12.3 C 7.71 g/m*3 12.3 C 0 km/h
153 30-06-2011 06:31:04 12.3 C 7.82 g/m*3 12.3 C 0 km/h
154 30-06-2011 06:43:04 12.4 C 7.98 g/m*3 12.4 C 0 km/h
155 30-06-2011 06:55:02 12.5 C 7.92 g/m*3 12.5 C 0 km/h
156 30-06-2011 07:07:02 12.8 C 8.06 g/m*3 12.8 C 0 km/h
157 30-06-2011 07:19:01 12.7 C 8.01 g/m*3 12.7 C 0 km/h
158 30-06-2011 07:31:02 12.8 C 8.18 g/m*3 12.8 C 0 km/h
159 30-06-2011 07:43:02 13.7 C 8.17 g/m*3 13.7 C 0 km/h
160 30-06-2011 07:55:01 14.4 C 7.79 g/m*3 14.4 C 0 km/h
161 30-06-2011 08:07:02 14.2 C 7.33 g/m*3 14.2 C 0 km/h
162 30-06-2011 08:19:02 14.3 C 7.49 g/m*3 14.3 C 0 km/h
163 30-06-2011 08:31:02 15 C 7.05 g/m*3 15 C 0 km/h
164 30-06-2011 08:43:02 15.6 C 6.92 g/m*3 15.6 C 0 km/h
165 30-06-2011 08:55:02 16.1 C 6.72 g/m*3 16.1 C 0 km/h
166 30-06-2011 09:07:02 14.4 C 7.29 g/m*3 14.4 C 0 km/h
167 30-06-2011 09:19:02 15.2 C 7.4 g/m*3 15.2 C 0 km/h
168 30-06-2011 09:31:01 16.6 C 6.92 g/m*3 16.6 C 0 km/h
169 30-06-2011 09:43:01 17 C 6.66 g/m*3 17 C 0 km/h
170 30-06-2011 09:55:02 16 C 6.54 g/m*3 16 C 0 km/h
171 30-06-2011 10:07:01 16.2 C 6.76 g/m*3 16.2 C 0 km/h
172 30-06-2011 10:19:02 16.7 C 6.4 g/m*3 16.7 C 0 km/h
173 30-06-2011 10:31:01 17.1 C 6.55 g/m*3 17.1 C 0 km/h
174 30-06-2011 10:43:01 17.2 C 6.3 g/m*3 17.2 C 0 km/h
175 30-06-2011 10:55:02 17.1 C 5.82 g/m*3 17.1 C 0 km/h
Sensor: Nr:Datum:Temp:Abs-Feuchte:Windchill:Wind:
Aussen-T/F 176 30-06-2011 11:07:01 18.9 C 5.67 g/m*3 18.9 C 0 km/h
177 30-06-2011 11:19:01 17.4 C 6.08 g/m*3 17.4 C 0 km/h
178 30-06-2011 11:31:02 18.3 C 6.25 g/m*3 18.3 C 0 km/h
179 30-06-2011 11:43:02 19.1 C 5.74 g/m*3 19.1 C 0 km/h
180 30-06-2011 11:55:02 18 C 5.84 g/m*3 18 C 0 km/h
181 30-06-2011 12:07:01 18.3 C 5.94 g/m*3 18.3 C 0 km/h
182 30-06-2011 12:19:02 18.7 C 5.76 g/m*3 18.7 C 0 km/h
183 30-06-2011 12:31:01 18.7 C 5.92 g/m*3 18.7 C 0 km/h
184 30-06-2011 12:43:01 18.9 C 5.83 g/m*3 18.9 C 0 km/h
185 30-06-2011 12:55:02 19.6 C 5.74 g/m*3 19.6 C 0 km/h
186 30-06-2011 13:07:01 19.2 C 5.44 g/m*3 19.2 C 0 km/h
187 30-06-2011 13:19:01 19.8 C 5.81 g/m*3 19.8 C 0 km/h
188 30-06-2011 13:31:02 20.2 C 5.25 g/m*3 20.2 C 0 km/h
189 30-06-2011 13:43:02 26.1 C 4.9 g/m*3 26.1 C 0 km/h
190 30-06-2011 13:55:02 26.8 C 5.09 g/m*3 26.8 C 0 km/h
191 30-06-2011 14:07:02 23.3 C 4.18 g/m*3 23.3 C 0 km/h
192 30-06-2011 14:19:02 23 C 4.11 g/m*3 23 C 0 km/h
193 30-06-2011 14:31:02 25.9 C 4.84 g/m*3 25.9 C 0 km/h
194 30-06-2011 14:43:02 25.3 C 4.68 g/m*3 25.3 C 0 km/h
195 30-06-2011 14:55:01 27.7 C 5.35 g/m*3 27.7 C 0 km/h
196 30-06-2011 15:07:02 25.6 C 4.76 g/m*3 25.6 C 0 km/h
197 30-06-2011 15:19:01 22.5 C 4.19 g/m*3 22.5 C 0 km/h
198 30-06-2011 15:31:01 22.5 C 4.59 g/m*3 22.5 C 0 km/h
199 30-06-2011 15:43:01 24.3 C 4.43 g/m*3 24.3 C 0 km/h
200 30-06-2011 15:55:01 23.4 C 4.63 g/m*3 23.4 C 0 km/h
Sensor: Nr:Datum:Temp:Abs-Feuchte:Windchill:Wind:
Aussen-T/F 201 30-06-2011 16:07:02 25.2 C 4.89 g/m*3 25.2 C 0 km/h
202 30-06-2011 16:19:01 23 C 4.73 g/m*3 23 C 0 km/h
203 30-06-2011 16:31:01 22.1 C 4.88 g/m*3 22.1 C 0 km/h
204 30-06-2011 16:43:01 23.5 C 5.29 g/m*3 23.5 C 0 km/h
205 30-06-2011 16:55:01 22.1 C 5.27 g/m*3 22.1 C 0 km/h
206 30-06-2011 17:07:02 22.2 C 5.5 g/m*3 22.2 C 0 km/h
207 30-06-2011 17:19:02 21.8 C 5.37 g/m*3 21.8 C 0 km/h
208 30-06-2011 17:31:01 25.1 C 4.63 g/m*3 25.1 C 0 km/h
209 30-06-2011 17:43:01 23.5 C 4.65 g/m*3 23.5 C 0 km/h
210 30-06-2011 17:55:01 21.9 C 5.4 g/m*3 21.9 C 0 km/h
211 30-06-2011 18:07:01 21.6 C 5.31 g/m*3 21.6 C 0 km/h
212 30-06-2011 18:19:02 21.3 C 5.41 g/m*3 21.3 C 0 km/h
213 30-06-2011 18:31:01 20.1 C 5.21 g/m*3 20.1 C 0 km/h
214 30-06-2011 18:43:01 21.1 C 5.34 g/m*3 21.1 C 0 km/h
215 30-06-2011 18:55:02 21.9 C 5.21 g/m*3 21.9 C 0 km/h
216 30-06-2011 19:07:01 24.2 C 4.4 g/m*3 24.2 C 0 km/h
217 30-06-2011 19:19:01 24.8 C 4.55 g/m*3 24.8 C 0 km/h
218 30-06-2011 19:31:01 23.1 C 4.13 g/m*3 23.1 C 0 km/h
219 30-06-2011 19:43:01 22.3 C 4.94 g/m*3 22.3 C 0 km/h
220 30-06-2011 19:55:02 20 C 5.18 g/m*3 20 C 0 km/h
221 30-06-2011 20:07:02 19.7 C 5.6 g/m*3 19.7 C 0 km/h
222 30-06-2011 20:19:02 19 C 5.7 g/m*3 19 C 0 km/h
223 30-06-2011 20:31:02 18.6 C 6.05 g/m*3 18.6 C 0 km/h
224 30-06-2011 20:43:02 17.9 C 5.95 g/m*3 17.9 C 0 km/h
225 30-06-2011 20:55:02 17 C 6.51 g/m*3 17 C 0 km/h
Sensor: Nr:Datum:Temp:Abs-Feuchte:Windchill:Wind:
Aussen-T/F 226 30-06-2011 21:07:02 17.2 C 6.15 g/m*3 17.2 C 0 km/h
227 30-06-2011 21:19:01 17.2 C 6 g/m*3 17.2 C 0 km/h
228 30-06-2011 21:31:02 16.8 C 6.43 g/m*3 16.8 C 0 km/h
229 30-06-2011 21:43:02 15.9 C 6.5 g/m*3 15.9 C 0 km/h
230 30-06-2011 21:55:02 15.6 C 6.78 g/m*3 15.6 C 0 km/h
231 30-06-2011 22:07:02 16.1 C 6.58 g/m*3 16.1 C 0 km/h
232 30-06-2011 22:19:01 16.6 C 6.5 g/m*3 16.6 C 0 km/h
233 30-06-2011 22:31:02 16.6 C 6.64 g/m*3 16.6 C 0 km/h
234 30-06-2011 22:43:02 16.5 C 6.88 g/m*3 16.5 C 0 km/h
235 30-06-2011 22:55:02 16.3 C 6.94 g/m*3 16.3 C 0 km/h
236 30-06-2011 23:07:02 15.3 C 6.92 g/m*3 15.3 C 0 km/h
237 30-06-2011 23:19:02 15.1 C 6.84 g/m*3 15.1 C 0 km/h
238 30-06-2011 23:32:03 14.2 C 7.45 g/m*3 14.2 C 0 km/h
239 30-06-2011 23:44:03 13.3 C 8.09 g/m*3 13.3 C 0 km/h
240 30-06-2011 23:56:03 12.8 C 8.62 g/m*3 12.8 C 0 km/h
241 01-07-2011 00:08:03 12.7 C 8.91 g/m*3 12.7 C 0 km/h
242 01-07-2011 00:20:03 12.4 C 8.96 g/m*3 12.4 C 0 km/h
243 01-07-2011 00:32:03 12.1 C 8.9 g/m*3 12.1 C 0 km/h
244 01-07-2011 00:44:03 12 C 8.85 g/m*3 12 C 0 km/h
245 01-07-2011 00:56:03 11.8 C 8.84 g/m*3 11.8 C 0 km/h
246 01-07-2011 01:08:03 11.8 C 8.84 g/m*3 11.8 C 0 km/h
247 01-07-2011 01:20:03 11.9 C 9 g/m*3 11.9 C 0 km/h
248 01-07-2011 01:32:03 11.6 C 8.83 g/m*3 11.6 C 0 km/h
249 01-07-2011 01:44:03 11.5 C 8.88 g/m*3 11.5 C 0 km/h
250 01-07-2011 01:56:03 11.4 C 8.83 g/m*3 11.4 C 0 km/h
Sensor: Nr:Datum:Temp:Abs-Feuchte:Windchill:Wind:
Aussen-T/F 251 01-07-2011 02:08:03 11.2 C 8.72 g/m*3 11.2 C 0 km/h
252 01-07-2011 02:20:03 11.2 C 8.82 g/m*3 11.2 C 0 km/h
253 01-07-2011 02:32:03 11.6 C 9.15 g/m*3 11.6 C 0 km/h
254 01-07-2011 02:44:03 11.6 C 9.15 g/m*3 11.6 C 0 km/h
255 01-07-2011 02:56:03 11.5 C 9.09 g/m*3 11.5 C 0 km/h
256 01-07-2011 03:08:03 11.6 C 9.15 g/m*3 11.6 C 0 km/h
257 01-07-2011 03:20:03 11.7 C 9.2 g/m*3 11.7 C 0 km/h
258 01-07-2011 03:32:04 11.8 C 9.26 g/m*3 11.8 C 0 km/h
259 01-07-2011 03:44:04 11.9 C 9.32 g/m*3 11.9 C 0 km/h
260 01-07-2011 03:56:04 11.9 C 9.32 g/m*3 11.9 C 0 km/h
261 01-07-2011 04:08:04 11.9 C 9.32 g/m*3 11.9 C 0 km/h
262 01-07-2011 04:20:04 11.4 C 9.03 g/m*3 11.4 C 0 km/h
263 01-07-2011 04:32:04 11.2 C 8.92 g/m*3 11.2 C 0 km/h
264 01-07-2011 04:44:04 10.8 C 8.7 g/m*3 10.8 C 0 km/h
265 01-07-2011 04:56:04 11.2 C 8.92 g/m*3 11.2 C 0 km/h
266 01-07-2011 05:08:04 11.1 C 8.86 g/m*3 11.1 C 0 km/h
267 01-07-2011 05:20:04 10.5 C 8.53 g/m*3 10.5 C 0 km/h
268 01-07-2011 05:32:04 9.7 C 8.2 g/m*3 9.7 C 0 km/h
269 01-07-2011 05:44:04 10.3 C 8.43 g/m*3 10.3 C 0 km/h
270 01-07-2011 05:56:04 10.4 C 8.48 g/m*3 10.4 C 0 km/h
271 01-07-2011 06:08:04 10.6 C 8.69 g/m*3 10.6 C 0 km/h
272 01-07-2011 06:20:04 11 C 8.81 g/m*3 11 C 0 km/h
273 01-07-2011 06:32:04 11.1 C 8.86 g/m*3 11.1 C 0 km/h
274 01-07-2011 06:44:04 10.8 C 8.7 g/m*3 10.8 C 0 km/h
275 01-07-2011 06:56:04 10.7 C 8.55 g/m*3 10.7 C 0 km/h
Sensor: Nr:Datum:Temp:Abs-Feuchte:Windchill:Wind:
Aussen-T/F 276 01-07-2011 07:08:04 10.8 C 8.6 g/m*3 10.8 C 0 km/h
277 01-07-2011 07:20:04 11.2 C 8.72 g/m*3 11.2 C 0 km/h
278 01-07-2011 07:32:05 11.6 C 8.83 g/m*3 11.6 C 0 km/h
279 01-07-2011 07:44:05 12.2 C 8.63 g/m*3 12.2 C 0 km/h
280 01-07-2011 07:56:05 12.8 C 8.62 g/m*3 12.8 C 0 km/h
281 01-07-2011 08:08:05 13.4 C 8.02 g/m*3 13.4 C 0 km/h
282 01-07-2011 08:20:05 12.8 C 7.84 g/m*3 12.8 C 0 km/h
283 01-07-2011 08:32:02 12 C 8.21 g/m*3 12 C 0 km/h
284 01-07-2011 08:44:02 11.3 C 8.06 g/m*3 11.3 C 0 km/h
285 01-07-2011 08:56:02 10.7 C 7.86 g/m*3 10.7 C 0 km/h
286 01-07-2011 09:08:01 10.7 C 8.25 g/m*3 10.7 C 0 km/h
287 01-07-2011 09:20:02 11.3 C 8.57 g/m*3 11.3 C 0 km/h
288 01-07-2011 09:32:01 11.3 C 8.57 g/m*3 11.3 C 0 km/h
289 01-07-2011 09:44:01 12 C 8.63 g/m*3 12 C 0 km/h
290 01-07-2011 09:56:02 12.2 C 8.52 g/m*3 12.2 C 0 km/h
291 01-07-2011 10:08:02 13.2 C 8.38 g/m*3 13.2 C 0 km/h
292 01-07-2011 10:20:02 14.4 C 8.28 g/m*3 14.4 C 0 km/h
293 01-07-2011 10:32:02 14 C 7.96 g/m*3 14 C 0 km/h
294 01-07-2011 10:44:02 14.1 C 8.25 g/m*3 14.1 C 0 km/h
295 01-07-2011 10:56:02 14.8 C 7.6 g/m*3 14.8 C 0 km/h
296 01-07-2011 11:08:02 16.5 C 7.3 g/m*3 16.5 C 0 km/h
297 01-07-2011 11:20:02 15.6 C 6.78 g/m*3 15.6 C 0 km/h
298 01-07-2011 11:32:02 16.6 C 7.35 g/m*3 16.6 C 0 km/h
299 01-07-2011 11:44:02 14.5 C 6.84 g/m*3 14.5 C 0 km/h
300 01-07-2011 11:56:02 14.8 C 7.09 g/m*3 14.8 C 0 km/h
Sensor: Nr:Datum:Temp:Abs-Feuchte:Windchill:Wind:
Aussen-T/F 301 01-07-2011 12:08:01 15 C 7.18 g/m*3 15 C 0 km/h
302 01-07-2011 12:20:01 16.2 C 6.76 g/m*3 16.2 C 0 km/h
303 01-07-2011 12:32:02 16.6 C 6.5 g/m*3 16.6 C 0 km/h
304 01-07-2011 12:44:02 17 C 6.51 g/m*3 17 C 0 km/h
305 01-07-2011 12:56:02 17.3 C 6.19 g/m*3 17.3 C 0 km/h
306 01-07-2011 13:08:02 17.3 C 6.78 g/m*3 17.3 C 0 km/h
307 01-07-2011 13:20:02 14.9 C 7.14 g/m*3 14.9 C 0 km/h
308 01-07-2011 13:32:02 16.4 C 7.12 g/m*3 16.4 C 0 km/h
309 01-07-2011 13:44:02 20.8 C 6.34 g/m*3 20.8 C 0 km/h
310 01-07-2011 13:56:02 23.2 C 6.24 g/m*3 23.2 C 0 km/h
311 01-07-2011 14:08:02 22.4 C 5.36 g/m*3 22.4 C 0 km/h
312 01-07-2011 14:20:02 20.1 C 5.21 g/m*3 20.1 C 0 km/h
313 01-07-2011 14:32:02 17.7 C 6.19 g/m*3 17.7 C 0 km/h
314 01-07-2011 14:44:02 20.4 C 6.37 g/m*3 20.4 C 0 km/h
315 01-07-2011 14:56:01 18.5 C 6.01 g/m*3 18.5 C 0 km/h
316 01-07-2011 15:08:01 22.6 C 6.63 g/m*3 22.6 C 0 km/h
317 01-07-2011 15:20:02 23.5 C 5.92 g/m*3 23.5 C 0 km/h
318 01-07-2011 15:32:01 23.8 C 5.16 g/m*3 23.8 C 0 km/h
319 01-07-2011 15:44:01 26.9 C 5.37 g/m*3 26.9 C 0 km/h
320 01-07-2011 15:56:01 25.8 C 5.54 g/m*3 25.8 C 0 km/h
321 01-07-2011 16:08:01 22.8 C 5.08 g/m*3 22.8 C 0 km/h
322 01-07-2011 16:20:02 26.2 C 4.92 g/m*3 26.2 C 0 km/h
323 01-07-2011 16:32:01 23.1 C 4.34 g/m*3 23.1 C 0 km/h
324 01-07-2011 16:44:01 23.9 C 5.41 g/m*3 23.9 C 0 km/h
325 01-07-2011 16:56:01 18.8 C 6.28 g/m*3 18.8 C 0 km/h
Sensor: Nr:Datum:Temp:Abs-Feuchte:Windchill:Wind:
Aussen-T/F 326 01-07-2011 17:08:01 22.7 C 6.26 g/m*3 22.7 C 0 km/h
327 01-07-2011 17:20:02 20.2 C 6.29 g/m*3 20.2 C 0 km/h
328 01-07-2011 17:32:01 18.7 C 6.4 g/m*3 18.7 C 0 km/h
329 01-07-2011 17:44:01 23.1 C 6.2 g/m*3 23.1 C 0 km/h
330 01-07-2011 17:56:02 23.6 C 5.96 g/m*3 23.6 C 0 km/h
331 01-07-2011 18:08:01 24.2 C 5.72 g/m*3 24.2 C 0 km/h
332 01-07-2011 18:20:01 24.3 C 5.97 g/m*3 24.3 C 0 km/h
333 01-07-2011 18:32:01 23.9 C 4.98 g/m*3 23.9 C 0 km/h
334 01-07-2011 18:44:01 21.8 C 5.37 g/m*3 21.8 C 0 km/h
335 01-07-2011 18:56:02 19.7 C 5.26 g/m*3 19.7 C 0 km/h
336 01-07-2011 19:08:02 19.1 C 5.9 g/m*3 19.1 C 0 km/h
337 01-07-2011 19:20:02 18.6 C 6.05 g/m*3 18.6 C 0 km/h
338 01-07-2011 19:32:02 17.5 C 5.37 g/m*3 17.5 C 0 km/h
339 01-07-2011 19:44:02 16.9 C 5.75 g/m*3 16.9 C 0 km/h
340 01-07-2011 19:56:02 16.5 C 5.62 g/m*3 16.5 C 0 km/h
341 01-07-2011 20:08:01 16.4 C 5.86 g/m*3 16.4 C 0 km/h
342 01-07-2011 20:20:02 16.2 C 6.21 g/m*3 16.2 C 0 km/h
343 01-07-2011 20:32:02 15.8 C 6.6 g/m*3 15.8 C 0 km/h
344 01-07-2011 20:44:02 15.5 C 6.61 g/m*3 15.5 C 0 km/h
345 01-07-2011 20:56:02 15.6 C 6.65 g/m*3 15.6 C 0 km/h
346 01-07-2011 21:08:03 15.2 C 6.75 g/m*3 15.2 C 0 km/h
347 01-07-2011 21:20:02 14.6 C 6.88 g/m*3 14.6 C 0 km/h
348 01-07-2011 21:32:02 14.1 C 7.04 g/m*3 14.1 C 0 km/h
349 01-07-2011 21:44:02 14 C 7.24 g/m*3 14 C 0 km/h
350 01-07-2011 21:56:01 14.1 C 6.8 g/m*3 14.1 C 0 km/h
Sensor: Nr:Datum:Temp:Abs-Feuchte:Windchill:Wind:
Aussen-T/F 351 01-07-2011 22:09:02 13.7 C 6.87 g/m*3 13.7 C 0 km/h
352 01-07-2011 22:21:02 13.1 C 6.96 g/m*3 13.1 C 0 km/h
353 01-07-2011 22:33:02 12.4 C 7.21 g/m*3 12.4 C 0 km/h
354 01-07-2011 22:45:03 11.6 C 7.28 g/m*3 11.6 C 0 km/h
355 01-07-2011 22:57:03 11.2 C 7.4 g/m*3 11.2 C 0 km/h
356 01-07-2011 23:09:03 11.2 C 7.5 g/m*3 11.2 C 0 km/h
357 01-07-2011 23:21:03 10.9 C 7.56 g/m*3 10.9 C 0 km/h
358 01-07-2011 23:33:03 10.9 C 7.66 g/m*3 10.9 C 0 km/h
359 01-07-2011 23:45:03 11.3 C 7.85 g/m*3 11.3 C 0 km/h
360 01-07-2011 23:57:03 11.3 C 7.75 g/m*3 11.3 C 0 km/h
361 02-07-2011 00:09:03 11.1 C 7.66 g/m*3 11.1 C 0 km/h
362 02-07-2011 00:21:03 10.7 C 7.66 g/m*3 10.7 C 0 km/h
363 02-07-2011 00:33:03 10.2 C 7.42 g/m*3 10.2 C 0 km/h
364 02-07-2011 00:45:03 10 C 7.52 g/m*3 10 C 0 km/h
365 02-07-2011 00:57:03 9.9 C 7.66 g/m*3 9.9 C 0 km/h
366 02-07-2011 01:09:03 9.9 C 7.75 g/m*3 9.9 C 0 km/h
367 02-07-2011 01:21:03 9.6 C 7.6 g/m*3 9.6 C 0 km/h
368 02-07-2011 01:33:03 9.8 C 7.79 g/m*3 9.8 C 0 km/h
369 02-07-2011 01:45:03 9.7 C 7.74 g/m*3 9.7 C 0 km/h
370 02-07-2011 01:57:03 9.6 C 7.69 g/m*3 9.6 C 0 km/h
371 02-07-2011 02:09:03 9.4 C 7.6 g/m*3 9.4 C 0 km/h
372 02-07-2011 02:21:03 9.3 C 7.64 g/m*3 9.3 C 0 km/h
373 02-07-2011 02:33:04 9.2 C 7.59 g/m*3 9.2 C 0 km/h
374 02-07-2011 02:45:04 8.9 C 7.53 g/m*3 8.9 C 0 km/h
375 02-07-2011 02:57:04 8.4 C 7.38 g/m*3 8.4 C 0 km/h
Sensor: Nr:Datum:Temp:Abs-Feuchte:Windchill:Wind:
Aussen-T/F 376 02-07-2011 03:09:04 8.4 C 7.38 g/m*3 8.4 C 0 km/h
377 02-07-2011 03:21:04 8.7 C 7.61 g/m*3 8.7 C 0 km/h
378 02-07-2011 03:33:04 8.2 C 7.29 g/m*3 8.2 C 0 km/h
379 02-07-2011 03:45:04 8.7 C 7.61 g/m*3 8.7 C 0 km/h
380 02-07-2011 03:57:04 8.8 C 7.66 g/m*3 8.8 C 0 km/h
381 02-07-2011 04:09:04 9 C 7.76 g/m*3 9 C 0 km/h
382 02-07-2011 04:21:04 9.5 C 8.01 g/m*3 9.5 C 0 km/h
383 02-07-2011 04:33:04 9.6 C 7.97 g/m*3 9.6 C 0 km/h
384 02-07-2011 04:45:04 9.6 C 7.97 g/m*3 9.6 C 0 km/h
385 02-07-2011 04:57:04 9.2 C 7.59 g/m*3 9.2 C 0 km/h
386 02-07-2011 05:09:04 8.4 C 7.3 g/m*3 8.4 C 0 km/h
387 02-07-2011 05:21:04 8.5 C 7.43 g/m*3 8.5 C 0 km/h
388 02-07-2011 05:33:04 8.4 C 7.47 g/m*3 8.4 C 0 km/h
389 02-07-2011 05:45:04 8.4 C 7.47 g/m*3 8.4 C 0 km/h
390 02-07-2011 05:57:04 8.4 C 7.47 g/m*3 8.4 C 0 km/h
391 02-07-2011 06:09:04 8.3 C 7.42 g/m*3 8.3 C 0 km/h
392 02-07-2011 06:21:04 8.7 C 7.7 g/m*3 8.7 C 0 km/h
393 02-07-2011 06:33:04 9.2 C 7.86 g/m*3 9.2 C 0 km/h
394 02-07-2011 06:45:05 9.5 C 8.01 g/m*3 9.5 C 0 km/h
395 02-07-2011 06:57:05 9.8 C 8.07 g/m*3 9.8 C 0 km/h
396 02-07-2011 07:09:05 10 C 7.99 g/m*3 10 C 0 km/h
397 02-07-2011 07:21:05 10.2 C 7.9 g/m*3 10.2 C 0 km/h
398 02-07-2011 07:33:05 10.6 C 8.1 g/m*3 10.6 C 0 km/h
399 02-07-2011 07:45:05 11.4 C 8.31 g/m*3 11.4 C 0 km/h
400 02-07-2011 07:57:05 11.3 C 7.85 g/m*3 11.3 C 0 km/h
Sensor: Nr:Datum:Temp:Abs-Feuchte:Windchill:Wind:
Aussen-T/F 401 02-07-2011 08:09:05 12.3 C 8.14 g/m*3 12.3 C 0 km/h
402 02-07-2011 08:21:05 13.2 C 8.04 g/m*3 13.2 C 0 km/h
403 02-07-2011 08:33:05 13 C 7.83 g/m*3 13 C 0 km/h
404 02-07-2011 08:45:05 13 C 7.48 g/m*3 13 C 0 km/h
405 02-07-2011 08:57:05 14.2 C 7.33 g/m*3 14.2 C 0 km/h
406 02-07-2011 09:09:05 14 C 7.12 g/m*3 14 C 0 km/h
407 02-07-2011 09:21:05 14.8 C 7.09 g/m*3 14.8 C 0 km/h
408 02-07-2011 09:33:02 14 C 7 g/m*3 14 C 0 km/h
409 02-07-2011 09:45:02 14.4 C 7.05 g/m*3 14.4 C 0 km/h
410 02-07-2011 09:57:02 15 C 6.67 g/m*3 15 C 0 km/h
411 02-07-2011 10:09:02 16.2 C 6.62 g/m*3 16.2 C 0 km/h
412 02-07-2011 10:21:02 15.8 C 6.33 g/m*3 15.8 C 0 km/h
413 02-07-2011 10:33:02 17.3 C 6.33 g/m*3 17.3 C 0 km/h
414 02-07-2011 10:45:01 16.5 C 6.6 g/m*3 16.5 C 0 km/h
415 02-07-2011 10:57:01 16.1 C 6.03 g/m*3 16.1 C 0 km/h
416 02-07-2011 11:09:01 15 C 6.03 g/m*3 15 C 0 km/h
417 02-07-2011 11:21:01 14.2 C 6.47 g/m*3 14.2 C 0 km/h
418 02-07-2011 11:33:02 15.1 C 6.71 g/m*3 15.1 C 0 km/h
419 02-07-2011 11:45:02 15.6 C 6.52 g/m*3 15.6 C 0 km/h
420 02-07-2011 11:57:03 16.9 C 6.18 g/m*3 16.9 C 0 km/h
421 02-07-2011 12:09:01 15.7 C 6.42 g/m*3 15.7 C 0 km/h
422 02-07-2011 12:21:02 15.5 C 6.21 g/m*3 15.5 C 0 km/h
423 02-07-2011 12:33:02 15.7 C 6.15 g/m*3 15.7 C 0 km/h
424 02-07-2011 12:45:01 16.5 C 6.04 g/m*3 16.5 C 0 km/h
425 02-07-2011 12:57:01 18.5 C 6.01 g/m*3 18.5 C 0 km/h
Sensor: Nr:Datum:Temp:Abs-Feuchte:Windchill:Wind:
Aussen-T/F 426 02-07-2011 13:09:02 17.9 C 5.65 g/m*3 17.9 C 0 km/h
427 02-07-2011 13:21:01 17.8 C 5.92 g/m*3 17.8 C 0 km/h
428 02-07-2011 13:33:02 18 C 5.68 g/m*3 18 C 0 km/h
429 02-07-2011 13:45:02 17.5 C 5.67 g/m*3 17.5 C 0 km/h
430 02-07-2011 13:57:02 17.4 C 5.34 g/m*3 17.4 C 0 km/h
431 02-07-2011 14:09:02 19.6 C 5.91 g/m*3 19.6 C 0 km/h
432 02-07-2011 14:21:01 20.4 C 5.48 g/m*3 20.4 C 0 km/h
433 02-07-2011 14:33:02 19.7 C 5.94 g/m*3 19.7 C 0 km/h
434 02-07-2011 14:45:01 21.7 C 5.91 g/m*3 21.7 C 0 km/h
435 02-07-2011 14:57:01 22.9 C 5.52 g/m*3 22.9 C 0 km/h
436 02-07-2011 15:09:02 20.9 C 5.46 g/m*3 20.9 C 0 km/h
437 02-07-2011 15:21:01 20.1 C 5.91 g/m*3 20.1 C 0 km/h
438 02-07-2011 15:33:02 21.1 C 5.71 g/m*3 21.1 C 0 km/h
439 02-07-2011 15:45:01 22.9 C 5.31 g/m*3 22.9 C 0 km/h
440 02-07-2011 15:57:01 21.4 C 4.69 g/m*3 21.4 C 0 km/h
441 02-07-2011 16:09:02 18.5 C 5.54 g/m*3 18.5 C 0 km/h
442 02-07-2011 16:21:02 19.7 C 5.26 g/m*3 19.7 C 0 km/h
443 02-07-2011 16:33:02 19.6 C 5.06 g/m*3 19.6 C 0 km/h
444 02-07-2011 16:45:02 20.3 C 4.92 g/m*3 20.3 C 0 km/h
445 02-07-2011 16:57:02 19.2 C 5.61 g/m*3 19.2 C 0 km/h
446 02-07-2011 17:09:01 19.6 C 4.9 g/m*3 19.6 C 0 km/h
447 02-07-2011 17:21:02 19.6 C 4.9 g/m*3 19.6 C 0 km/h
448 02-07-2011 17:33:01 18.5 C 5.54 g/m*3 18.5 C 0 km/h
449 02-07-2011 17:45:02 18 C 5.84 g/m*3 18 C 0 km/h
450 02-07-2011 17:57:02 18.2 C 5.75 g/m*3 18.2 C 0 km/h
Sensor: Nr:Datum:Temp:Abs-Feuchte:Windchill:Wind:
Aussen-T/F 451 02-07-2011 18:09:01 18.9 C 5.51 g/m*3 18.9 C 0 km/h
452 02-07-2011 18:21:01 20.1 C 5.91 g/m*3 20.1 C 0 km/h
453 02-07-2011 18:33:01 21.1 C 5.53 g/m*3 21.1 C 0 km/h
454 02-07-2011 18:45:02 21.4 C 5.25 g/m*3 21.4 C 0 km/h
455 02-07-2011 18:57:02 20.2 C 5.42 g/m*3 20.2 C 0 km/h
456 02-07-2011 19:09:02 19.2 C 5.28 g/m*3 19.2 C 0 km/h
457 02-07-2011 19:21:02 18.7 C 5.6 g/m*3 18.7 C 0 km/h
458 02-07-2011 19:33:02 18.2 C 5.75 g/m*3 18.2 C 0 km/h
459 02-07-2011 19:45:02 17.5 C 5.81 g/m*3 17.5 C 0 km/h
460 02-07-2011 19:57:02 17.2 C 5.86 g/m*3 17.2 C 0 km/h
461 02-07-2011 20:09:01 17.2 C 5.86 g/m*3 17.2 C 0 km/h
462 02-07-2011 20:21:02 17.3 C 5.89 g/m*3 17.3 C 0 km/h
463 02-07-2011 20:33:02 17.1 C 5.97 g/m*3 17.1 C 0 km/h
464 02-07-2011 20:45:02 16.9 C 5.9 g/m*3 16.9 C 0 km/h
465 02-07-2011 20:57:02 16.7 C 5.97 g/m*3 16.7 C 0 km/h
466 02-07-2011 21:09:01 16.4 C 6 g/m*3 16.4 C 0 km/h
467 02-07-2011 21:21:01 16 C 6.27 g/m*3 16 C 0 km/h
468 02-07-2011 21:33:01 15.9 C 6.23 g/m*3 15.9 C 0 km/h
469 02-07-2011 21:45:02 15.6 C 6.38 g/m*3 15.6 C 0 km/h
470 02-07-2011 21:57:02 15.4 C 6.44 g/m*3 15.4 C 0 km/h
471 02-07-2011 22:09:02 15 C 6.41 g/m*3 15 C 0 km/h
472 02-07-2011 22:21:02 14.9 C 6.63 g/m*3 14.9 C 0 km/h
473 02-07-2011 22:33:02 14.7 C 6.55 g/m*3 14.7 C 0 km/h
474 02-07-2011 22:46:03 14.8 C 6.59 g/m*3 14.8 C 0 km/h
475 02-07-2011 22:58:03 15.1 C 6.45 g/m*3 15.1 C 0 km/h
Sensor: Nr:Datum:Temp:Abs-Feuchte:Windchill:Wind:
Aussen-T/F 476 02-07-2011 23:10:03 15.1 C 6.45 g/m*3 15.1 C 0 km/h
477 02-07-2011 23:22:03 15.1 C 6.45 g/m*3 15.1 C 0 km/h
478 02-07-2011 23:34:03 15 C 6.41 g/m*3 15 C 0 km/h
479 02-07-2011 23:46:03 14.8 C 6.46 g/m*3 14.8 C 0 km/h
480 02-07-2011 23:58:03 14.7 C 6.42 g/m*3 14.7 C 0 km/h
481 03-07-2011 00:10:03 14.6 C 6.51 g/m*3 14.6 C 0 km/h
482 03-07-2011 00:22:03 14.4 C 6.68 g/m*3 14.4 C 0 km/h
483 03-07-2011 00:34:03 14.4 C 6.68 g/m*3 14.4 C 0 km/h
484 03-07-2011 00:46:03 14.4 C 6.68 g/m*3 14.4 C 0 km/h
485 03-07-2011 00:58:03 14.4 C 6.68 g/m*3 14.4 C 0 km/h
486 03-07-2011 01:10:03 14.3 C 6.76 g/m*3 14.3 C 0 km/h
487 03-07-2011 01:22:03 14.4 C 6.92 g/m*3 14.4 C 0 km/h
488 03-07-2011 01:34:03 14.1 C 6.8 g/m*3 14.1 C 0 km/h
489 03-07-2011 01:46:03 14 C 6.88 g/m*3 14 C 0 km/h
490 03-07-2011 01:58:03 14 C 7 g/m*3 14 C 0 km/h
491 03-07-2011 02:10:03 13.9 C 7.07 g/m*3 13.9 C 0 km/h
492 03-07-2011 02:22:04 13.9 C 7.19 g/m*3 13.9 C 0 km/h
493 03-07-2011 02:34:04 13.7 C 7.1 g/m*3 13.7 C 0 km/h
494 03-07-2011 02:46:04 13.5 C 6.9 g/m*3 13.5 C 0 km/h
495 03-07-2011 02:58:04 13.6 C 6.94 g/m*3 13.6 C 0 km/h
496 03-07-2011 03:10:04 13.6 C 6.94 g/m*3 13.6 C 0 km/h
497 03-07-2011 03:22:04 13.4 C 6.86 g/m*3 13.4 C 0 km/h
498 03-07-2011 03:34:04 13.4 C 6.86 g/m*3 13.4 C 0 km/h
499 03-07-2011 03:46:04 13.3 C 6.93 g/m*3 13.3 C 0 km/h
500 03-07-2011 03:58:04 13.1 C 6.73 g/m*3 13.1 C 0 km/h
Sensor: Nr:Datum:Temp:Abs-Feuchte:Windchill:Wind:
Aussen-T/F 501 03-07-2011 04:10:04 13 C 6.8 g/m*3 13 C 0 km/h
502 03-07-2011 04:22:04 13 C 6.8 g/m*3 13 C 0 km/h
503 03-07-2011 04:34:04 13 C 6.8 g/m*3 13 C 0 km/h
504 03-07-2011 04:46:04 13 C 6.8 g/m*3 13 C 0 km/h
505 03-07-2011 04:58:04 13 C 6.8 g/m*3 13 C 0 km/h
506 03-07-2011 05:10:04 12.9 C 6.76 g/m*3 12.9 C 0 km/h
507 03-07-2011 05:22:04 12.9 C 6.76 g/m*3 12.9 C 0 km/h
508 03-07-2011 05:34:04 12.9 C 6.76 g/m*3 12.9 C 0 km/h
509 03-07-2011 05:46:04 12.9 C 6.76 g/m*3 12.9 C 0 km/h
510 03-07-2011 05:58:04 12.9 C 6.76 g/m*3 12.9 C 0 km/h
511 03-07-2011 06:10:04 12.9 C 6.76 g/m*3 12.9 C 0 km/h
512 03-07-2011 06:22:04 12.9 C 6.76 g/m*3 12.9 C 0 km/h
513 03-07-2011 06:34:05 12.9 C 6.76 g/m*3 12.9 C 0 km/h
514 03-07-2011 06:46:05 12.9 C 6.76 g/m*3 12.9 C 0 km/h
515 03-07-2011 06:58:05 12.8 C 7.06 g/m*3 12.8 C 0 km/h
516 03-07-2011 07:10:05 12.7 C 7.12 g/m*3 12.7 C 0 km/h
517 03-07-2011 07:22:05 12.6 C 7.08 g/m*3 12.6 C 0 km/h
518 03-07-2011 07:34:05 12.6 C 7.08 g/m*3 12.6 C 0 km/h
519 03-07-2011 07:46:05 12.6 C 7.08 g/m*3 12.6 C 0 km/h
520 03-07-2011 07:58:05 12.6 C 7.08 g/m*3 12.6 C 0 km/h
521 03-07-2011 08:10:05 12.6 C 7.08 g/m*3 12.6 C 0 km/h
522 03-07-2011 08:22:05 12.6 C 7.08 g/m*3 12.6 C 0 km/h
523 03-07-2011 08:34:05 12.6 C 7.08 g/m*3 12.6 C 0 km/h
524 03-07-2011 08:46:05 12.6 C 7.08 g/m*3 12.6 C 0 km/h
525 03-07-2011 08:58:05 12.6 C 7.08 g/m*3 12.6 C 0 km/h
Sensor: Nr:Datum:Temp:Abs-Feuchte:Windchill:Wind:
Aussen-T/F 526 03-07-2011 09:10:05 12.6 C 7.08 g/m*3 12.6 C 0 km/h
527 03-07-2011 09:22:05 12.6 C 7.08 g/m*3 12.6 C 0 km/h
528 03-07-2011 09:34:05 12.6 C 7.08 g/m*3 12.6 C 0 km/h
529 03-07-2011 09:46:01 12.6 C 7.08 g/m*3 12.6 C 0 km/h
530 03-07-2011 09:58:01 12.6 C 7.08 g/m*3 12.6 C 0 km/h
531 03-07-2011 10:10:02 12.6 C 7.08 g/m*3 12.6 C 0 km/h
532 03-07-2011 10:22:02 12.6 C 7.08 g/m*3 12.6 C 0 km/h
533 03-07-2011 14:34:02 18.9 C 5.83 g/m*3 18.9 C 0 km/h
534 03-07-2011 14:46:01 20 C 6.05 g/m*3 20 C 0 km/h
535 03-07-2011 14:58:01 21.6 C 5.88 g/m*3 21.6 C 0 km/h
536 03-07-2011 15:10:02 21.6 C 6.07 g/m*3 21.6 C 0 km/h
537 03-07-2011 15:22:01 22 C 5.82 g/m*3 22 C 0 km/h
538 03-07-2011 15:34:02 20.8 C 5.98 g/m*3 20.8 C 0 km/h
539 03-07-2011 15:46:01 24.5 C 5.82 g/m*3 24.5 C 0 km/h
540 03-07-2011 15:58:01 23.9 C 5.41 g/m*3 23.9 C 0 km/h
541 03-07-2011 16:10:02 24.7 C 5.66 g/m*3 24.7 C 0 km/h
542 03-07-2011 16:22:01 25 C 5.52 g/m*3 25 C 0 km/h
543 03-07-2011 16:34:02 25.9 C 5.81 g/m*3 25.9 C 0 km/h
544 03-07-2011 16:46:01 26 C 5.6 g/m*3 26 C 0 km/h
545 03-07-2011 16:58:01 27.5 C 5.56 g/m*3 27.5 C 0 km/h
546 03-07-2011 17:10:02 26.6 C 5.29 g/m*3 26.6 C 0 km/h
547 03-07-2011 17:22:02 24.5 C 5.82 g/m*3 24.5 C 0 km/h
548 03-07-2011 17:34:02 23.2 C 5.82 g/m*3 23.2 C 0 km/h
549 03-07-2011 17:46:02 25 C 5.75 g/m*3 25 C 0 km/h
550 03-07-2011 17:58:02 25.4 C 5.89 g/m*3 25.4 C 0 km/h
Sensor: Nr:Datum:Temp:Abs-Feuchte:Windchill:Wind:
Aussen-T/F 551 03-07-2011 18:10:01 26 C 6.09 g/m*3 26 C 0 km/h
552 03-07-2011 18:22:02 25.4 C 5.89 g/m*3 25.4 C 0 km/h
553 03-07-2011 18:34:01 24.4 C 6.01 g/m*3 24.4 C 0 km/h
554 03-07-2011 18:46:02 24.6 C 5.63 g/m*3 24.6 C 0 km/h
555 03-07-2011 18:58:02 24.7 C 5.88 g/m*3 24.7 C 0 km/h
556 03-07-2011 19:10:01 23.2 C 6.24 g/m*3 23.2 C 0 km/h
557 03-07-2011 19:22:01 23.4 C 6.1 g/m*3 23.4 C 0 km/h
558 03-07-2011 19:34:01 24.1 C 6.13 g/m*3 24.1 C 0 km/h
559 03-07-2011 19:46:02 22.2 C 6.28 g/m*3 22.2 C 0 km/h
560 03-07-2011 19:58:02 19.9 C 6.87 g/m*3 19.9 C 0 km/h
561 03-07-2011 20:10:02 19 C 6.84 g/m*3 19 C 0 km/h
562 03-07-2011 20:22:02 18.7 C 7.04 g/m*3 18.7 C 0 km/h
563 03-07-2011 20:34:02 18.2 C 6.99 g/m*3 18.2 C 0 km/h
564 03-07-2011 20:46:01 18 C 7.07 g/m*3 18 C 0 km/h
565 03-07-2011 20:58:01 17.7 C 7.24 g/m*3 17.7 C 0 km/h
566 03-07-2011 21:10:02 17.2 C 7.32 g/m*3 17.2 C 0 km/h
567 03-07-2011 21:22:01 16.5 C 7.58 g/m*3 16.5 C 0 km/h
568 03-07-2011 21:34:02 16.2 C 7.58 g/m*3 16.2 C 0 km/h
569 03-07-2011 21:46:02 16.2 C 7.58 g/m*3 16.2 C 0 km/h
570 03-07-2011 21:58:02 16.2 C 7.58 g/m*3 16.2 C 0 km/h
571 03-07-2011 22:10:02 16.2 C 7.58 g/m*3 16.2 C 0 km/h
572 03-07-2011 22:23:04 16.2 C 7.58 g/m*3 16.2 C 0 km/h
573 03-07-2011 22:35:04 16.2 C 7.58 g/m*3 16.2 C 0 km/h
574 03-07-2011 22:47:04 16.2 C 7.58 g/m*3 16.2 C 0 km/h
575 03-07-2011 22:59:04 16.2 C 7.58 g/m*3 16.2 C 0 km/h
Sensor: Nr:Datum:Temp:Abs-Feuchte:Windchill:Wind:
Aussen-T/F 576 03-07-2011 23:11:04 16.2 C 7.58 g/m*3 16.2 C 0 km/h
577 03-07-2011 23:23:04 16.2 C 7.58 g/m*3 16.2 C 0 km/h
578 03-07-2011 23:35:05 16.2 C 7.58 g/m*3 16.2 C 0 km/h
579 03-07-2011 23:47:05 16.2 C 7.58 g/m*3 16.2 C 0 km/h
580 03-07-2011 23:59:05 16.2 C 7.58 g/m*3 16.2 C 0 km/h
581 04-07-2011 00:11:05 16.2 C 7.58 g/m*3 16.2 C 0 km/h
582 04-07-2011 00:23:05 16.2 C 7.58 g/m*3 16.2 C 0 km/h
583 04-07-2011 00:35:05 16.2 C 7.58 g/m*3 16.2 C 0 km/h
584 04-07-2011 00:47:05 16.2 C 7.58 g/m*3 16.2 C 0 km/h
585 04-07-2011 00:59:05 16.2 C 7.58 g/m*3 16.2 C 0 km/h
586 04-07-2011 01:11:05 16.2 C 7.58 g/m*3 16.2 C 0 km/h
587 04-07-2011 01:23:05 16.2 C 7.58 g/m*3 16.2 C 0 km/h
588 04-07-2011 01:35:05 16.2 C 7.58 g/m*3 16.2 C 0 km/h
589 04-07-2011 01:47:05 16.2 C 7.58 g/m*3 16.2 C 0 km/h
590 04-07-2011 01:59:05 16.2 C 7.58 g/m*3 16.2 C 0 km/h
591 04-07-2011 02:11:05 16.2 C 7.58 g/m*3 16.2 C 0 km/h
592 04-07-2011 02:23:05 16.2 C 7.58 g/m*3 16.2 C 0 km/h
593 04-07-2011 02:35:05 16.2 C 7.58 g/m*3 16.2 C 0 km/h
594 04-07-2011 02:47:05 16.2 C 7.58 g/m*3 16.2 C 0 km/h
595 04-07-2011 02:59:05 16.2 C 7.58 g/m*3 16.2 C 0 km/h
596 04-07-2011 03:11:05 16.2 C 7.58 g/m*3 16.2 C 0 km/h
597 04-07-2011 03:23:05 16.2 C 7.58 g/m*3 16.2 C 0 km/h
598 04-07-2011 03:35:06 16.2 C 7.58 g/m*3 16.2 C 0 km/h
599 04-07-2011 03:47:06 16.2 C 7.58 g/m*3 16.2 C 0 km/h
600 04-07-2011 03:59:06 16.2 C 7.58 g/m*3 16.2 C 0 km/h
Sensor: Nr:Datum:Temp:Abs-Feuchte:Windchill:Wind:
Aussen-T/F 601 04-07-2011 04:11:06 16.2 C 7.58 g/m*3 16.2 C 0 km/h
602 04-07-2011 04:23:06 16.2 C 7.58 g/m*3 16.2 C 0 km/h
603 04-07-2011 04:35:06 16.2 C 7.58 g/m*3 16.2 C 0 km/h
604 04-07-2011 04:47:06 16.2 C 7.58 g/m*3 16.2 C 0 km/h
605 04-07-2011 04:59:06 16.2 C 7.58 g/m*3 16.2 C 0 km/h
606 04-07-2011 05:11:06 16.2 C 7.58 g/m*3 16.2 C 0 km/h
607 04-07-2011 05:23:06 16.2 C 7.58 g/m*3 16.2 C 0 km/h
608 04-07-2011 05:35:06 16.2 C 7.58 g/m*3 16.2 C 0 km/h
609 04-07-2011 05:47:06 16.2 C 7.58 g/m*3 16.2 C 0 km/h
610 04-07-2011 05:59:06 16.2 C 7.58 g/m*3 16.2 C 0 km/h
611 04-07-2011 06:11:06 16.2 C 7.58 g/m*3 16.2 C 0 km/h
612 04-07-2011 06:23:06 16.2 C 7.58 g/m*3 16.2 C 0 km/h
613 04-07-2011 06:35:06 16.2 C 7.58 g/m*3 16.2 C 0 km/h
614 04-07-2011 06:47:06 16.2 C 7.58 g/m*3 16.2 C 0 km/h
615 04-07-2011 06:59:06 16.2 C 7.58 g/m*3 16.2 C 0 km/h
616 04-07-2011 07:11:06 16.2 C 7.58 g/m*3 16.2 C 0 km/h
617 04-07-2011 07:23:03 16.2 C 7.58 g/m*3 16.2 C 0 km/h
618 04-07-2011 07:35:04 16.2 C 7.58 g/m*3 16.2 C 0 km/h
619 04-07-2011 07:47:02 16.2 C 7.58 g/m*3 16.2 C 0 km/h
620 04-07-2011 07:59:02 16.2 C 7.58 g/m*3 16.2 C 0 km/h
621 05-07-2011 08:00:01 12.2 C 9.28 g/m*3 12.2 C 0 km/h
622 05-07-2011 08:12:02 12.5 C 9.35 g/m*3 12.5 C 0 km/h
623 05-07-2011 08:24:03 12.6 C 9.4 g/m*3 12.6 C 0 km/h
624 05-07-2011 08:36:03 13.1 C 9.47 g/m*3 13.1 C 0 km/h
625 05-07-2011 08:48:02 14 C 9.89 g/m*3 14 C 0 km/h
Sensor: Nr:Datum:Temp:Abs-Feuchte:Windchill:Wind:
Aussen-T/F 626 05-07-2011 09:00:02 14.4 C 9.89 g/m*3 14.4 C 0 km/h
627 05-07-2011 09:12:02 14.7 C 9.82 g/m*3 14.7 C 0 km/h
628 05-07-2011 09:24:02 15 C 9.75 g/m*3 15 C 0 km/h
629 05-07-2011 09:36:01 15.6 C 9.84 g/m*3 15.6 C 0 km/h
630 05-07-2011 09:48:01 16.1 C 9.73 g/m*3 16.1 C 0 km/h
631 05-07-2011 10:00:01 16.7 C 9.81 g/m*3 16.7 C 0 km/h
632 05-07-2011 10:12:02 17.3 C 9.58 g/m*3 17.3 C 0 km/h
633 05-07-2011 10:24:02 17.6 C 9.6 g/m*3 17.6 C 0 km/h
634 05-07-2011 10:36:01 18.1 C 9.58 g/m*3 18.1 C 0 km/h
635 05-07-2011 10:48:02 18.8 C 9.66 g/m*3 18.8 C 0 km/h
636 05-07-2011 11:00:02 20.1 C 9.73 g/m*3 20.1 C 0 km/h
637 05-07-2011 11:12:01 21.7 C 9.35 g/m*3 21.7 C 0 km/h
638 05-07-2011 11:24:02 20.7 C 9.36 g/m*3 20.7 C 0 km/h
639 05-07-2011 11:36:01 21.6 C 9.67 g/m*3 21.6 C 0 km/h
640 05-07-2011 11:48:03 21.8 C 9.59 g/m*3 21.8 C 0 km/h
641 05-07-2011 12:00:03 22.3 C 9.68 g/m*3 22.3 C 0 km/h
642 05-07-2011 12:12:02 22.5 C 9.59 g/m*3 22.5 C 0 km/h
643 05-07-2011 12:24:02 22.8 C 9.55 g/m*3 22.8 C 0 km/h
644 05-07-2011 12:36:03 23.3 C 8.78 g/m*3 23.3 C 0 km/h
645 05-07-2011 12:48:02 24 C 8.27 g/m*3 24 C 0 km/h
646 05-07-2011 13:00:03 24.1 C 7.88 g/m*3 24.1 C 0 km/h
647 05-07-2011 13:12:01 24.9 C 8.24 g/m*3 24.9 C 0 km/h
648 05-07-2011 13:24:02 25.8 C 8.67 g/m*3 25.8 C 0 km/h
649 05-07-2011 13:36:02 30.6 C 8.14 g/m*3 30.6 C 0 km/h
650 05-07-2011 13:48:02 31.9 C 6.72 g/m*3 31.9 C 0 km/h
Sensor: Nr:Datum:Temp:Abs-Feuchte:Windchill:Wind:
Aussen-T/F 651 05-07-2011 14:00:02 31.8 C 6.68 g/m*3 31.8 C 0 km/h
652 05-07-2011 14:12:03 31.9 C 6.72 g/m*3 31.9 C 0 km/h
653 05-07-2011 14:24:02 31.8 C 6.68 g/m*3 31.8 C 0 km/h
654 05-07-2011 14:36:02 33.2 C 7.2 g/m*3 33.2 C 0 km/h
655 05-07-2011 14:48:02 33 C 7.12 g/m*3 33 C 0 km/h
656 05-07-2011 15:00:02 32.5 C 6.93 g/m*3 32.5 C 0 km/h
657 05-07-2011 15:12:02 31.8 C 6.68 g/m*3 31.8 C 0 km/h
658 05-07-2011 15:24:02 32.4 C 6.9 g/m*3 32.4 C 0 km/h
659 05-07-2011 15:36:02 33.1 C 7.16 g/m*3 33.1 C 0 km/h
660 05-07-2011 15:48:02 31.4 C 6.54 g/m*3 31.4 C 0 km/h
661 05-07-2011 16:00:02 33 C 7.12 g/m*3 33 C 0 km/h
662 05-07-2011 16:12:01 31.9 C 6.72 g/m*3 31.9 C 0 km/h
663 05-07-2011 16:24:02 31.8 C 6.68 g/m*3 31.8 C 0 km/h
664 05-07-2011 16:36:02 31.3 C 6.83 g/m*3 31.3 C 0 km/h
665 05-07-2011 16:48:01 31.3 C 8.13 g/m*3 31.3 C 0 km/h
666 05-07-2011 17:00:01 31.2 C 6.79 g/m*3 31.2 C 0 km/h
667 05-07-2011 17:12:01 30.3 C 8.32 g/m*3 30.3 C 0 km/h
668 05-07-2011 17:24:01 30.4 C 7.75 g/m*3 30.4 C 0 km/h
669 05-07-2011 17:36:02 31.5 C 7.89 g/m*3 31.5 C 0 km/h
670 05-07-2011 17:48:02 31.2 C 9.7 g/m*3 31.2 C 0 km/h
671 05-07-2011 18:00:02 29.7 C 10.44 g/m*3 29.7 C 0 km/h
672 05-07-2011 18:12:02 31.2 C 7.44 g/m*3 31.2 C 0 km/h
673 05-07-2011 18:24:02 30.2 C 8.28 g/m*3 30.2 C 0 km/h
674 05-07-2011 18:36:02 30.8 C 8.23 g/m*3 30.8 C 0 km/h
675 05-07-2011 18:48:02 30.6 C 7.2 g/m*3 30.6 C 0 km/h
Sensor: Nr:Datum:Temp:Abs-Feuchte:Windchill:Wind:
Aussen-T/F 676 05-07-2011 19:00:02 31 C 8 g/m*3 31 C 0 km/h
677 05-07-2011 19:12:02 31.4 C 7.52 g/m*3 31.4 C 0 km/h
678 05-07-2011 19:24:02 29 C 9.48 g/m*3 29 C 0 km/h
679 05-07-2011 19:36:02 29.9 C 9.65 g/m*3 29.9 C 0 km/h
680 05-07-2011 19:48:02 27.9 C 10.28 g/m*3 27.9 C 0 km/h
681 05-07-2011 20:00:02 26 C 10.47 g/m*3 26 C 0 km/h
682 05-07-2011 20:12:02 25.5 C 10.42 g/m*3 25.5 C 0 km/h
683 05-07-2011 20:24:02 25 C 10.36 g/m*3 25 C 0 km/h
684 05-07-2011 20:36:02 24.7 C 10.19 g/m*3 24.7 C 0 km/h
685 05-07-2011 20:48:02 23.9 C 10.38 g/m*3 23.9 C 0 km/h
686 05-07-2011 21:00:02 22.9 C 10.63 g/m*3 22.9 C 0 km/h
687 05-07-2011 21:12:02 22 C 10.09 g/m*3 22 C 0 km/h
688 05-07-2011 21:24:02 21.5 C 10.18 g/m*3 21.5 C 0 km/h
689 05-07-2011 21:36:02 21 C 10.08 g/m*3 21 C 0 km/h
690 05-07-2011 21:48:02 20.8 C 10.14 g/m*3 20.8 C 0 km/h
691 05-07-2011 22:00:02 20.6 C 10.2 g/m*3 20.6 C 0 km/h
692 05-07-2011 22:12:02 20.4 C 10.26 g/m*3 20.4 C 0 km/h
693 05-07-2011 22:24:02 20.2 C 10.14 g/m*3 20.2 C 0 km/h
694 05-07-2011 22:36:02 19.9 C 10.31 g/m*3 19.9 C 0 km/h
695 05-07-2011 22:49:03 20 C 10.37 g/m*3 20 C 0 km/h
696 05-07-2011 23:01:03 19.6 C 10.47 g/m*3 19.6 C 0 km/h
697 05-07-2011 23:13:03 19.6 C 10.47 g/m*3 19.6 C 0 km/h
698 05-07-2011 23:25:03 19.2 C 10.39 g/m*3 19.2 C 0 km/h
699 05-07-2011 23:37:03 18.6 C 10.35 g/m*3 18.6 C 0 km/h
700 05-07-2011 23:49:03 18.1 C 10.51 g/m*3 18.1 C 0 km/h
Sensor: Nr:Datum:Temp:Abs-Feuchte:Windchill:Wind:
Aussen-T/F 701 06-07-2011 00:01:03 17.8 C 10.47 g/m*3 17.8 C 0 km/h
702 06-07-2011 00:13:03 17.4 C 10.37 g/m*3 17.4 C 0 km/h
703 06-07-2011 00:25:03 17.1 C 10.48 g/m*3 17.1 C 0 km/h
704 06-07-2011 00:37:03 16.8 C 10.58 g/m*3 16.8 C 0 km/h
705 06-07-2011 00:49:03 17 C 10.71 g/m*3 17 C 0 km/h
706 06-07-2011 01:01:03 16.8 C 10.72 g/m*3 16.8 C 0 km/h
707 06-07-2011 01:13:03 16.9 C 10.64 g/m*3 16.9 C 0 km/h
708 06-07-2011 01:25:03 16.6 C 10.45 g/m*3 16.6 C 0 km/h
709 06-07-2011 01:37:03 16.1 C 10.14 g/m*3 16.1 C 0 km/h
710 06-07-2011 01:49:03 15.7 C 10.17 g/m*3 15.7 C 0 km/h
711 06-07-2011 02:01:03 15.6 C 10.24 g/m*3 15.6 C 0 km/h
712 06-07-2011 02:13:03 15.4 C 10.12 g/m*3 15.4 C 0 km/h
713 06-07-2011 02:25:03 15.3 C 10.06 g/m*3 15.3 C 0 km/h
714 06-07-2011 02:37:03 15.2 C 9.99 g/m*3 15.2 C 0 km/h
715 06-07-2011 02:49:03 15 C 9.87 g/m*3 15 C 0 km/h
716 06-07-2011 03:01:04 14.9 C 9.81 g/m*3 14.9 C 0 km/h
717 06-07-2011 03:13:04 14.6 C 9.64 g/m*3 14.6 C 0 km/h
718 06-07-2011 03:25:04 14.6 C 9.64 g/m*3 14.6 C 0 km/h
719 06-07-2011 03:37:04 14.7 C 9.82 g/m*3 14.7 C 0 km/h
720 06-07-2011 03:49:04 14.8 C 9.88 g/m*3 14.8 C 0 km/h
721 06-07-2011 04:01:04 14.6 C 9.39 g/m*3 14.6 C 0 km/h
722 06-07-2011 04:13:04 14.5 C 9.08 g/m*3 14.5 C 0 km/h
723 06-07-2011 04:25:04 14.6 C 9.26 g/m*3 14.6 C 0 km/h
724 06-07-2011 04:37:04 14.8 C 9.37 g/m*3 14.8 C 0 km/h
725 06-07-2011 04:49:04 15 C 9.36 g/m*3 15 C 0 km/h
Sensor: Nr:Datum:Temp:Abs-Feuchte:Windchill:Wind:
Aussen-T/F 726 06-07-2011 05:01:04 14.6 C 9.13 g/m*3 14.6 C 0 km/h
727 06-07-2011 05:13:04 14.2 C 9.04 g/m*3 14.2 C 0 km/h
728 06-07-2011 05:25:04 14.2 C 9.28 g/m*3 14.2 C 0 km/h
729 06-07-2011 05:37:04 14.1 C 9.34 g/m*3 14.1 C 0 km/h
730 06-07-2011 05:49:04 14.2 C 9.4 g/m*3 14.2 C 0 km/h
731 06-07-2011 06:01:05 14.5 C 9.58 g/m*3 14.5 C 0 km/h
732 06-07-2011 06:13:05 14.8 C 9.5 g/m*3 14.8 C 0 km/h
733 06-07-2011 06:25:05 15.6 C 9.71 g/m*3 15.6 C 0 km/h
734 06-07-2011 06:37:05 16 C 9.67 g/m*3 16 C 0 km/h
735 06-07-2011 06:49:05 16 C 9.67 g/m*3 16 C 0 km/h
736 06-07-2011 07:01:05 15.3 C 9.79 g/m*3 15.3 C 0 km/h
737 06-07-2011 07:13:05 15.4 C 10.25 g/m*3 15.4 C 0 km/h
738 06-07-2011 07:25:03 15.6 C 10.24 g/m*3 15.6 C 0 km/h
739 06-07-2011 07:37:02 15.8 C 10.36 g/m*3 15.8 C 0 km/h
740 06-07-2011 07:49:03 16.1 C 10.28 g/m*3 16.1 C 0 km/h
741 06-07-2011 08:01:02 16.7 C 10.23 g/m*3 16.7 C 0 km/h
742 06-07-2011 08:13:02 16.4 C 10.05 g/m*3 16.4 C 0 km/h
743 06-07-2011 08:25:02 16.6 C 9.75 g/m*3 16.6 C 0 km/h
744 06-07-2011 08:37:02 16.9 C 9.64 g/m*3 16.9 C 0 km/h
745 06-07-2011 08:49:02 16.9 C 9.49 g/m*3 16.9 C 0 km/h
746 06-07-2011 09:01:01 17.2 C 9.52 g/m*3 17.2 C 0 km/h
747 06-07-2011 09:13:01 17.9 C 9.01 g/m*3 17.9 C 0 km/h
748 06-07-2011 09:25:02 18.3 C 9.22 g/m*3 18.3 C 0 km/h
749 06-07-2011 09:37:02 19 C 9.29 g/m*3 19 C 0 km/h
750 06-07-2011 09:49:02 21.3 C 8.57 g/m*3 21.3 C 0 km/h
Sensor: Nr:Datum:Temp:Abs-Feuchte:Windchill:Wind:
Aussen-T/F 751 06-07-2011 10:01:01 22 C 7.96 g/m*3 22 C 0 km/h
752 06-07-2011 10:13:01 22.5 C 7.99 g/m*3 22.5 C 0 km/h
753 06-07-2011 10:25:01 22.8 C 8.33 g/m*3 22.8 C 0 km/h
754 06-07-2011 10:37:02 23.3 C 8.36 g/m*3 23.3 C 0 km/h
755 06-07-2011 10:49:02 23.8 C 8.39 g/m*3 23.8 C 0 km/h
756 06-07-2011 11:01:02 23.7 C 8.13 g/m*3 23.7 C 0 km/h
757 06-07-2011 11:13:02 23.2 C 8.32 g/m*3 23.2 C 0 km/h
758 06-07-2011 11:25:02 23 C 8.22 g/m*3 23 C 0 km/h
759 06-07-2011 11:37:02 24.1 C 8.1 g/m*3 24.1 C 0 km/h
760 06-07-2011 11:49:01 23.4 C 7.57 g/m*3 23.4 C 0 km/h
761 06-07-2011 12:01:02 23.7 C 7.91 g/m*3 23.7 C 0 km/h
762 06-07-2011 12:13:02 23.2 C 7.28 g/m*3 23.2 C 0 km/h
763 06-07-2011 12:25:01 23.4 C 7.57 g/m*3 23.4 C 0 km/h
764 06-07-2011 12:37:01 23.7 C 7.49 g/m*3 23.7 C 0 km/h
765 06-07-2011 12:49:01 24 C 7.18 g/m*3 24 C 0 km/h
766 06-07-2011 13:01:02 24.7 C 7.24 g/m*3 24.7 C 0 km/h
767 06-07-2011 13:13:02 24.8 C 6.83 g/m*3 24.8 C 0 km/h
768 06-07-2011 13:25:01 26.2 C 7.14 g/m*3 26.2 C 0 km/h
769 06-07-2011 13:37:02 27.4 C 6.58 g/m*3 27.4 C 0 km/h
770 06-07-2011 13:49:02 27.6 C 6.38 g/m*3 27.6 C 0 km/h
771 06-07-2011 14:01:02 27.5 C 6.61 g/m*3 27.5 C 0 km/h
772 06-07-2011 14:13:03 26.6 C 6.8 g/m*3 26.6 C 0 km/h
773 06-07-2011 14:25:01 27.3 C 6.54 g/m*3 27.3 C 0 km/h
774 06-07-2011 14:37:02 26.4 C 6.47 g/m*3 26.4 C 0 km/h
775 06-07-2011 14:49:01 26.8 C 6.62 g/m*3 26.8 C 0 km/h
Sensor: Nr:Datum:Temp:Abs-Feuchte:Windchill:Wind:
Aussen-T/F 776 06-07-2011 15:01:02 25.3 C 6.79 g/m*3 25.3 C 0 km/h
777 06-07-2011 15:13:02 24.6 C 6.75 g/m*3 24.6 C 0 km/h
778 06-07-2011 15:25:02 24 C 6.53 g/m*3 24 C 0 km/h
779 06-07-2011 15:37:02 23.7 C 6.63 g/m*3 23.7 C 0 km/h
780 06-07-2011 15:49:01 23.5 C 6.98 g/m*3 23.5 C 0 km/h
781 06-07-2011 16:01:02 24.8 C 7.06 g/m*3 24.8 C 0 km/h
782 06-07-2011 16:13:02 26.5 C 6.76 g/m*3 26.5 C 0 km/h
783 06-07-2011 16:25:02 28.7 C 6.22 g/m*3 28.7 C 0 km/h
784 06-07-2011 16:37:01 29.4 C 5.87 g/m*3 29.4 C 0 km/h
785 06-07-2011 16:49:02 30.2 C 6.44 g/m*3 30.2 C 0 km/h
786 06-07-2011 17:01:01 26.2 C 6.15 g/m*3 26.2 C 0 km/h
787 06-07-2011 17:13:01 30.2 C 6.44 g/m*3 30.2 C 0 km/h
788 06-07-2011 17:25:02 28.1 C 5.74 g/m*3 28.1 C 0 km/h
789 06-07-2011 17:37:01 25.9 C 6.78 g/m*3 25.9 C 0 km/h
790 06-07-2011 17:49:02 25 C 6.91 g/m*3 25 C 0 km/h
791 06-07-2011 18:01:01 26.3 C 6.68 g/m*3 26.3 C 0 km/h
792 06-07-2011 18:13:01 28.1 C 5.74 g/m*3 28.1 C 0 km/h
793 06-07-2011 18:25:01 24.6 C 6.75 g/m*3 24.6 C 0 km/h
794 06-07-2011 18:37:02 28 C 6.25 g/m*3 28 C 0 km/h
795 06-07-2011 18:49:02 25.3 C 6.79 g/m*3 25.3 C 0 km/h
796 06-07-2011 19:01:02 26.8 C 6.36 g/m*3 26.8 C 0 km/h
797 06-07-2011 19:13:02 28.2 C 6.05 g/m*3 28.2 C 0 km/h
798 06-07-2011 19:25:02 28.6 C 6.46 g/m*3 28.6 C 0 km/h
799 06-07-2011 19:37:02 27.1 C 5.69 g/m*3 27.1 C 0 km/h
800 06-07-2011 19:49:01 25.4 C 6.36 g/m*3 25.4 C 0 km/h
Sensor: Nr:Datum:Temp:Abs-Feuchte:Windchill:Wind:
Aussen-T/F 801 06-07-2011 20:01:02 23.9 C 6.71 g/m*3 23.9 C 0 km/h
802 06-07-2011 20:13:02 23.1 C 7.44 g/m*3 23.1 C 0 km/h
803 06-07-2011 20:25:01 22 C 7.96 g/m*3 22 C 0 km/h
804 06-07-2011 20:37:01 21.3 C 8.39 g/m*3 21.3 C 0 km/h
805 06-07-2011 20:49:02 20.8 C 8.51 g/m*3 20.8 C 0 km/h
806 06-07-2011 21:01:02 20.4 C 8.31 g/m*3 20.4 C 0 km/h
807 06-07-2011 21:13:02 20 C 8.3 g/m*3 20 C 0 km/h
808 06-07-2011 21:25:02 19.9 C 8.08 g/m*3 19.9 C 0 km/h
809 06-07-2011 21:37:02 19.5 C 8.22 g/m*3 19.5 C 0 km/h
810 06-07-2011 21:49:01 19.4 C 8.01 g/m*3 19.4 C 0 km/h
811 06-07-2011 22:01:02 18.9 C 8.26 g/m*3 18.9 C 0 km/h
812 06-07-2011 22:13:02 17.4 C 8.3 g/m*3 17.4 C 0 km/h
813 06-07-2011 22:25:01 16.6 C 8.33 g/m*3 16.6 C 0 km/h
814 06-07-2011 22:37:02 16.4 C 8.51 g/m*3 16.4 C 0 km/h
815 06-07-2011 22:49:01 15.7 C 8.3 g/m*3 15.7 C 0 km/h
816 06-07-2011 23:02:02 15.3 C 8.23 g/m*3 15.3 C 0 km/h
817 06-07-2011 23:14:02 15.4 C 8.67 g/m*3 15.4 C 0 km/h
818 06-07-2011 23:26:02 15.2 C 8.7 g/m*3 15.2 C 0 km/h
819 06-07-2011 23:38:02 15.3 C 8.75 g/m*3 15.3 C 0 km/h
820 06-07-2011 23:50:02 15.7 C 8.83 g/m*3 15.7 C 0 km/h
821 07-07-2011 00:02:02 15.7 C 8.83 g/m*3 15.7 C 0 km/h
822 07-07-2011 00:14:02 15.6 C 8.91 g/m*3 15.6 C 0 km/h
823 07-07-2011 00:26:02 15.7 C 8.96 g/m*3 15.7 C 0 km/h
824 07-07-2011 00:38:03 15.6 C 8.91 g/m*3 15.6 C 0 km/h
825 07-07-2011 00:50:03 15.4 C 8.93 g/m*3 15.4 C 0 km/h
Sensor: Nr:Datum:Temp:Abs-Feuchte:Windchill:Wind:
Aussen-T/F 826 07-07-2011 01:02:03 14.6 C 8.88 g/m*3 14.6 C 0 km/h
827 07-07-2011 01:14:03 13.8 C 8.58 g/m*3 13.8 C 0 km/h
828 07-07-2011 01:26:03 13.5 C 8.66 g/m*3 13.5 C 0 km/h
829 07-07-2011 01:38:03 13.2 C 8.38 g/m*3 13.2 C 0 km/h
830 07-07-2011 01:50:03 13.4 C 8.6 g/m*3 13.4 C 0 km/h
831 07-07-2011 02:02:03 13.5 C 8.54 g/m*3 13.5 C 0 km/h
832 07-07-2011 02:14:03 14 C 8.68 g/m*3 14 C 0 km/h
833 07-07-2011 02:26:03 14.1 C 8.74 g/m*3 14.1 C 0 km/h
834 07-07-2011 02:38:03 14 C 8.68 g/m*3 14 C 0 km/h
835 07-07-2011 02:50:03 14.3 C 8.97 g/m*3 14.3 C 0 km/h
836 07-07-2011 03:02:03 14.7 C 9.07 g/m*3 14.7 C 0 km/h
837 07-07-2011 03:14:03 14.3 C 8.97 g/m*3 14.3 C 0 km/h
838 07-07-2011 03:26:03 13.8 C 8.94 g/m*3 13.8 C 0 km/h
839 07-07-2011 03:38:03 14 C 9.17 g/m*3 14 C 0 km/h
840 07-07-2011 03:50:03 14.4 C 9.52 g/m*3 14.4 C 0 km/h
841 07-07-2011 04:02:03 14.5 C 9.45 g/m*3 14.5 C 0 km/h
842 07-07-2011 04:14:03 14.1 C 9.22 g/m*3 14.1 C 0 km/h
843 07-07-2011 04:26:03 13.9 C 9.59 g/m*3 13.9 C 0 km/h
844 07-07-2011 04:38:03 14.1 C 9.83 g/m*3 14.1 C 0 km/h
845 07-07-2011 04:50:03 13.9 C 9.83 g/m*3 13.9 C 0 km/h
846 07-07-2011 05:02:03 13.8 C 9.89 g/m*3 13.8 C 0 km/h
847 07-07-2011 05:14:04 13.6 C 9.77 g/m*3 13.6 C 0 km/h
848 07-07-2011 05:26:04 13.7 C 9.83 g/m*3 13.7 C 0 km/h
849 07-07-2011 05:38:04 13.2 C 9.53 g/m*3 13.2 C 0 km/h
850 07-07-2011 05:50:04 13.3 C 9.7 g/m*3 13.3 C 0 km/h
Sensor: Nr:Datum:Temp:Abs-Feuchte:Windchill:Wind:
Aussen-T/F 851 07-07-2011 06:02:04 13.7 C 10.07 g/m*3 13.7 C 0 km/h
852 07-07-2011 06:14:04 13.5 C 10.06 g/m*3 13.5 C 0 km/h
853 07-07-2011 06:26:04 13.8 C 10.25 g/m*3 13.8 C 0 km/h
854 07-07-2011 06:38:04 13.9 C 10.31 g/m*3 13.9 C 0 km/h
855 07-07-2011 06:50:04 14.1 C 10.32 g/m*3 14.1 C 0 km/h
856 07-07-2011 07:02:04 14.4 C 10.51 g/m*3 14.4 C 0 km/h
857 07-07-2011 07:14:04 14.3 C 10.2 g/m*3 14.3 C 0 km/h
858 07-07-2011 07:26:02 14.9 C 10.45 g/m*3 14.9 C 0 km/h
859 07-07-2011 07:38:01 15.4 C 10.38 g/m*3 15.4 C 0 km/h
860 07-07-2011 07:50:01 16.1 C 10.14 g/m*3 16.1 C 0 km/h
861 07-07-2011 08:02:02 16.4 C 9.77 g/m*3 16.4 C 0 km/h
862 07-07-2011 08:14:02 16.8 C 9.44 g/m*3 16.8 C 0 km/h
863 07-07-2011 08:26:02 17.5 C 9.54 g/m*3 17.5 C 0 km/h
864 07-07-2011 08:38:01 17.7 C 9.35 g/m*3 17.7 C 0 km/h
865 07-07-2011 08:50:02 18.3 C 9.54 g/m*3 18.3 C 0 km/h
866 07-07-2011 09:02:01 18.4 C 9.44 g/m*3 18.4 C 0 km/h
867 07-07-2011 09:14:01 18.4 C 9.12 g/m*3 18.4 C 0 km/h
868 07-07-2011 09:26:02 18.3 C 9.38 g/m*3 18.3 C 0 km/h
869 07-07-2011 09:38:01 18.3 C 9.85 g/m*3 18.3 C 0 km/h
870 07-07-2011 09:50:02 18.5 C 9.81 g/m*3 18.5 C 0 km/h
871 07-07-2011 10:02:02 19.1 C 9.51 g/m*3 19.1 C 0 km/h
872 07-07-2011 10:14:03 19.9 C 8.25 g/m*3 19.9 C 0 km/h
873 07-07-2011 10:26:01 20.3 C 8.27 g/m*3 20.3 C 0 km/h
874 07-07-2011 10:38:02 21 C 8.06 g/m*3 21 C 0 km/h
875 07-07-2011 10:50:01 21.4 C 7.69 g/m*3 21.4 C 0 km/h
Sensor: Nr:Datum:Temp:Abs-Feuchte:Windchill:Wind:
Aussen-T/F 876 07-07-2011 11:02:02 22.4 C 7.75 g/m*3 22.4 C 0 km/h
877 07-07-2011 11:14:02 22.5 C 7.59 g/m*3 22.5 C 0 km/h
878 07-07-2011 11:26:02 22.9 C 7.56 g/m*3 22.9 C 0 km/h
879 07-07-2011 11:38:02 23.9 C 6.71 g/m*3 23.9 C 0 km/h
880 07-07-2011 11:50:02 22.5 C 5.99 g/m*3 22.5 C 0 km/h
881 07-07-2011 12:02:02 23.4 C 6.1 g/m*3 23.4 C 0 km/h
882 07-07-2011 12:14:02 23.4 C 6.31 g/m*3 23.4 C 0 km/h
883 07-07-2011 12:26:02 24.3 C 6.2 g/m*3 24.3 C 0 km/h
884 07-07-2011 12:38:01 23.8 C 6.02 g/m*3 23.8 C 0 km/h
885 07-07-2011 12:50:02 25 C 6.22 g/m*3 25 C 0 km/h
886 07-07-2011 13:02:01 25.7 C 6.22 g/m*3 25.7 C 0 km/h
887 07-07-2011 13:14:01 24.9 C 6.18 g/m*3 24.9 C 0 km/h
888 07-07-2011 13:26:02 26.8 C 6.36 g/m*3 26.8 C 0 km/h
889 07-07-2011 13:38:01 25.8 C 6.26 g/m*3 25.8 C 0 km/h
890 07-07-2011 13:50:02 28.2 C 6.32 g/m*3 28.2 C 0 km/h
891 07-07-2011 14:02:01 25.7 C 5.99 g/m*3 25.7 C 0 km/h
892 07-07-2011 14:14:01 25.8 C 6.02 g/m*3 25.8 C 0 km/h
893 07-07-2011 14:26:01 24.9 C 6.18 g/m*3 24.9 C 0 km/h
894 07-07-2011 14:38:01 28.5 C 6.15 g/m*3 28.5 C 0 km/h
895 07-07-2011 14:50:02 27.4 C 6.05 g/m*3 27.4 C 0 km/h
896 07-07-2011 15:02:02 27.5 C 6.08 g/m*3 27.5 C 0 km/h
897 07-07-2011 15:14:02 26.7 C 6.33 g/m*3 26.7 C 0 km/h
898 07-07-2011 15:26:02 25.8 C 6.26 g/m*3 25.8 C 0 km/h
899 07-07-2011 15:38:02 26.2 C 6.15 g/m*3 26.2 C 0 km/h
900 07-07-2011 15:50:01 25.6 C 6.19 g/m*3 25.6 C 0 km/h
Sensor: Nr:Datum:Temp:Abs-Feuchte:Windchill:Wind:
Aussen-T/F 901 07-07-2011 16:02:02 25.8 C 6.26 g/m*3 25.8 C 0 km/h
902 07-07-2011 16:14:02 24.8 C 6.15 g/m*3 24.8 C 0 km/h
903 07-07-2011 16:26:01 24.8 C 6.15 g/m*3 24.8 C 0 km/h
904 07-07-2011 16:38:02 24.2 C 7.26 g/m*3 24.2 C 0 km/h
905 07-07-2011 16:50:02 24 C 7.61 g/m*3 24 C 0 km/h
906 07-07-2011 17:02:02 23.9 C 8 g/m*3 23.9 C 0 km/h
907 07-07-2011 17:14:02 24.1 C 7.88 g/m*3 24.1 C 0 km/h
908 07-07-2011 17:26:01 23.2 C 8.11 g/m*3 23.2 C 0 km/h
909 07-07-2011 17:38:02 23.5 C 6.98 g/m*3 23.5 C 0 km/h
910 07-07-2011 17:50:02 23.6 C 7.44 g/m*3 23.6 C 0 km/h
911 07-07-2011 18:02:02 23.4 C 6.73 g/m*3 23.4 C 0 km/h
912 07-07-2011 18:14:02 23.7 C 7.06 g/m*3 23.7 C 0 km/h
913 07-07-2011 18:26:02 23.3 C 7.95 g/m*3 23.3 C 0 km/h
914 07-07-2011 18:38:02 23.6 C 7.44 g/m*3 23.6 C 0 km/h
915 07-07-2011 18:50:01 23.4 C 6.94 g/m*3 23.4 C 0 km/h
916 07-07-2011 19:02:02 22.6 C 8.44 g/m*3 22.6 C 0 km/h
917 07-07-2011 19:14:02 22.5 C 8.59 g/m*3 22.5 C 0 km/h
918 07-07-2011 19:26:02 22.3 C 8.69 g/m*3 22.3 C 0 km/h
919 07-07-2011 19:38:02 21.8 C 9.02 g/m*3 21.8 C 0 km/h
920 07-07-2011 19:50:02 21.6 C 8.91 g/m*3 21.6 C 0 km/h
921 07-07-2011 20:02:01 21.1 C 8.29 g/m*3 21.1 C 0 km/h
922 07-07-2011 20:14:01 21 C 8.43 g/m*3 21 C 0 km/h
923 07-07-2011 20:26:02 21.1 C 8.29 g/m*3 21.1 C 0 km/h
924 07-07-2011 20:38:01 21 C 8.43 g/m*3 21 C 0 km/h
925 07-07-2011 20:50:02 20.8 C 8.33 g/m*3 20.8 C 0 km/h
Sensor: Nr:Datum:Temp:Abs-Feuchte:Windchill:Wind:
Aussen-T/F 926 07-07-2011 21:02:01 21 C 8.43 g/m*3 21 C 0 km/h
927 07-07-2011 21:14:01 20.6 C 8.59 g/m*3 20.6 C 0 km/h
928 07-07-2011 21:26:01 20.3 C 8.62 g/m*3 20.3 C 0 km/h
929 07-07-2011 21:38:02 20 C 8.64 g/m*3 20 C 0 km/h
930 07-07-2011 21:51:03 19.7 C 8.66 g/m*3 19.7 C 0 km/h
931 07-07-2011 22:03:03 19.5 C 8.73 g/m*3 19.5 C 0 km/h
932 07-07-2011 22:15:03 18.7 C 9.13 g/m*3 18.7 C 0 km/h
933 07-07-2011 22:27:03 18.4 C 8.97 g/m*3 18.4 C 0 km/h
934 07-07-2011 22:39:03 18.5 C 9.02 g/m*3 18.5 C 0 km/h
935 07-07-2011 22:51:03 18.8 C 8.86 g/m*3 18.8 C 0 km/h
936 07-07-2011 23:03:03 18.8 C 8.86 g/m*3 18.8 C 0 km/h
937 07-07-2011 23:15:03 18.7 C 8.81 g/m*3 18.7 C 0 km/h
938 07-07-2011 23:27:03 18.4 C 8.81 g/m*3 18.4 C 0 km/h
939 07-07-2011 23:39:03 18.2 C 8.86 g/m*3 18.2 C 0 km/h
940 07-07-2011 23:51:03 18.1 C 8.81 g/m*3 18.1 C 0 km/h
941 08-07-2011 00:03:03 17.8 C 8.95 g/m*3 17.8 C 0 km/h
942 08-07-2011 00:15:03 17.3 C 8.99 g/m*3 17.3 C 0 km/h
943 08-07-2011 00:27:03 17.1 C 9.03 g/m*3 17.1 C 0 km/h
944 08-07-2011 00:39:03 17.1 C 9.03 g/m*3 17.1 C 0 km/h
945 08-07-2011 00:51:03 17.2 C 9.08 g/m*3 17.2 C 0 km/h
946 08-07-2011 01:03:03 17.3 C 9.13 g/m*3 17.3 C 0 km/h
947 08-07-2011 01:15:03 17.4 C 9.04 g/m*3 17.4 C 0 km/h
948 08-07-2011 01:27:03 17.3 C 9.13 g/m*3 17.3 C 0 km/h
949 08-07-2011 01:39:04 17.5 C 9.09 g/m*3 17.5 C 0 km/h
950 08-07-2011 01:51:04 17.3 C 8.99 g/m*3 17.3 C 0 km/h
Sensor: Nr:Datum:Temp:Abs-Feuchte:Windchill:Wind:
Aussen-T/F 951 08-07-2011 02:03:04 17.1 C 9.03 g/m*3 17.1 C 0 km/h
952 08-07-2011 02:15:04 17.2 C 9.08 g/m*3 17.2 C 0 km/h
953 08-07-2011 02:27:04 17.1 C 9.03 g/m*3 17.1 C 0 km/h
954 08-07-2011 02:39:04 16.9 C 9.06 g/m*3 16.9 C 0 km/h
955 08-07-2011 02:51:04 16.8 C 9.29 g/m*3 16.8 C 0 km/h
956 08-07-2011 03:03:04 17 C 9.26 g/m*3 17 C 0 km/h
957 08-07-2011 03:15:04 16.7 C 9.24 g/m*3 16.7 C 0 km/h
958 08-07-2011 03:27:04 16.9 C 9.35 g/m*3 16.9 C 0 km/h
959 08-07-2011 03:39:04 17 C 9.26 g/m*3 17 C 0 km/h
960 08-07-2011 03:51:04 16.4 C 9.35 g/m*3 16.4 C 0 km/h
961 08-07-2011 04:03:04 15.8 C 9.69 g/m*3 15.8 C 0 km/h
962 08-07-2011 04:15:04 15.3 C 9.92 g/m*3 15.3 C 0 km/h
963 08-07-2011 04:27:04 15.2 C 10.25 g/m*3 15.2 C 0 km/h
964 08-07-2011 04:39:04 14.9 C 10.32 g/m*3 14.9 C 0 km/h
965 08-07-2011 04:51:04 14.9 C 10.58 g/m*3 14.9 C 0 km/h
966 08-07-2011 05:03:04 14.7 C 10.58 g/m*3 14.7 C 0 km/h
967 08-07-2011 05:15:04 14.5 C 10.57 g/m*3 14.5 C 0 km/h
968 08-07-2011 05:27:04 14.5 C 10.7 g/m*3 14.5 C 0 km/h
969 08-07-2011 05:39:04 14.4 C 10.63 g/m*3 14.4 C 0 km/h
970 08-07-2011 05:51:04 14.3 C 10.57 g/m*3 14.3 C 0 km/h
971 08-07-2011 06:03:04 14 C 10.37 g/m*3 14 C 0 km/h
972 08-07-2011 06:15:05 13.7 C 10.3 g/m*3 13.7 C 0 km/h
973 08-07-2011 06:27:05 13.6 C 10.24 g/m*3 13.6 C 0 km/h
974 08-07-2011 06:39:05 13.6 C 10.24 g/m*3 13.6 C 0 km/h
975 08-07-2011 06:51:05 13.9 C 10.43 g/m*3 13.9 C 0 km/h
Sensor: Nr:Datum:Temp:Abs-Feuchte:Windchill:Wind:
Aussen-T/F 976 08-07-2011 07:03:05 14.1 C 10.32 g/m*3 14.1 C 0 km/h
977 08-07-2011 07:15:05 14.5 C 10.32 g/m*3 14.5 C 0 km/h
978 08-07-2011 07:27:05 14.6 C 10.14 g/m*3 14.6 C 0 km/h
979 08-07-2011 07:39:03 14.7 C 10.07 g/m*3 14.7 C 0 km/h
980 08-07-2011 07:51:02 15 C 10.13 g/m*3 15 C 0 km/h
981 08-07-2011 08:03:02 15.6 C 9.84 g/m*3 15.6 C 0 km/h
982 08-07-2011 08:15:02 15.8 C 9.69 g/m*3 15.8 C 0 km/h
983 08-07-2011 08:27:02 16 C 9.81 g/m*3 16 C 0 km/h
984 08-07-2011 08:39:02 17.2 C 9.81 g/m*3 17.2 C 0 km/h
985 08-07-2011 08:51:01 17.8 C 9.11 g/m*3 17.8 C 0 km/h
986 08-07-2011 09:03:02 17.9 C 8.7 g/m*3 17.9 C 0 km/h
987 08-07-2011 09:15:02 17.8 C 8.65 g/m*3 17.8 C 0 km/h
988 08-07-2011 09:27:02 17.5 C 8.5 g/m*3 17.5 C 0 km/h
989 08-07-2011 09:39:01 17.8 C 8.65 g/m*3 17.8 C 0 km/h
990 08-07-2011 09:51:02 18.1 C 8.5 g/m*3 18.1 C 0 km/h
991 08-07-2011 10:03:01 18.5 C 8.23 g/m*3 18.5 C 0 km/h
992 08-07-2011 10:15:01 18.9 C 7.94 g/m*3 18.9 C 0 km/h
993 08-07-2011 10:27:01 18.9 C 7.94 g/m*3 18.9 C 0 km/h
994 08-07-2011 10:39:02 18.9 C 8.1 g/m*3 18.9 C 0 km/h
995 08-07-2011 10:51:02 20.8 C 7.79 g/m*3 20.8 C 0 km/h
996 08-07-2011 11:03:02 20.3 C 7.03 g/m*3 20.3 C 0 km/h
997 08-07-2011 11:15:02 20.2 C 6.99 g/m*3 20.2 C 0 km/h
998 08-07-2011 11:27:02 19.9 C 7.04 g/m*3 19.9 C 0 km/h
999 08-07-2011 11:39:02 20.3 C 6.68 g/m*3 20.3 C 0 km/h
1000 08-07-2011 11:51:02 20.2 C 6.82 g/m*3 20.2 C 0 km/h
Sensor: Nr:Datum:Temp:Abs-Feuchte:Windchill:Wind:
Aussen-T/F 1001 08-07-2011 12:03:02 20.7 C 6.84 g/m*3 20.7 C 0 km/h
1002 08-07-2011 12:15:02 20.6 C 6.8 g/m*3 20.6 C 0 km/h
1003 08-07-2011 12:27:02 20.9 C 6.92 g/m*3 20.9 C 0 km/h
1004 08-07-2011 12:39:01 21.8 C 6.72 g/m*3 21.8 C 0 km/h
1005 08-07-2011 12:51:02 21 C 6.78 g/m*3 21 C 0 km/h
1006 08-07-2011 13:03:01 21.9 C 6.75 g/m*3 21.9 C 0 km/h
1007 08-07-2011 13:15:02 22.3 C 6.91 g/m*3 22.3 C 0 km/h
1008 08-07-2011 13:27:02 23.7 C 6.42 g/m*3 23.7 C 0 km/h
1009 08-07-2011 13:39:01 25.9 C 6.54 g/m*3 25.9 C 0 km/h
1010 08-07-2011 13:51:03 28.4 C 6.12 g/m*3 28.4 C 0 km/h
1011 08-07-2011 14:03:02 27.7 C 5.62 g/m*3 27.7 C 0 km/h
1012 08-07-2011 14:15:02 25.4 C 5.41 g/m*3 25.4 C 0 km/h
1013 08-07-2011 14:27:03 23.7 C 6.42 g/m*3 23.7 C 0 km/h
1014 08-07-2011 14:39:02 25 C 5.75 g/m*3 25 C 0 km/h
1015 08-07-2011 14:51:02 24.3 C 5.97 g/m*3 24.3 C 0 km/h
1016 08-07-2011 15:03:01 25.6 C 6.19 g/m*3 25.6 C 0 km/h
1017 08-07-2011 15:15:02 24.5 C 5.82 g/m*3 24.5 C 0 km/h
1018 08-07-2011 15:27:02 26.2 C 6.4 g/m*3 26.2 C 0 km/h
1019 08-07-2011 15:39:02 26.7 C 6.33 g/m*3 26.7 C 0 km/h
1020 08-07-2011 15:51:01 23.8 C 6.24 g/m*3 23.8 C 0 km/h
1021 08-07-2011 16:03:02 26.2 C 5.91 g/m*3 26.2 C 0 km/h
1022 08-07-2011 16:15:01 24.4 C 6.23 g/m*3 24.4 C 0 km/h
1023 08-07-2011 16:27:01 27.6 C 5.85 g/m*3 27.6 C 0 km/h
1024 08-07-2011 16:39:02 26 C 6.09 g/m*3 26 C 0 km/h
1025 08-07-2011 16:51:02 23.9 C 6.06 g/m*3 23.9 C 0 km/h
Sensor: Nr:Datum:Temp:Abs-Feuchte:Windchill:Wind:
Aussen-T/F 1026 08-07-2011 17:03:02 24.8 C 5.69 g/m*3 24.8 C 0 km/h
1027 08-07-2011 17:15:01 26 C 5.11 g/m*3 26 C 0 km/h
1028 08-07-2011 17:27:01 26.3 C 5.69 g/m*3 26.3 C 0 km/h
1029 08-07-2011 17:39:02 27.1 C 5.43 g/m*3 27.1 C 0 km/h
1030 08-07-2011 17:51:02 27.7 C 5.62 g/m*3 27.7 C 0 km/h
1031 08-07-2011 18:03:02 28.4 C 5.56 g/m*3 28.4 C 0 km/h
1032 08-07-2011 18:15:01 28.7 C 5.65 g/m*3 28.7 C 0 km/h
1033 08-07-2011 18:27:01 27.1 C 5.18 g/m*3 27.1 C 0 km/h
1034 08-07-2011 18:39:02 27 C 5.15 g/m*3 27 C 0 km/h
1035 08-07-2011 18:51:02 26.9 C 5.12 g/m*3 26.9 C 0 km/h
1036 08-07-2011 19:03:02 26.6 C 5.03 g/m*3 26.6 C 0 km/h
1037 08-07-2011 19:15:02 26 C 4.87 g/m*3 26 C 0 km/h
1038 08-07-2011 19:27:02 26.1 C 4.9 g/m*3 26.1 C 0 km/h
1039 08-07-2011 19:39:02 26 C 4.87 g/m*3 26 C 0 km/h
1040 08-07-2011 19:51:02 24.4 C 5.56 g/m*3 24.4 C 0 km/h
1041 08-07-2011 20:03:02 23.7 C 5.78 g/m*3 23.7 C 0 km/h
1042 08-07-2011 20:15:02 23 C 6.58 g/m*3 23 C 0 km/h
1043 08-07-2011 20:27:02 22.7 C 7.27 g/m*3 22.7 C 0 km/h
1044 08-07-2011 20:39:01 22.2 C 7.26 g/m*3 22.2 C 0 km/h
1045 08-07-2011 20:51:02 21.6 C 7.78 g/m*3 21.6 C 0 km/h
1046 08-07-2011 21:03:01 20.8 C 7.97 g/m*3 20.8 C 0 km/h
1047 08-07-2011 21:15:02 19.9 C 8.08 g/m*3 19.9 C 0 km/h
1048 08-07-2011 21:27:02 19.2 C 8.08 g/m*3 19.2 C 0 km/h
1049 08-07-2011 21:39:02 18.5 C 7.91 g/m*3 18.5 C 0 km/h
1050 08-07-2011 21:51:02 18.2 C 7.62 g/m*3 18.2 C 0 km/h
Sensor: Nr:Datum:Temp:Abs-Feuchte:Windchill:Wind:
Aussen-T/F 1051 08-07-2011 22:03:02 18 C 7.53 g/m*3 18 C 0 km/h
1052 08-07-2011 22:16:03 17.8 C 7.59 g/m*3 17.8 C 0 km/h
1053 08-07-2011 22:28:03 17.7 C 7.85 g/m*3 17.7 C 0 km/h
1054 08-07-2011 22:40:03 17.9 C 7.79 g/m*3 17.9 C 0 km/h
1055 08-07-2011 22:52:03 17.9 C 7.63 g/m*3 17.9 C 0 km/h
1056 08-07-2011 23:04:03 17.1 C 7.42 g/m*3 17.1 C 0 km/h
1057 08-07-2011 23:16:03 16.6 C 7.77 g/m*3 16.6 C 0 km/h
1058 08-07-2011 23:28:03 16.5 C 8 g/m*3 16.5 C 0 km/h
1059 08-07-2011 23:40:03 16.6 C 8.05 g/m*3 16.6 C 0 km/h
1060 08-07-2011 23:52:03 16.6 C 8.19 g/m*3 16.6 C 0 km/h
1061 09-07-2011 00:04:03 16.4 C 8.1 g/m*3 16.4 C 0 km/h
1062 09-07-2011 00:16:03 16.4 C 8.23 g/m*3 16.4 C 0 km/h
1063 09-07-2011 00:28:03 16.1 C 8.22 g/m*3 16.1 C 0 km/h
1064 09-07-2011 00:40:03 16 C 8.31 g/m*3 16 C 0 km/h
1065 09-07-2011 00:52:03 15.6 C 8.38 g/m*3 15.6 C 0 km/h
1066 09-07-2011 01:04:03 15.3 C 8.36 g/m*3 15.3 C 0 km/h
1067 09-07-2011 01:16:03 15.6 C 8.25 g/m*3 15.6 C 0 km/h
1068 09-07-2011 01:28:03 15.6 C 8.25 g/m*3 15.6 C 0 km/h
1069 09-07-2011 01:40:03 15.7 C 8.3 g/m*3 15.7 C 0 km/h
1070 09-07-2011 01:52:03 15.5 C 8.2 g/m*3 15.5 C 0 km/h
1071 09-07-2011 02:04:03 15.3 C 8.23 g/m*3 15.3 C 0 km/h
1072 09-07-2011 02:16:03 15.2 C 8.31 g/m*3 15.2 C 0 km/h
1073 09-07-2011 02:28:03 15.1 C 8.39 g/m*3 15.1 C 0 km/h
1074 09-07-2011 02:40:04 14.7 C 8.44 g/m*3 14.7 C 0 km/h
1075 09-07-2011 02:52:04 14.3 C 8.23 g/m*3 14.3 C 0 km/h
Sensor: Nr:Datum:Temp:Abs-Feuchte:Windchill:Wind:
Aussen-T/F 1076 09-07-2011 03:04:04 14.2 C 8.3 g/m*3 14.2 C 0 km/h
1077 09-07-2011 03:16:04 14 C 8.2 g/m*3 14 C 0 km/h
1078 09-07-2011 03:28:04 14 C 8.44 g/m*3 14 C 0 km/h
1079 09-07-2011 03:40:04 13.9 C 8.51 g/m*3 13.9 C 0 km/h
1080 09-07-2011 03:52:04 13.8 C 8.46 g/m*3 13.8 C 0 km/h
1081 09-07-2011 04:04:04 13.7 C 8.41 g/m*3 13.7 C 0 km/h
1082 09-07-2011 04:16:04 13.8 C 8.46 g/m*3 13.8 C 0 km/h
1083 09-07-2011 04:28:04 14.1 C 8.5 g/m*3 14.1 C 0 km/h
1084 09-07-2011 04:40:04 14.1 C 8.62 g/m*3 14.1 C 0 km/h
1085 09-07-2011 04:52:04 14.2 C 8.67 g/m*3 14.2 C 0 km/h
1086 09-07-2011 05:04:04 14.2 C 8.79 g/m*3 14.2 C 0 km/h
1087 09-07-2011 05:16:04 14.3 C 8.85 g/m*3 14.3 C 0 km/h
1088 09-07-2011 05:28:04 14.6 C 9.01 g/m*3 14.6 C 0 km/h
1089 09-07-2011 05:40:04 14.6 C 9.01 g/m*3 14.6 C 0 km/h
1090 09-07-2011 05:52:04 14.7 C 9.07 g/m*3 14.7 C 0 km/h
1091 09-07-2011 06:04:04 14.8 C 9.12 g/m*3 14.8 C 0 km/h
1092 09-07-2011 06:16:04 15.1 C 9.16 g/m*3 15.1 C 0 km/h
1093 09-07-2011 06:28:04 15.3 C 9.14 g/m*3 15.3 C 0 km/h
1094 09-07-2011 06:40:03 15.4 C 9.2 g/m*3 15.4 C 0 km/h
1095 09-07-2011 06:52:02 15.7 C 9.37 g/m*3 15.7 C 0 km/h
1096 09-07-2011 07:04:01 15.9 C 9.34 g/m*3 15.9 C 0 km/h
1097 09-07-2011 07:16:02 16.1 C 9.32 g/m*3 16.1 C 0 km/h
1098 09-07-2011 07:28:02 16.2 C 9.52 g/m*3 16.2 C 0 km/h
1099 09-07-2011 07:40:02 16.5 C 9.69 g/m*3 16.5 C 0 km/h
1100 09-07-2011 07:52:02 16.9 C 9.49 g/m*3 16.9 C 0 km/h
Sensor: Nr:Datum:Temp:Abs-Feuchte:Windchill:Wind:
Aussen-T/F 1101 09-07-2011 08:04:03 16.8 C 9.44 g/m*3 16.8 C 0 km/h
1102 09-07-2011 08:16:02 17.8 C 9.56 g/m*3 17.8 C 0 km/h
1103 09-07-2011 08:28:02 19.1 C 8.69 g/m*3 19.1 C 0 km/h
1104 09-07-2011 08:40:02 19.7 C 9 g/m*3 19.7 C 0 km/h
1105 09-07-2011 08:52:01 20.2 C 8.92 g/m*3 20.2 C 0 km/h
1106 09-07-2011 09:04:02 21.2 C 9.27 g/m*3 21.2 C 0 km/h
1107 09-07-2011 09:16:01 21.4 C 8.62 g/m*3 21.4 C 0 km/h
1108 09-07-2011 09:28:01 22 C 8.35 g/m*3 22 C 0 km/h
1109 09-07-2011 09:40:02 22.9 C 8.38 g/m*3 22.9 C 0 km/h
1110 09-07-2011 09:52:02 22.5 C 8.99 g/m*3 22.5 C 0 km/h
1111 09-07-2011 10:04:02 22.4 C 9.53 g/m*3 22.4 C 0 km/h
1112 09-07-2011 10:16:01 24 C 7.61 g/m*3 24 C 0 km/h
1113 09-07-2011 10:28:01 24.7 C 7.02 g/m*3 24.7 C 0 km/h
1114 09-07-2011 10:40:02 25.1 C 7.41 g/m*3 25.1 C 0 km/h
1115 09-07-2011 10:52:02 25.7 C 7.42 g/m*3 25.7 C 0 km/h
1116 09-07-2011 11:04:03 25.1 C 6.94 g/m*3 25.1 C 0 km/h
1117 09-07-2011 11:16:02 25.4 C 7.06 g/m*3 25.4 C 0 km/h
1118 09-07-2011 11:28:02 25.6 C 7.14 g/m*3 25.6 C 0 km/h
1119 09-07-2011 11:40:02 25 C 7.37 g/m*3 25 C 0 km/h
1120 09-07-2011 11:52:01 24.9 C 7.32 g/m*3 24.9 C 0 km/h
1121 09-07-2011 12:04:02 25.2 C 7.22 g/m*3 25.2 C 0 km/h
1122 09-07-2011 12:16:01 24.7 C 7.24 g/m*3 24.7 C 0 km/h
1123 09-07-2011 12:28:01 25.1 C 7.41 g/m*3 25.1 C 0 km/h
1124 09-07-2011 12:40:01 26.2 C 6.89 g/m*3 26.2 C 0 km/h
1125 09-07-2011 12:52:01 25.4 C 7.06 g/m*3 25.4 C 0 km/h
Sensor: Nr:Datum:Temp:Abs-Feuchte:Windchill:Wind:
Aussen-T/F 1126 09-07-2011 13:04:02 26.4 C 6.97 g/m*3 26.4 C 0 km/h
1127 09-07-2011 13:16:02 26.1 C 6.37 g/m*3 26.1 C 0 km/h
1128 09-07-2011 13:28:02 28.3 C 6.91 g/m*3 28.3 C 0 km/h
1129 09-07-2011 13:40:01 28.9 C 6 g/m*3 28.9 C 0 km/h
1130 09-07-2011 13:52:02 30.4 C 6.2 g/m*3 30.4 C 0 km/h
1131 09-07-2011 14:04:01 30.3 C 6.16 g/m*3 30.3 C 0 km/h
1132 09-07-2011 14:16:02 27.9 C 5.68 g/m*3 27.9 C 0 km/h
1133 09-07-2011 14:28:02 30.1 C 6.1 g/m*3 30.1 C 0 km/h
1134 09-07-2011 14:40:01 30 C 6.06 g/m*3 30 C 0 km/h
1135 09-07-2011 14:52:03 29 C 5.74 g/m*3 29 C 0 km/h
1136 09-07-2011 15:04:02 29.7 C 5.97 g/m*3 29.7 C 0 km/h
1137 09-07-2011 15:16:02 29 C 5.74 g/m*3 29 C 0 km/h
1138 09-07-2011 15:28:02 29 C 5.74 g/m*3 29 C 0 km/h
1139 09-07-2011 15:40:02 29.3 C 5.84 g/m*3 29.3 C 0 km/h
1140 09-07-2011 15:52:02 30.4 C 6.2 g/m*3 30.4 C 0 km/h
1141 09-07-2011 16:04:01 30 C 6.06 g/m*3 30 C 0 km/h
1142 09-07-2011 16:16:02 28.9 C 5.71 g/m*3 28.9 C 0 km/h
1143 09-07-2011 16:28:02 28.1 C 5.47 g/m*3 28.1 C 0 km/h
1144 09-07-2011 16:40:02 30.3 C 6.16 g/m*3 30.3 C 0 km/h
1145 09-07-2011 16:52:02 30.3 C 6.16 g/m*3 30.3 C 0 km/h
1146 09-07-2011 17:04:01 31.3 C 6.5 g/m*3 31.3 C 0 km/h
1147 09-07-2011 17:16:01 27.9 C 5.41 g/m*3 27.9 C 0 km/h
1148 09-07-2011 17:28:01 28.1 C 5.47 g/m*3 28.1 C 0 km/h
1149 09-07-2011 17:40:02 27.8 C 5.38 g/m*3 27.8 C 0 km/h
1150 09-07-2011 17:52:02 29.7 C 5.97 g/m*3 29.7 C 0 km/h
Sensor: Nr:Datum:Temp:Abs-Feuchte:Windchill:Wind:
Aussen-T/F 1151 09-07-2011 18:04:02 28.9 C 5.71 g/m*3 28.9 C 0 km/h
1152 09-07-2011 18:16:02 26.8 C 5.35 g/m*3 26.8 C 0 km/h
1153 09-07-2011 18:28:02 27.3 C 5.76 g/m*3 27.3 C 0 km/h
1154 09-07-2011 18:40:02 28.1 C 5.47 g/m*3 28.1 C 0 km/h
1155 09-07-2011 18:52:02 26.5 C 5.51 g/m*3 26.5 C 0 km/h
1156 09-07-2011 19:04:02 26 C 5.84 g/m*3 26 C 0 km/h
1157 09-07-2011 19:16:02 23.7 C 8.77 g/m*3 23.7 C 0 km/h
1158 09-07-2011 19:28:02 22.5 C 8.39 g/m*3 22.5 C 0 km/h
1159 09-07-2011 19:40:02 22.3 C 8.49 g/m*3 22.3 C 0 km/h
1160 09-07-2011 19:52:01 22.3 C 8.49 g/m*3 22.3 C 0 km/h
1161 09-07-2011 20:04:01 23.1 C 8.48 g/m*3 23.1 C 0 km/h
1162 09-07-2011 20:16:01 22 C 8.35 g/m*3 22 C 0 km/h
1163 09-07-2011 20:28:01 21.1 C 8.48 g/m*3 21.1 C 0 km/h
1164 09-07-2011 20:40:01 21.2 C 8.71 g/m*3 21.2 C 0 km/h
1165 09-07-2011 20:52:01 21 C 8.43 g/m*3 21 C 0 km/h
1166 09-07-2011 21:04:01 20.7 C 8.64 g/m*3 20.7 C 0 km/h
1167 09-07-2011 21:16:02 20.6 C 8.59 g/m*3 20.6 C 0 km/h
1168 09-07-2011 21:28:02 20.4 C 8.67 g/m*3 20.4 C 0 km/h
1169 09-07-2011 21:40:01 20.4 C 8.67 g/m*3 20.4 C 0 km/h
1170 09-07-2011 21:52:03 20 C 8.47 g/m*3 20 C 0 km/h
1171 09-07-2011 22:04:02 19.5 C 8.56 g/m*3 19.5 C 0 km/h
1172 09-07-2011 22:16:03 19.5 C 8.56 g/m*3 19.5 C 0 km/h
1173 09-07-2011 22:28:03 19.3 C 8.63 g/m*3 19.3 C 0 km/h
1174 09-07-2011 22:40:02 19.1 C 8.69 g/m*3 19.1 C 0 km/h
1175 09-07-2011 22:52:03 18.7 C 8.49 g/m*3 18.7 C 0 km/h
Sensor: Nr:Datum:Temp:Abs-Feuchte:Windchill:Wind:
Aussen-T/F 1176 09-07-2011 23:04:02 17.8 C 8.5 g/m*3 17.8 C 0 km/h
1177 09-07-2011 23:17:03 16.8 C 8.58 g/m*3 16.8 C 0 km/h
1178 09-07-2011 23:29:03 16.6 C 8.9 g/m*3 16.6 C 0 km/h
1179 09-07-2011 23:41:03 16.7 C 8.81 g/m*3 16.7 C 0 km/h
1180 09-07-2011 23:53:03 16.6 C 9.04 g/m*3 16.6 C 0 km/h
1181 10-07-2011 00:05:03 16.1 C 8.64 g/m*3 16.1 C 0 km/h
1182 10-07-2011 00:17:03 16.2 C 8.69 g/m*3 16.2 C 0 km/h
1183 10-07-2011 00:29:03 16.3 C 9.16 g/m*3 16.3 C 0 km/h
1184 10-07-2011 00:41:03 16 C 8.86 g/m*3 16 C 0 km/h
1185 10-07-2011 00:53:03 15.8 C 9.02 g/m*3 15.8 C 0 km/h
1186 10-07-2011 01:05:03 15.1 C 8.77 g/m*3 15.1 C 0 km/h
1187 10-07-2011 01:17:03 15 C 9.1 g/m*3 15 C 0 km/h
1188 10-07-2011 01:29:03 15.3 C 9.27 g/m*3 15.3 C 0 km/h
1189 10-07-2011 01:41:04 14.5 C 8.83 g/m*3 14.5 C 0 km/h
1190 10-07-2011 01:53:04 14.4 C 8.9 g/m*3 14.4 C 0 km/h
1191 10-07-2011 02:05:04 14 C 8.81 g/m*3 14 C 0 km/h
1192 10-07-2011 02:17:04 13.6 C 8.71 g/m*3 13.6 C 0 km/h
1193 10-07-2011 02:29:04 13.7 C 8.88 g/m*3 13.7 C 0 km/h
1194 10-07-2011 02:41:04 14 C 8.93 g/m*3 14 C 0 km/h
1195 10-07-2011 02:53:04 14 C 8.93 g/m*3 14 C 0 km/h
1196 10-07-2011 03:05:04 13.8 C 8.82 g/m*3 13.8 C 0 km/h
1197 10-07-2011 03:17:04 13.9 C 8.87 g/m*3 13.9 C 0 km/h
1198 10-07-2011 03:29:04 14.4 C 9.15 g/m*3 14.4 C 0 km/h
1199 10-07-2011 03:41:04 14.6 C 9.26 g/m*3 14.6 C 0 km/h
1200 10-07-2011 03:53:04 14.8 C 9.25 g/m*3 14.8 C 0 km/h
Sensor: Nr:Datum:Temp:Abs-Feuchte:Windchill:Wind:
Aussen-T/F 1201 10-07-2011 04:05:04 14.8 C 9.12 g/m*3 14.8 C 0 km/h
1202 10-07-2011 04:17:04 14.7 C 9.07 g/m*3 14.7 C 0 km/h
1203 10-07-2011 04:29:04 14.3 C 8.85 g/m*3 14.3 C 0 km/h
1204 10-07-2011 04:41:04 13.6 C 8.59 g/m*3 13.6 C 0 km/h
1205 10-07-2011 04:53:04 12.8 C 8.51 g/m*3 12.8 C 0 km/h
1206 10-07-2011 05:05:04 12.8 C 8.85 g/m*3 12.8 C 0 km/h
1207 10-07-2011 05:17:04 13 C 9.19 g/m*3 13 C 0 km/h
1208 10-07-2011 05:29:04 12.9 C 9.24 g/m*3 12.9 C 0 km/h
1209 10-07-2011 05:41:05 12.8 C 9.18 g/m*3 12.8 C 0 km/h
1210 10-07-2011 05:53:05 12.9 C 9.35 g/m*3 12.9 C 0 km/h
1211 10-07-2011 06:05:05 12.8 C 9.18 g/m*3 12.8 C 0 km/h
1212 10-07-2011 06:17:05 12.6 C 9.07 g/m*3 12.6 C 0 km/h
1213 10-07-2011 06:29:05 12.4 C 8.96 g/m*3 12.4 C 0 km/h
1214 10-07-2011 06:41:05 13.2 C 9.53 g/m*3 13.2 C 0 km/h
1215 10-07-2011 06:53:05 13.4 C 9.53 g/m*3 13.4 C 0 km/h
1216 10-07-2011 07:05:05 13.6 C 9.53 g/m*3 13.6 C 0 km/h
1217 10-07-2011 07:17:05 13.8 C 9.65 g/m*3 13.8 C 0 km/h
1218 10-07-2011 07:29:05 13.8 C 9.65 g/m*3 13.8 C 0 km/h
1219 10-07-2011 07:41:05 14.1 C 9.59 g/m*3 14.1 C 0 km/h
1220 10-07-2011 07:53:05 14.3 C 9.58 g/m*3 14.3 C 0 km/h
1221 10-07-2011 08:05:05 14.1 C 9.59 g/m*3 14.1 C 0 km/h
1222 10-07-2011 08:17:05 14.1 C 9.59 g/m*3 14.1 C 0 km/h
1223 10-07-2011 08:29:05 14.4 C 9.77 g/m*3 14.4 C 0 km/h
1224 10-07-2011 08:41:05 15 C 10 g/m*3 15 C 0 km/h
1225 10-07-2011 08:53:05 15.4 C 10.12 g/m*3 15.4 C 0 km/h
Sensor: Nr:Datum:Temp:Abs-Feuchte:Windchill:Wind:
Aussen-T/F 1226 10-07-2011 09:05:03 15.7 C 9.63 g/m*3 15.7 C 0 km/h
1227 10-07-2011 09:17:02 16.2 C 9.79 g/m*3 16.2 C 0 km/h
1228 10-07-2011 09:29:02 16.8 C 9.72 g/m*3 16.8 C 0 km/h
1229 10-07-2011 09:41:02 17.6 C 9.45 g/m*3 17.6 C 0 km/h
1230 10-07-2011 09:53:02 18.7 C 8.81 g/m*3 18.7 C 0 km/h
1231 10-07-2011 10:05:02 19.5 C 8.73 g/m*3 19.5 C 0 km/h
1232 10-07-2011 10:17:02 19.4 C 9.18 g/m*3 19.4 C 0 km/h
1233 10-07-2011 10:29:02 20 C 8.64 g/m*3 20 C 0 km/h
1234 10-07-2011 10:41:02 21.1 C 7.55 g/m*3 21.1 C 0 km/h
1235 10-07-2011 10:53:02 21.9 C 7.33 g/m*3 21.9 C 0 km/h
1236 10-07-2011 11:05:01 23.2 C 6.44 g/m*3 23.2 C 0 km/h
1237 10-07-2011 11:17:02 22.3 C 6.52 g/m*3 22.3 C 0 km/h
1238 10-07-2011 11:29:02 22.1 C 6.05 g/m*3 22.1 C 0 km/h
1239 10-07-2011 11:41:02 23 C 6.37 g/m*3 23 C 0 km/h
1240 10-07-2011 11:53:02 24.1 C 5.47 g/m*3 24.1 C 0 km/h
1241 10-07-2011 12:05:02 23.7 C 5.56 g/m*3 23.7 C 0 km/h
1242 10-07-2011 12:17:01 23.8 C 5.59 g/m*3 23.8 C 0 km/h
1243 10-07-2011 12:29:01 24.6 C 5.85 g/m*3 24.6 C 0 km/h
1244 10-07-2011 12:41:02 25.5 C 5.45 g/m*3 25.5 C 0 km/h
1245 10-07-2011 12:53:02 25.9 C 5.08 g/m*3 25.9 C 0 km/h
1246 10-07-2011 13:05:02 26.6 C 5.79 g/m*3 26.6 C 0 km/h
1247 10-07-2011 13:17:02 26.7 C 5.32 g/m*3 26.7 C 0 km/h
1248 10-07-2011 13:29:02 26.3 C 5.2 g/m*3 26.3 C 0 km/h
1249 10-07-2011 13:41:02 27 C 5.15 g/m*3 27 C 0 km/h
1250 10-07-2011 13:53:01 26.8 C 5.09 g/m*3 26.8 C 0 km/h
Sensor: Nr:Datum:Temp:Abs-Feuchte:Windchill:Wind:
Aussen-T/F 1251 10-07-2011 14:05:02 27 C 5.15 g/m*3 27 C 0 km/h
1252 10-07-2011 14:17:02 27.3 C 5.23 g/m*3 27.3 C 0 km/h
1253 10-07-2011 14:29:02 25.5 C 4.97 g/m*3 25.5 C 0 km/h
1254 10-07-2011 14:41:02 25.5 C 5.21 g/m*3 25.5 C 0 km/h
1255 10-07-2011 14:53:02 26.4 C 5.23 g/m*3 26.4 C 0 km/h
1256 10-07-2011 15:05:01 26.3 C 5.69 g/m*3 26.3 C 0 km/h
1257 10-07-2011 15:17:02 26.3 C 5.2 g/m*3 26.3 C 0 km/h
1258 10-07-2011 15:29:03 25.6 C 5.95 g/m*3 25.6 C 0 km/h
1259 10-07-2011 15:41:01 24.7 C 6.11 g/m*3 24.7 C 0 km/h
1260 10-07-2011 15:53:02 24.2 C 6.16 g/m*3 24.2 C 0 km/h
1261 10-07-2011 16:05:02 24 C 7.4 g/m*3 24 C 0 km/h
1262 10-07-2011 16:17:02 23 C 8.43 g/m*3 23 C 0 km/h
1263 10-07-2011 16:29:02 21.3 C 9.69 g/m*3 21.3 C 0 km/h
1264 10-07-2011 16:41:03 20.8 C 9.78 g/m*3 20.8 C 0 km/h
1265 10-07-2011 16:53:02 20.8 C 9.78 g/m*3 20.8 C 0 km/h
1266 10-07-2011 17:05:02 20.9 C 9.83 g/m*3 20.9 C 0 km/h
1267 10-07-2011 17:17:02 21.2 C 9.82 g/m*3 21.2 C 0 km/h
1268 10-07-2011 17:29:02 21.7 C 9.35 g/m*3 21.7 C 0 km/h
1269 10-07-2011 17:41:02 22.4 C 9.14 g/m*3 22.4 C 0 km/h
1270 10-07-2011 17:53:02 23.3 C 8.36 g/m*3 23.3 C 0 km/h
1271 10-07-2011 18:05:02 22.7 C 7.48 g/m*3 22.7 C 0 km/h
1272 10-07-2011 18:17:02 22.4 C 8.54 g/m*3 22.4 C 0 km/h
1273 10-07-2011 18:29:02 22 C 9.7 g/m*3 22 C 0 km/h
1274 10-07-2011 18:41:02 20.5 C 10.32 g/m*3 20.5 C 0 km/h
1275 10-07-2011 18:53:02 19.3 C 10.62 g/m*3 19.3 C 0 km/h
Sensor: Nr:Datum:Temp:Abs-Feuchte:Windchill:Wind:
Aussen-T/F 1276 10-07-2011 19:05:02 19 C 10.43 g/m*3 19 C 0 km/h
1277 10-07-2011 19:17:02 19.3 C 10.28 g/m*3 19.3 C 0 km/h
1278 10-07-2011 19:29:02 18.6 C 10.03 g/m*3 18.6 C 0 km/h
1279 10-07-2011 19:41:02 18.3 C 10.32 g/m*3 18.3 C 0 km/h
1280 10-07-2011 19:53:02 17.6 C 10.8 g/m*3 17.6 C 0 km/h
1281 10-07-2011 20:05:02 16.9 C 10.79 g/m*3 16.9 C 0 km/h
1282 10-07-2011 20:17:03 16.6 C 10.88 g/m*3 16.6 C 0 km/h
1283 10-07-2011 20:29:03 16.6 C 11.3 g/m*3 16.6 C 0 km/h
1284 10-07-2011 20:41:02 16.4 C 11.31 g/m*3 16.4 C 0 km/h
1285 10-07-2011 20:53:03 16.5 C 11.37 g/m*3 16.5 C 0 km/h
1286 10-07-2011 21:05:02 16.5 C 11.37 g/m*3 16.5 C 0 km/h
1287 10-07-2011 21:17:02 16.4 C 11.31 g/m*3 16.4 C 0 km/h
1288 10-07-2011 21:29:02 16.1 C 11.24 g/m*3 16.1 C 0 km/h
1289 10-07-2011 21:41:03 15.8 C 11.17 g/m*3 15.8 C 0 km/h
1290 10-07-2011 21:53:03 15.8 C 11.17 g/m*3 15.8 C 0 km/h
1291 10-07-2011 22:05:02 15.6 C 10.91 g/m*3 15.6 C 0 km/h
1292 10-07-2011 22:18:02 15.2 C 10.64 g/m*3 15.2 C 0 km/h
1293 10-07-2011 22:30:02 15.1 C 10.45 g/m*3 15.1 C 0 km/h
1294 10-07-2011 22:42:03 15.3 C 10.58 g/m*3 15.3 C 0 km/h
1295 10-07-2011 22:54:03 15.2 C 10.51 g/m*3 15.2 C 0 km/h
1296 10-07-2011 23:06:03 14.9 C 10.58 g/m*3 14.9 C 0 km/h
1297 10-07-2011 23:18:03 14.9 C 10.58 g/m*3 14.9 C 0 km/h
1298 10-07-2011 23:30:03 14.8 C 10.64 g/m*3 14.8 C 0 km/h
1299 10-07-2011 23:42:03 14.6 C 10.51 g/m*3 14.6 C 0 km/h
1300 10-07-2011 23:54:03 14.7 C 10.7 g/m*3 14.7 C 0 km/h
Sensor: Nr:Datum:Temp:Abs-Feuchte:Windchill:Wind:
Aussen-T/F 1301 11-07-2011 00:06:03 14.9 C 10.96 g/m*3 14.9 C 0 km/h
1302 11-07-2011 00:18:03 14.8 C 10.89 g/m*3 14.8 C 0 km/h
1303 11-07-2011 00:30:03 14.9 C 10.96 g/m*3 14.9 C 0 km/h
1304 11-07-2011 00:42:03 15 C 10.9 g/m*3 15 C 0 km/h
1305 11-07-2011 00:54:03 14.6 C 10.64 g/m*3 14.6 C 0 km/h
1306 11-07-2011 01:06:03 14.5 C 10.7 g/m*3 14.5 C 0 km/h
1307 11-07-2011 01:18:03 14.2 C 10.5 g/m*3 14.2 C 0 km/h
1308 11-07-2011 01:30:03 14.5 C 10.82 g/m*3 14.5 C 0 km/h
1309 11-07-2011 01:42:03 14.7 C 10.95 g/m*3 14.7 C 0 km/h
1310 11-07-2011 01:54:03 14.8 C 11.15 g/m*3 14.8 C 0 km/h
1311 11-07-2011 02:06:03 14.7 C 11.08 g/m*3 14.7 C 0 km/h
1312 11-07-2011 02:18:03 14.6 C 10.89 g/m*3 14.6 C 0 km/h
1313 11-07-2011 02:30:03 14.4 C 10.75 g/m*3 14.4 C 0 km/h
1314 11-07-2011 02:42:03 14.3 C 10.69 g/m*3 14.3 C 0 km/h
1315 11-07-2011 02:54:04 14.3 C 10.69 g/m*3 14.3 C 0 km/h
1316 11-07-2011 03:06:04 14.3 C 10.69 g/m*3 14.3 C 0 km/h
1317 11-07-2011 03:18:04 13.8 C 10.48 g/m*3 13.8 C 0 km/h
1318 11-07-2011 03:30:04 13.5 C 10.29 g/m*3 13.5 C 0 km/h
1319 11-07-2011 03:42:04 13.2 C 10.1 g/m*3 13.2 C 0 km/h
1320 11-07-2011 03:54:04 13.5 C 10.29 g/m*3 13.5 C 0 km/h
1321 11-07-2011 04:06:04 13.3 C 10.17 g/m*3 13.3 C 0 km/h
1322 11-07-2011 04:18:04 13.1 C 10.04 g/m*3 13.1 C 0 km/h
1323 11-07-2011 04:30:04 13 C 9.98 g/m*3 13 C 0 km/h
1324 11-07-2011 04:42:04 13 C 9.98 g/m*3 13 C 0 km/h
1325 11-07-2011 04:54:04 12.9 C 10.03 g/m*3 12.9 C 0 km/h
Sensor: Nr:Datum:Temp:Abs-Feuchte:Windchill:Wind:
Aussen-T/F 1326 11-07-2011 05:06:04 12.7 C 9.91 g/m*3 12.7 C 0 km/h
1327 11-07-2011 05:18:04 12.6 C 9.85 g/m*3 12.6 C 0 km/h
1328 11-07-2011 05:30:04 13 C 10.09 g/m*3 13 C 0 km/h
1329 11-07-2011 05:42:04 13.1 C 10.16 g/m*3 13.1 C 0 km/h
1330 11-07-2011 05:54:04 13.6 C 10.47 g/m*3 13.6 C 0 km/h
1331 11-07-2011 06:06:04 13.7 C 10.66 g/m*3 13.7 C 0 km/h
1332 11-07-2011 06:18:04 13.7 C 10.54 g/m*3 13.7 C 0 km/h
1333 11-07-2011 06:30:04 14 C 10.74 g/m*3 14 C 0 km/h
1334 11-07-2011 06:42:04 14.2 C 10.87 g/m*3 14.2 C 0 km/h
1335 11-07-2011 06:54:04 14.5 C 10.94 g/m*3 14.5 C 0 km/h
1336 11-07-2011 07:06:05 14.8 C 10.77 g/m*3 14.8 C 0 km/h
1337 11-07-2011 07:18:02 15 C 10.51 g/m*3 15 C 0 km/h
1338 11-07-2011 07:30:02 15.4 C 10.51 g/m*3 15.4 C 0 km/h
1339 11-07-2011 07:42:02 15.3 C 10.32 g/m*3 15.3 C 0 km/h
1340 11-07-2011 07:54:02 15.6 C 10.37 g/m*3 15.6 C 0 km/h
1341 11-07-2011 08:06:02 15.5 C 10.31 g/m*3 15.5 C 0 km/h
1342 11-07-2011 08:18:01 15.3 C 10.19 g/m*3 15.3 C 0 km/h
1343 11-07-2011 08:30:01 15.7 C 10.44 g/m*3 15.7 C 0 km/h
1344 11-07-2011 08:42:02 16.2 C 10.34 g/m*3 16.2 C 0 km/h
1345 11-07-2011 08:54:02 16.9 C 10.36 g/m*3 16.9 C 0 km/h
1346 11-07-2011 09:06:02 17.2 C 9.81 g/m*3 17.2 C 0 km/h
1347 11-07-2011 09:18:01 17.5 C 9.99 g/m*3 17.5 C 0 km/h
1348 11-07-2011 09:30:01 18.2 C 9.79 g/m*3 18.2 C 0 km/h
1349 11-07-2011 09:42:02 17.6 C 9.9 g/m*3 17.6 C 0 km/h
1350 11-07-2011 09:54:01 17.4 C 9.93 g/m*3 17.4 C 0 km/h
Sensor: Nr:Datum:Temp:Abs-Feuchte:Windchill:Wind:
Aussen-T/F 1351 11-07-2011 10:06:02 17.8 C 10.17 g/m*3 17.8 C 0 km/h
1352 11-07-2011 10:18:01 18 C 9.98 g/m*3 18 C 0 km/h
1353 11-07-2011 10:30:01 18.5 C 10.13 g/m*3 18.5 C 0 km/h
1354 11-07-2011 10:42:02 19 C 9.78 g/m*3 19 C 0 km/h
1355 11-07-2011 10:54:02 20 C 9.68 g/m*3 20 C 0 km/h
1356 11-07-2011 11:06:02 20.5 C 9.07 g/m*3 20.5 C 0 km/h
1357 11-07-2011 11:18:01 20.7 C 8.64 g/m*3 20.7 C 0 km/h
1358 11-07-2011 11:30:01 21.2 C 7.41 g/m*3 21.2 C 0 km/h
1359 11-07-2011 11:42:02 21.4 C 7.69 g/m*3 21.4 C 0 km/h
1360 11-07-2011 11:54:02 21.6 C 7.59 g/m*3 21.6 C 0 km/h
1361 11-07-2011 12:06:02 22.1 C 7.81 g/m*3 22.1 C 0 km/h
1362 11-07-2011 12:18:01 22.2 C 8.44 g/m*3 22.2 C 0 km/h
1363 11-07-2011 12:30:01 23 C 8.02 g/m*3 23 C 0 km/h
1364 11-07-2011 12:42:02 23.7 C 7.49 g/m*3 23.7 C 0 km/h
1365 11-07-2011 12:54:02 24.2 C 7.04 g/m*3 24.2 C 0 km/h
1366 11-07-2011 13:06:02 25.2 C 7.22 g/m*3 25.2 C 0 km/h
1367 11-07-2011 13:18:02 25 C 7.14 g/m*3 25 C 0 km/h
1368 11-07-2011 13:30:02 26.3 C 7.43 g/m*3 26.3 C 0 km/h
1369 11-07-2011 13:42:02 29.2 C 7.26 g/m*3 29.2 C 0 km/h
1370 11-07-2011 13:54:02 30.1 C 6.71 g/m*3 30.1 C 0 km/h
1371 11-07-2011 14:06:02 27.4 C 6.84 g/m*3 27.4 C 0 km/h
1372 11-07-2011 14:18:02 25.8 C 7.22 g/m*3 25.8 C 0 km/h
1373 11-07-2011 14:30:02 27.5 C 6.88 g/m*3 27.5 C 0 km/h
1374 11-07-2011 14:42:01 31.4 C 6.54 g/m*3 31.4 C 0 km/h
1375 11-07-2011 14:54:02 31.4 C 6.54 g/m*3 31.4 C 0 km/h
Sensor: Nr:Datum:Temp:Abs-Feuchte:Windchill:Wind:
Aussen-T/F 1376 11-07-2011 15:06:01 29.2 C 6.39 g/m*3 29.2 C 0 km/h
1377 11-07-2011 15:18:02 31.1 C 6.43 g/m*3 31.1 C 0 km/h
1378 11-07-2011 15:30:02 29.3 C 6.13 g/m*3 29.3 C 0 km/h
1379 11-07-2011 15:42:01 29 C 6.61 g/m*3 29 C 0 km/h
1380 11-07-2011 15:54:02 30 C 6.06 g/m*3 30 C 0 km/h
1381 11-07-2011 16:06:02 28.2 C 6.05 g/m*3 28.2 C 0 km/h
1382 11-07-2011 16:18:02 31.2 C 6.47 g/m*3 31.2 C 0 km/h
1383 11-07-2011 16:30:02 32.5 C 6.93 g/m*3 32.5 C 0 km/h
1384 11-07-2011 16:42:03 33.2 C 7.2 g/m*3 33.2 C 0 km/h
1385 11-07-2011 16:54:02 32.6 C 6.97 g/m*3 32.6 C 0 km/h
1386 11-07-2011 17:06:02 32.2 C 6.82 g/m*3 32.2 C 0 km/h
1387 11-07-2011 17:18:01 31.5 C 6.57 g/m*3 31.5 C 0 km/h
1388 11-07-2011 17:30:01 30.8 C 6.33 g/m*3 30.8 C 0 km/h
1389 11-07-2011 17:42:02 32.5 C 6.93 g/m*3 32.5 C 0 km/h
1390 11-07-2011 17:54:02 33 C 7.12 g/m*3 33 C 0 km/h
1391 11-07-2011 18:06:02 32.8 C 7.04 g/m*3 32.8 C 0 km/h
1392 11-07-2011 18:18:02 32 C 6.75 g/m*3 32 C 0 km/h
1393 11-07-2011 18:30:02 32.6 C 6.97 g/m*3 32.6 C 0 km/h
1394 11-07-2011 18:42:02 30.9 C 6.37 g/m*3 30.9 C 0 km/h
1395 11-07-2011 18:54:02 30 C 6.06 g/m*3 30 C 0 km/h
1396 11-07-2011 19:06:02 28.8 C 5.68 g/m*3 28.8 C 0 km/h
1397 11-07-2011 19:18:02 29.1 C 6.64 g/m*3 29.1 C 0 km/h
1398 11-07-2011 19:30:02 30.9 C 6.37 g/m*3 30.9 C 0 km/h
1399 11-07-2011 19:42:02 30.5 C 6.23 g/m*3 30.5 C 0 km/h
1400 11-07-2011 19:54:01 28.2 C 6.05 g/m*3 28.2 C 0 km/h
Sensor: Nr:Datum:Temp:Abs-Feuchte:Windchill:Wind:
Aussen-T/F 1401 11-07-2011 20:06:01 26.9 C 6.4 g/m*3 26.9 C 0 km/h
1402 11-07-2011 20:18:02 25.7 C 7.18 g/m*3 25.7 C 0 km/h
1403 11-07-2011 20:30:02 24.9 C 8.47 g/m*3 24.9 C 0 km/h
1404 11-07-2011 20:42:01 23.6 C 8.29 g/m*3 23.6 C 0 km/h
1405 11-07-2011 20:54:01 22.5 C 8.19 g/m*3 22.5 C 0 km/h
1406 11-07-2011 21:06:02 21.9 C 8.3 g/m*3 21.9 C 0 km/h
1407 11-07-2011 21:18:01 21.6 C 8.35 g/m*3 21.6 C 0 km/h
1408 11-07-2011 21:30:01 21.2 C 8.15 g/m*3 21.2 C 0 km/h
1409 11-07-2011 21:42:01 20.8 C 8.33 g/m*3 20.8 C 0 km/h
1410 11-07-2011 21:54:01 20 C 8.3 g/m*3 20 C 0 km/h
1411 11-07-2011 22:06:02 19.5 C 8.22 g/m*3 19.5 C 0 km/h
1412 11-07-2011 22:18:01 19.4 C 8.18 g/m*3 19.4 C 0 km/h
1413 11-07-2011 22:30:01 18.9 C 8.26 g/m*3 18.9 C 0 km/h
1414 11-07-2011 22:43:02 19 C 8.31 g/m*3 19 C 0 km/h
1415 11-07-2011 22:55:02 18.7 C 8.17 g/m*3 18.7 C 0 km/h
1416 11-07-2011 23:07:02 18.6 C 8.12 g/m*3 18.6 C 0 km/h
1417 11-07-2011 23:19:02 17.9 C 8.55 g/m*3 17.9 C 0 km/h
1418 11-07-2011 23:31:02 17.4 C 8.3 g/m*3 17.4 C 0 km/h
1419 11-07-2011 23:43:02 16.8 C 8.29 g/m*3 16.8 C 0 km/h
1420 11-07-2011 23:55:02 16.4 C 8.37 g/m*3 16.4 C 0 km/h
1421 12-07-2011 00:07:02 16 C 8.31 g/m*3 16 C 0 km/h
1422 12-07-2011 00:19:02 15.8 C 8.48 g/m*3 15.8 C 0 km/h
1423 12-07-2011 00:31:02 15.6 C 8.64 g/m*3 15.6 C 0 km/h
1424 12-07-2011 00:43:02 15.2 C 8.57 g/m*3 15.2 C 0 km/h
1425 12-07-2011 00:55:03 15.1 C 8.64 g/m*3 15.1 C 0 km/h
Sensor: Nr:Datum:Temp:Abs-Feuchte:Windchill:Wind:
Aussen-T/F 1426 12-07-2011 01:07:03 15 C 8.72 g/m*3 15 C 0 km/h
1427 12-07-2011 01:19:03 14.5 C 8.46 g/m*3 14.5 C 0 km/h
1428 12-07-2011 01:31:03 14.3 C 8.6 g/m*3 14.3 C 0 km/h
1429 12-07-2011 01:43:03 14.2 C 8.67 g/m*3 14.2 C 0 km/h
1430 12-07-2011 01:55:03 14.2 C 8.79 g/m*3 14.2 C 0 km/h
1431 12-07-2011 02:07:03 13.8 C 8.7 g/m*3 13.8 C 0 km/h
1432 12-07-2011 02:19:03 13.5 C 8.54 g/m*3 13.5 C 0 km/h
1433 12-07-2011 02:31:03 13.4 C 8.72 g/m*3 13.4 C 0 km/h
1434 12-07-2011 02:43:03 13.3 C 8.66 g/m*3 13.3 C 0 km/h
1435 12-07-2011 02:55:03 13.2 C 8.61 g/m*3 13.2 C 0 km/h
1436 12-07-2011 03:07:03 13 C 8.62 g/m*3 13 C 0 km/h
1437 12-07-2011 03:19:03 12.8 C 8.62 g/m*3 12.8 C 0 km/h
1438 12-07-2011 03:31:03 12.7 C 8.57 g/m*3 12.7 C 0 km/h
1439 12-07-2011 03:43:03 12.5 C 8.58 g/m*3 12.5 C 0 km/h
1440 12-07-2011 03:55:03 12.3 C 8.47 g/m*3 12.3 C 0 km/h
1441 12-07-2011 04:07:03 12.1 C 8.47 g/m*3 12.1 C 0 km/h
1442 12-07-2011 04:19:03 12 C 8.42 g/m*3 12 C 0 km/h
1443 12-07-2011 04:31:03 12.1 C 8.69 g/m*3 12.1 C 0 km/h
1444 12-07-2011 04:43:03 12 C 8.74 g/m*3 12 C 0 km/h
1445 12-07-2011 04:55:04 11.9 C 8.79 g/m*3 11.9 C 0 km/h
1446 12-07-2011 05:07:04 11.8 C 8.74 g/m*3 11.8 C 0 km/h
1447 12-07-2011 05:19:04 11.8 C 8.84 g/m*3 11.8 C 0 km/h
1448 12-07-2011 05:31:04 11.6 C 8.73 g/m*3 11.6 C 0 km/h
1449 12-07-2011 05:43:04 11.7 C 8.79 g/m*3 11.7 C 0 km/h
1450 12-07-2011 05:55:04 11.6 C 8.83 g/m*3 11.6 C 0 km/h
Sensor: Nr:Datum:Temp:Abs-Feuchte:Windchill:Wind:
Aussen-T/F 1451 12-07-2011 06:07:04 11.7 C 8.89 g/m*3 11.7 C 0 km/h
1452 12-07-2011 06:19:04 11.8 C 9.05 g/m*3 11.8 C 0 km/h
1453 12-07-2011 06:31:04 11.9 C 9.11 g/m*3 11.9 C 0 km/h
1454 12-07-2011 06:43:04 12 C 9.06 g/m*3 12 C 0 km/h
1455 12-07-2011 06:55:02 12.1 C 9.12 g/m*3 12.1 C 0 km/h
1456 12-07-2011 07:07:01 12.2 C 9.17 g/m*3 12.2 C 0 km/h
1457 12-07-2011 07:19:02 12.4 C 9.4 g/m*3 12.4 C 0 km/h
1458 12-07-2011 07:31:01 12.6 C 9.51 g/m*3 12.6 C 0 km/h
1459 12-07-2011 07:43:01 12.9 C 9.69 g/m*3 12.9 C 0 km/h
1460 12-07-2011 07:55:02 13.4 C 9.88 g/m*3 13.4 C 0 km/h
1461 12-07-2011 08:07:02 13.8 C 10.13 g/m*3 13.8 C 0 km/h
1462 12-07-2011 08:19:02 14.4 C 10.38 g/m*3 14.4 C 0 km/h
1463 12-07-2011 08:31:03 15.2 C 10.38 g/m*3 15.2 C 0 km/h
1464 12-07-2011 08:43:03 16.2 C 10.62 g/m*3 16.2 C 0 km/h
1465 12-07-2011 08:55:02 16.8 C 10.44 g/m*3 16.8 C 0 km/h
1466 12-07-2011 09:07:01 17.5 C 10.29 g/m*3 17.5 C 0 km/h
1467 12-07-2011 09:19:02 18.3 C 10.16 g/m*3 18.3 C 0 km/h
1468 12-07-2011 09:31:02 19.9 C 10.48 g/m*3 19.9 C 0 km/h
1469 12-07-2011 09:43:02 20.4 C 9.38 g/m*3 20.4 C 0 km/h
1470 12-07-2011 09:55:02 22 C 9.12 g/m*3 22 C 0 km/h
1471 12-07-2011 10:07:01 22.8 C 9.35 g/m*3 22.8 C 0 km/h
1472 12-07-2011 10:19:01 23.9 C 8.87 g/m*3 23.9 C 0 km/h
1473 12-07-2011 10:31:02 25 C 8.52 g/m*3 25 C 0 km/h
1474 12-07-2011 10:43:02 26.1 C 8.32 g/m*3 26.1 C 0 km/h
1475 12-07-2011 10:55:02 27.6 C 8.25 g/m*3 27.6 C 0 km/h
Sensor: Nr:Datum:Temp:Abs-Feuchte:Windchill:Wind:
Aussen-T/F 1476 12-07-2011 11:07:02 27.5 C 7.94 g/m*3 27.5 C 0 km/h
1477 12-07-2011 11:19:02 28.1 C 7.66 g/m*3 28.1 C 0 km/h
1478 12-07-2011 11:31:03 27.2 C 7.29 g/m*3 27.2 C 0 km/h
1479 12-07-2011 11:43:03 27.6 C 7.18 g/m*3 27.6 C 0 km/h
1480 12-07-2011 11:55:02 27.2 C 7.03 g/m*3 27.2 C 0 km/h
1481 12-07-2011 12:07:01 27.3 C 6.8 g/m*3 27.3 C 0 km/h
1482 12-07-2011 12:19:02 27.6 C 6.92 g/m*3 27.6 C 0 km/h
1483 12-07-2011 12:31:02 27.7 C 7.22 g/m*3 27.7 C 0 km/h
1484 12-07-2011 12:43:02 27.9 C 7.03 g/m*3 27.9 C 0 km/h
1485 12-07-2011 12:55:02 28.1 C 6.84 g/m*3 28.1 C 0 km/h
1486 12-07-2011 13:07:03 28.4 C 6.95 g/m*3 28.4 C 0 km/h
1487 12-07-2011 13:19:02 29.2 C 6.97 g/m*3 29.2 C 0 km/h
1488 12-07-2011 13:31:03 29.9 C 6.64 g/m*3 29.9 C 0 km/h
1489 12-07-2011 13:43:03 32.3 C 6.86 g/m*3 32.3 C 0 km/h
1490 12-07-2011 13:55:02 32.6 C 6.97 g/m*3 32.6 C 0 km/h
1491 12-07-2011 14:07:02 33.4 C 7.27 g/m*3 33.4 C 0 km/h
1492 12-07-2011 14:19:01 32.3 C 6.86 g/m*3 32.3 C 0 km/h
1493 12-07-2011 14:31:02 32 C 6.75 g/m*3 32 C 0 km/h
1494 12-07-2011 14:43:02 32.5 C 6.93 g/m*3 32.5 C 0 km/h
1495 12-07-2011 14:55:02 31.9 C 6.72 g/m*3 31.9 C 0 km/h
1496 12-07-2011 15:07:02 31 C 6.4 g/m*3 31 C 0 km/h
1497 12-07-2011 15:19:02 29.8 C 6.6 g/m*3 29.8 C 0 km/h
1498 12-07-2011 15:31:02 30 C 6.37 g/m*3 30 C 0 km/h
1499 12-07-2011 15:43:02 29.5 C 7.38 g/m*3 29.5 C 0 km/h
1500 12-07-2011 15:55:02 29.5 C 7.38 g/m*3 29.5 C 0 km/h
Sensor: Nr:Datum:Temp:Abs-Feuchte:Windchill:Wind:
Aussen-T/F 1501 12-07-2011 16:07:02 29.1 C 7.51 g/m*3 29.1 C 0 km/h
1502 12-07-2011 16:19:03 28.7 C 7.35 g/m*3 28.7 C 0 km/h
1503 12-07-2011 16:31:02 29 C 7.47 g/m*3 29 C 0 km/h
1504 12-07-2011 16:43:02 29.6 C 7.72 g/m*3 29.6 C 0 km/h
1505 12-07-2011 16:55:02 27.5 C 8.47 g/m*3 27.5 C 0 km/h
1506 12-07-2011 17:07:02 25 C 9.21 g/m*3 25 C 0 km/h
1507 12-07-2011 17:19:02 21.8 C 11.9 g/m*3 21.8 C 0 km/h
1508 12-07-2011 17:31:02 19.8 C 12.81 g/m*3 19.8 C 0 km/h
1509 12-07-2011 17:43:02 19.4 C 13.35 g/m*3 19.4 C 0 km/h
1510 12-07-2011 17:55:02 19.3 C 13.27 g/m*3 19.3 C 0 km/h
1511 12-07-2011 18:07:02 19.7 C 13.25 g/m*3 19.7 C 0 km/h
1512 12-07-2011 18:19:02 20.1 C 12.86 g/m*3 20.1 C 0 km/h
1513 12-07-2011 18:31:02 20.7 C 13.14 g/m*3 20.7 C 0 km/h
1514 12-07-2011 18:43:02 20.3 C 13.37 g/m*3 20.3 C 0 km/h
1515 12-07-2011 18:55:02 20.3 C 13.37 g/m*3 20.3 C 0 km/h
1516 12-07-2011 19:07:01 21.1 C 13.63 g/m*3 21.1 C 0 km/h
1517 12-07-2011 19:19:02 21.1 C 13.27 g/m*3 21.1 C 0 km/h
1518 12-07-2011 19:31:02 21.2 C 13.71 g/m*3 21.2 C 0 km/h
1519 12-07-2011 19:43:02 21.8 C 13.43 g/m*3 21.8 C 0 km/h
1520 12-07-2011 19:55:01 21.4 C 12.94 g/m*3 21.4 C 0 km/h
1521 12-07-2011 20:07:02 21 C 12.82 g/m*3 21 C 0 km/h
1522 12-07-2011 20:19:01 21.5 C 12.26 g/m*3 21.5 C 0 km/h
1523 12-07-2011 20:31:02 21.2 C 12.05 g/m*3 21.2 C 0 km/h
1524 12-07-2011 20:43:02 20.6 C 12.17 g/m*3 20.6 C 0 km/h
1525 12-07-2011 20:55:02 20.7 C 11.88 g/m*3 20.7 C 0 km/h
Sensor: Nr:Datum:Temp:Abs-Feuchte:Windchill:Wind:
Aussen-T/F 1526 12-07-2011 21:07:02 19.7 C 12.4 g/m*3 19.7 C 0 km/h
1527 12-07-2011 21:19:02 19 C 12.39 g/m*3 19 C 0 km/h
1528 12-07-2011 21:31:02 18.6 C 12.57 g/m*3 18.6 C 0 km/h
1529 12-07-2011 21:43:02 18.1 C 12.52 g/m*3 18.1 C 0 km/h
1530 12-07-2011 21:55:02 17.7 C 12.52 g/m*3 17.7 C 0 km/h
1531 12-07-2011 22:07:02 17.4 C 12.45 g/m*3 17.4 C 0 km/h
1532 12-07-2011 22:19:02 17.4 C 12.45 g/m*3 17.4 C 0 km/h
1533 12-07-2011 22:31:02 17.2 C 12.45 g/m*3 17.2 C 0 km/h
1534 12-07-2011 22:43:02 17.2 C 12.45 g/m*3 17.2 C 0 km/h
1535 12-07-2011 22:56:04 17.2 C 12.59 g/m*3 17.2 C 0 km/h
1536 12-07-2011 23:08:04 17.2 C 12.59 g/m*3 17.2 C 0 km/h
1537 12-07-2011 23:20:04 16.8 C 12.44 g/m*3 16.8 C 0 km/h
1538 12-07-2011 23:32:04 16.8 C 12.44 g/m*3 16.8 C 0 km/h
1539 12-07-2011 23:44:04 16.7 C 12.36 g/m*3 16.7 C 0 km/h
1540 12-07-2011 23:56:04 16.6 C 12.29 g/m*3 16.6 C 0 km/h
1541 13-07-2011 00:08:04 16.9 C 12.66 g/m*3 16.9 C 0 km/h
1542 13-07-2011 00:20:04 16.6 C 12.43 g/m*3 16.6 C 0 km/h
1543 13-07-2011 00:32:04 16.5 C 12.36 g/m*3 16.5 C 0 km/h
1544 13-07-2011 00:44:04 16.4 C 12.28 g/m*3 16.4 C 0 km/h
1545 13-07-2011 00:56:05 16.5 C 12.36 g/m*3 16.5 C 0 km/h
1546 13-07-2011 01:08:05 16.1 C 12.06 g/m*3 16.1 C 0 km/h
1547 13-07-2011 01:20:05 16.3 C 12.21 g/m*3 16.3 C 0 km/h
1548 13-07-2011 01:32:05 16.1 C 12.06 g/m*3 16.1 C 0 km/h
1549 13-07-2011 01:44:05 16 C 11.99 g/m*3 16 C 0 km/h
1550 13-07-2011 01:56:05 16.2 C 12.14 g/m*3 16.2 C 0 km/h
Sensor: Nr:Datum:Temp:Abs-Feuchte:Windchill:Wind:
Aussen-T/F 1551 13-07-2011 02:08:05 15.8 C 11.98 g/m*3 15.8 C 0 km/h
1552 13-07-2011 02:20:05 15.8 C 11.98 g/m*3 15.8 C 0 km/h
1553 13-07-2011 02:32:05 15.7 C 11.91 g/m*3 15.7 C 0 km/h
1554 13-07-2011 02:44:05 15.8 C 11.98 g/m*3 15.8 C 0 km/h
1555 13-07-2011 02:56:05 15.5 C 11.76 g/m*3 15.5 C 0 km/h
1556 13-07-2011 03:08:05 15.5 C 11.76 g/m*3 15.5 C 0 km/h
1557 13-07-2011 03:20:05 15.5 C 11.76 g/m*3 15.5 C 0 km/h
1558 13-07-2011 03:32:05 15.4 C 11.69 g/m*3 15.4 C 0 km/h
1559 13-07-2011 03:44:05 15.4 C 11.69 g/m*3 15.4 C 0 km/h
1560 13-07-2011 03:56:05 15.2 C 11.55 g/m*3 15.2 C 0 km/h
1561 13-07-2011 04:08:05 15.1 C 11.48 g/m*3 15.1 C 0 km/h
1562 13-07-2011 04:20:05 15.1 C 11.48 g/m*3 15.1 C 0 km/h
1563 13-07-2011 04:32:05 15.1 C 11.48 g/m*3 15.1 C 0 km/h
1564 13-07-2011 04:44:05 15 C 11.41 g/m*3 15 C 0 km/h
1565 13-07-2011 04:56:05 15.3 C 11.62 g/m*3 15.3 C 0 km/h
1566 13-07-2011 05:08:06 15.5 C 11.76 g/m*3 15.5 C 0 km/h
1567 13-07-2011 05:20:06 16 C 12.13 g/m*3 16 C 0 km/h
1568 13-07-2011 05:32:06 16 C 12.13 g/m*3 16 C 0 km/h
1569 13-07-2011 05:44:06 16.1 C 12.2 g/m*3 16.1 C 0 km/h
1570 13-07-2011 05:56:06 16.2 C 12.27 g/m*3 16.2 C 0 km/h
1571 13-07-2011 06:08:06 16.3 C 12.35 g/m*3 16.3 C 0 km/h
1572 13-07-2011 06:20:06 16.5 C 12.64 g/m*3 16.5 C 0 km/h
1573 13-07-2011 06:32:06 16.6 C 12.71 g/m*3 16.6 C 0 km/h
1574 13-07-2011 06:44:06 16.6 C 12.71 g/m*3 16.6 C 0 km/h
1575 13-07-2011 06:56:06 16.9 C 12.94 g/m*3 16.9 C 0 km/h
Sensor: Nr:Datum:Temp:Abs-Feuchte:Windchill:Wind:
Aussen-T/F 1576 13-07-2011 07:08:06 16.8 C 12.87 g/m*3 16.8 C 0 km/h
1577 13-07-2011 07:20:03 16.8 C 12.87 g/m*3 16.8 C 0 km/h
1578 13-07-2011 07:32:03 16.8 C 12.87 g/m*3 16.8 C 0 km/h
1579 13-07-2011 07:44:03 17 C 12.88 g/m*3 17 C 0 km/h
1580 13-07-2011 07:56:02 17 C 12.88 g/m*3 17 C 0 km/h
1581 13-07-2011 08:08:02 17.1 C 12.96 g/m*3 17.1 C 0 km/h
1582 13-07-2011 08:20:02 17.1 C 12.81 g/m*3 17.1 C 0 km/h
1583 13-07-2011 08:32:02 16.9 C 12.66 g/m*3 16.9 C 0 km/h
1584 13-07-2011 08:44:02 16.8 C 12.44 g/m*3 16.8 C 0 km/h
1585 13-07-2011 08:56:02 16.8 C 12.15 g/m*3 16.8 C 0 km/h
1586 13-07-2011 09:08:01 17 C 12.01 g/m*3 17 C 0 km/h
1587 13-07-2011 09:20:02 17 C 11.87 g/m*3 17 C 0 km/h
1588 13-07-2011 09:32:01 17 C 11.58 g/m*3 17 C 0 km/h
1589 13-07-2011 09:44:01 16.9 C 11.51 g/m*3 16.9 C 0 km/h
1590 13-07-2011 09:56:02 16.7 C 11.23 g/m*3 16.7 C 0 km/h
1591 13-07-2011 10:08:02 16.6 C 10.88 g/m*3 16.6 C 0 km/h
1592 13-07-2011 10:20:02 16.5 C 10.67 g/m*3 16.5 C 0 km/h
1593 13-07-2011 10:32:02 16.7 C 10.66 g/m*3 16.7 C 0 km/h
1594 13-07-2011 10:44:02 16.9 C 10.79 g/m*3 16.9 C 0 km/h
1595 13-07-2011 10:56:02 16.9 C 10.79 g/m*3 16.9 C 0 km/h
1596 13-07-2011 11:08:02 17 C 10.56 g/m*3 17 C 0 km/h
1597 13-07-2011 11:20:02 17 C 10.27 g/m*3 17 C 0 km/h
1598 13-07-2011 11:32:02 17.1 C 10.04 g/m*3 17.1 C 0 km/h
1599 13-07-2011 11:44:02 17 C 9.84 g/m*3 17 C 0 km/h
1600 13-07-2011 11:56:02 16.8 C 10.15 g/m*3 16.8 C 0 km/h
Sensor: Nr:Datum:Temp:Abs-Feuchte:Windchill:Wind:
Aussen-T/F 1601 13-07-2011 12:08:02 17.2 C 9.67 g/m*3 17.2 C 0 km/h
1602 13-07-2011 12:20:03 17.8 C 9.56 g/m*3 17.8 C 0 km/h
1603 13-07-2011 12:32:02 18.2 C 9.48 g/m*3 18.2 C 0 km/h
1604 13-07-2011 12:44:02 19 C 9.29 g/m*3 19 C 0 km/h
1605 13-07-2011 12:56:02 18.8 C 9.18 g/m*3 18.8 C 0 km/h
1606 13-07-2011 13:08:02 19.3 C 8.96 g/m*3 19.3 C 0 km/h
1607 13-07-2011 13:20:02 19 C 8.64 g/m*3 19 C 0 km/h
1608 13-07-2011 13:32:02 19.4 C 9.01 g/m*3 19.4 C 0 km/h
1609 13-07-2011 13:44:02 18.8 C 9.02 g/m*3 18.8 C 0 km/h
1610 13-07-2011 13:56:02 18.5 C 8.86 g/m*3 18.5 C 0 km/h
1611 13-07-2011 14:08:02 18.8 C 8.86 g/m*3 18.8 C 0 km/h
1612 13-07-2011 14:20:01 18.6 C 9.07 g/m*3 18.6 C 0 km/h
1613 13-07-2011 14:32:02 18 C 9.22 g/m*3 18 C 0 km/h
1614 13-07-2011 14:44:02 17.2 C 9.67 g/m*3 17.2 C 0 km/h
1615 13-07-2011 14:56:02 16.9 C 9.64 g/m*3 16.9 C 0 km/h
1616 13-07-2011 15:08:02 16.8 C 9.72 g/m*3 16.8 C 0 km/h
1617 13-07-2011 15:20:02 16.9 C 9.92 g/m*3 16.9 C 0 km/h
1618 13-07-2011 15:32:02 17.4 C 9.48 g/m*3 17.4 C 0 km/h
1619 13-07-2011 15:44:02 17.6 C 9.3 g/m*3 17.6 C 0 km/h
1620 13-07-2011 15:56:01 17.2 C 9.08 g/m*3 17.2 C 0 km/h
1621 13-07-2011 16:08:02 17 C 8.83 g/m*3 17 C 0 km/h
1622 13-07-2011 16:20:02 16.9 C 9.06 g/m*3 16.9 C 0 km/h
1623 13-07-2011 16:32:02 16.6 C 9.46 g/m*3 16.6 C 0 km/h
1624 13-07-2011 16:44:02 16.2 C 9.52 g/m*3 16.2 C 0 km/h
1625 13-07-2011 16:56:02 15.9 C 9.62 g/m*3 15.9 C 0 km/h
Sensor: Nr:Datum:Temp:Abs-Feuchte:Windchill:Wind:
Aussen-T/F 1626 13-07-2011 17:08:01 15.5 C 9.52 g/m*3 15.5 C 0 km/h
1627 13-07-2011 17:20:02 15.3 C 9.53 g/m*3 15.3 C 0 km/h
1628 13-07-2011 17:32:01 15.2 C 9.73 g/m*3 15.2 C 0 km/h
1629 13-07-2011 17:44:01 15 C 9.75 g/m*3 15 C 0 km/h
1630 13-07-2011 17:56:02 14.8 C 9.63 g/m*3 14.8 C 0 km/h
1631 13-07-2011 18:08:01 14.8 C 9.63 g/m*3 14.8 C 0 km/h
1632 13-07-2011 18:20:01 14.8 C 9.88 g/m*3 14.8 C 0 km/h
1633 13-07-2011 18:32:02 14.5 C 9.7 g/m*3 14.5 C 0 km/h
1634 13-07-2011 18:44:02 14.4 C 9.77 g/m*3 14.4 C 0 km/h
1635 13-07-2011 18:56:02 14.5 C 9.7 g/m*3 14.5 C 0 km/h
1636 13-07-2011 19:08:02 14.8 C 9.88 g/m*3 14.8 C 0 km/h
1637 13-07-2011 19:20:02 14.8 C 9.63 g/m*3 14.8 C 0 km/h
1638 13-07-2011 19:32:02 14.9 C 9.81 g/m*3 14.9 C 0 km/h
1639 13-07-2011 19:44:02 14.9 C 9.69 g/m*3 14.9 C 0 km/h
1640 13-07-2011 19:56:02 14.5 C 9.58 g/m*3 14.5 C 0 km/h
1641 13-07-2011 20:08:02 14.5 C 9.58 g/m*3 14.5 C 0 km/h
1642 13-07-2011 20:20:01 14.5 C 9.33 g/m*3 14.5 C 0 km/h
1643 13-07-2011 20:32:04 14.5 C 9.08 g/m*3 14.5 C 0 km/h
1644 13-07-2011 20:44:04 14.4 C 9.15 g/m*3 14.4 C 0 km/h
1645 13-07-2011 20:56:02 14.4 C 9.15 g/m*3 14.4 C 0 km/h
1646 13-07-2011 21:08:01 13.9 C 9.11 g/m*3 13.9 C 0 km/h
1647 13-07-2011 21:20:02 13.4 C 9.07 g/m*3 13.4 C 0 km/h
1648 13-07-2011 21:32:02 13.3 C 9.13 g/m*3 13.3 C 0 km/h
1649 13-07-2011 21:44:02 13.2 C 9.19 g/m*3 13.2 C 0 km/h
1650 13-07-2011 21:57:02 13.1 C 9.24 g/m*3 13.1 C 0 km/h
Sensor: Nr:Datum:Temp:Abs-Feuchte:Windchill:Wind:
Aussen-T/F 1651 13-07-2011 22:09:02 13.1 C 9.36 g/m*3 13.1 C 0 km/h
1652 13-07-2011 22:21:02 13 C 9.41 g/m*3 13 C 0 km/h
1653 13-07-2011 22:33:02 13.1 C 9.59 g/m*3 13.1 C 0 km/h
1654 13-07-2011 22:45:02 13.3 C 9.59 g/m*3 13.3 C 0 km/h
1655 13-07-2011 22:57:02 13.2 C 9.3 g/m*3 13.2 C 0 km/h
1656 13-07-2011 23:09:02 13.3 C 9.01 g/m*3 13.3 C 0 km/h
1657 13-07-2011 23:21:02 13.4 C 8.72 g/m*3 13.4 C 0 km/h
1658 13-07-2011 23:33:02 13.3 C 8.9 g/m*3 13.3 C 0 km/h
1659 13-07-2011 23:45:02 13.4 C 9.07 g/m*3 13.4 C 0 km/h
1660 13-07-2011 23:57:02 13.5 C 8.89 g/m*3 13.5 C 0 km/h
1661 14-07-2011 00:09:02 13.6 C 8.71 g/m*3 13.6 C 0 km/h
1662 14-07-2011 00:21:02 13.4 C 8.6 g/m*3 13.4 C 0 km/h
1663 14-07-2011 00:33:02 13.4 C 8.72 g/m*3 13.4 C 0 km/h
1664 14-07-2011 00:45:02 13.3 C 8.78 g/m*3 13.3 C 0 km/h
1665 14-07-2011 00:57:02 13.4 C 8.83 g/m*3 13.4 C 0 km/h
1666 14-07-2011 01:09:02 13.3 C 9.01 g/m*3 13.3 C 0 km/h
1667 14-07-2011 01:21:02 13.4 C 8.83 g/m*3 13.4 C 0 km/h
1668 14-07-2011 01:33:03 13.7 C 8.53 g/m*3 13.7 C 0 km/h
1669 14-07-2011 01:45:03 13.7 C 8.41 g/m*3 13.7 C 0 km/h
1670 14-07-2011 01:57:03 13.3 C 8.09 g/m*3 13.3 C 0 km/h
1671 14-07-2011 02:09:03 13.5 C 8.07 g/m*3 13.5 C 0 km/h
1672 14-07-2011 02:21:03 13.6 C 7.89 g/m*3 13.6 C 0 km/h
1673 14-07-2011 02:33:03 12.9 C 8 g/m*3 12.9 C 0 km/h
1674 14-07-2011 02:45:03 12.8 C 8.18 g/m*3 12.8 C 0 km/h
1675 14-07-2011 02:57:03 13 C 8.17 g/m*3 13 C 0 km/h
Sensor: Nr:Datum:Temp:Abs-Feuchte:Windchill:Wind:
Aussen-T/F 1676 14-07-2011 03:09:03 13.4 C 7.9 g/m*3 13.4 C 0 km/h
1677 14-07-2011 03:21:03 13.4 C 7.79 g/m*3 13.4 C 0 km/h
1678 14-07-2011 03:33:03 13.4 C 7.67 g/m*3 13.4 C 0 km/h
1679 14-07-2011 03:45:03 13.3 C 7.74 g/m*3 13.3 C 0 km/h
1680 14-07-2011 03:57:03 13.3 C 7.86 g/m*3 13.3 C 0 km/h
1681 14-07-2011 04:09:03 13.5 C 7.72 g/m*3 13.5 C 0 km/h
1682 14-07-2011 04:21:03 13.4 C 7.56 g/m*3 13.4 C 0 km/h
1683 14-07-2011 04:33:04 13.1 C 7.65 g/m*3 13.1 C 0 km/h
1684 14-07-2011 04:45:04 13.1 C 7.53 g/m*3 13.1 C 0 km/h
1685 14-07-2011 04:57:04 13.1 C 7.65 g/m*3 13.1 C 0 km/h
1686 14-07-2011 05:09:04 13 C 7.6 g/m*3 13 C 0 km/h
1687 14-07-2011 05:21:04 12.8 C 7.73 g/m*3 12.8 C 0 km/h
1688 14-07-2011 05:33:04 12.8 C 7.73 g/m*3 12.8 C 0 km/h
1689 14-07-2011 05:45:04 12.7 C 7.68 g/m*3 12.7 C 0 km/h
1690 14-07-2011 05:57:04 12.7 C 7.79 g/m*3 12.7 C 0 km/h
1691 14-07-2011 06:09:04 12.7 C 7.79 g/m*3 12.7 C 0 km/h
1692 14-07-2011 06:21:04 13.2 C 7.69 g/m*3 13.2 C 0 km/h
1693 14-07-2011 06:33:04 13.5 C 7.49 g/m*3 13.5 C 0 km/h
1694 14-07-2011 06:45:04 13.6 C 7.41 g/m*3 13.6 C 0 km/h
1695 14-07-2011 06:57:04 13.4 C 7.44 g/m*3 13.4 C 0 km/h
1696 14-07-2011 07:09:02 13.8 C 7.63 g/m*3 13.8 C 0 km/h
1697 14-07-2011 07:21:01 13.7 C 7.58 g/m*3 13.7 C 0 km/h
1698 14-07-2011 07:33:02 13.4 C 7.56 g/m*3 13.4 C 0 km/h
1699 14-07-2011 07:45:01 13.4 C 7.56 g/m*3 13.4 C 0 km/h
1700 14-07-2011 07:57:01 13.8 C 7.63 g/m*3 13.8 C 0 km/h
Sensor: Nr:Datum:Temp:Abs-Feuchte:Windchill:Wind:
Aussen-T/F 1701 14-07-2011 08:09:02 13.6 C 7.53 g/m*3 13.6 C 0 km/h
1702 14-07-2011 08:21:02 14.3 C 7.49 g/m*3 14.3 C 0 km/h
1703 14-07-2011 08:33:02 14.7 C 7.18 g/m*3 14.7 C 0 km/h
1704 14-07-2011 08:45:02 15.1 C 7.22 g/m*3 15.1 C 0 km/h
1705 14-07-2011 08:57:02 14.9 C 7.26 g/m*3 14.9 C 0 km/h
1706 14-07-2011 09:09:01 15.1 C 7.1 g/m*3 15.1 C 0 km/h
1707 14-07-2011 09:21:02 16 C 7.08 g/m*3 16 C 0 km/h
1708 14-07-2011 09:33:01 15.8 C 6.6 g/m*3 15.8 C 0 km/h
1709 14-07-2011 09:45:02 16.1 C 6.03 g/m*3 16.1 C 0 km/h
1710 14-07-2011 09:57:02 15.9 C 5.55 g/m*3 15.9 C 0 km/h
1711 14-07-2011 10:09:01 16.4 C 5.86 g/m*3 16.4 C 0 km/h
1712 14-07-2011 10:21:01 16.4 C 5.72 g/m*3 16.4 C 0 km/h
1713 14-07-2011 10:33:01 16.6 C 5.79 g/m*3 16.6 C 0 km/h
1714 14-07-2011 10:45:02 16.1 C 5.76 g/m*3 16.1 C 0 km/h
1715 14-07-2011 10:57:02 16.6 C 5.93 g/m*3 16.6 C 0 km/h
1716 14-07-2011 11:09:02 17.5 C 5.67 g/m*3 17.5 C 0 km/h
1717 14-07-2011 11:21:02 17.2 C 5.86 g/m*3 17.2 C 0 km/h
1718 14-07-2011 11:33:02 17.4 C 5.78 g/m*3 17.4 C 0 km/h
1719 14-07-2011 11:45:02 17.4 C 5.93 g/m*3 17.4 C 0 km/h
1720 14-07-2011 11:57:02 17.6 C 6 g/m*3 17.6 C 0 km/h
1721 14-07-2011 12:09:01 17.6 C 5.85 g/m*3 17.6 C 0 km/h
1722 14-07-2011 12:21:01 17.8 C 5.92 g/m*3 17.8 C 0 km/h
1723 14-07-2011 12:33:02 17.9 C 5.65 g/m*3 17.9 C 0 km/h
1724 14-07-2011 12:45:02 18.9 C 5.67 g/m*3 18.9 C 0 km/h
1725 14-07-2011 12:57:02 17.7 C 5.58 g/m*3 17.7 C 0 km/h
Sensor: Nr:Datum:Temp:Abs-Feuchte:Windchill:Wind:
Aussen-T/F 1726 14-07-2011 13:09:02 18.3 C 5.47 g/m*3 18.3 C 0 km/h
1727 14-07-2011 13:21:01 17.7 C 5.58 g/m*3 17.7 C 0 km/h
1728 14-07-2011 13:33:02 17.8 C 5.92 g/m*3 17.8 C 0 km/h
1729 14-07-2011 13:45:02 17.5 C 5.81 g/m*3 17.5 C 0 km/h
1730 14-07-2011 13:57:02 17.5 C 5.96 g/m*3 17.5 C 0 km/h
1731 14-07-2011 14:09:02 18.2 C 5.6 g/m*3 18.2 C 0 km/h
1732 14-07-2011 14:21:01 18.9 C 5.51 g/m*3 18.9 C 0 km/h
1733 14-07-2011 14:33:02 21.9 C 5.79 g/m*3 21.9 C 0 km/h
1734 14-07-2011 14:45:01 19.6 C 5.4 g/m*3 19.6 C 0 km/h
1735 14-07-2011 14:57:01 18.9 C 5.51 g/m*3 18.9 C 0 km/h
1736 14-07-2011 15:09:02 22 C 5.82 g/m*3 22 C 0 km/h
1737 14-07-2011 15:21:02 20.8 C 5.07 g/m*3 20.8 C 0 km/h
1738 14-07-2011 15:33:02 20.9 C 5.65 g/m*3 20.9 C 0 km/h
1739 14-07-2011 15:45:02 20.8 C 5.98 g/m*3 20.8 C 0 km/h
1740 14-07-2011 15:57:02 19.5 C 5.87 g/m*3 19.5 C 0 km/h
1741 14-07-2011 16:09:02 20.5 C 5.52 g/m*3 20.5 C 0 km/h
1742 14-07-2011 16:21:02 18.8 C 5.8 g/m*3 18.8 C 0 km/h
1743 14-07-2011 16:33:01 18.5 C 5.85 g/m*3 18.5 C 0 km/h
1744 14-07-2011 16:45:02 18.5 C 6.01 g/m*3 18.5 C 0 km/h
1745 14-07-2011 16:57:02 18.2 C 5.91 g/m*3 18.2 C 0 km/h
1746 14-07-2011 17:09:01 18.6 C 6.37 g/m*3 18.6 C 0 km/h
1747 14-07-2011 17:21:01 19.1 C 6.39 g/m*3 19.1 C 0 km/h
1748 14-07-2011 17:33:02 17.6 C 6.45 g/m*3 17.6 C 0 km/h
1749 14-07-2011 17:45:02 16.9 C 6.47 g/m*3 16.9 C 0 km/h
1750 14-07-2011 17:57:02 17.4 C 6.37 g/m*3 17.4 C 0 km/h
Sensor: Nr:Datum:Temp:Abs-Feuchte:Windchill:Wind:
Aussen-T/F 1751 14-07-2011 18:09:01 17.4 C 6.08 g/m*3 17.4 C 0 km/h
1752 14-07-2011 18:21:02 17.5 C 6.26 g/m*3 17.5 C 0 km/h
1753 14-07-2011 18:33:02 17.5 C 6.26 g/m*3 17.5 C 0 km/h
1754 14-07-2011 18:45:01 17.8 C 6.07 g/m*3 17.8 C 0 km/h
1755 14-07-2011 18:57:01 17.6 C 6.15 g/m*3 17.6 C 0 km/h
1756 14-07-2011 19:09:02 17.1 C 6.55 g/m*3 17.1 C 0 km/h
1757 14-07-2011 19:21:01 16.7 C 6.54 g/m*3 16.7 C 0 km/h
1758 14-07-2011 19:33:02 16.7 C 6.54 g/m*3 16.7 C 0 km/h
1759 14-07-2011 19:45:01 17 C 6.37 g/m*3 17 C 0 km/h
1760 14-07-2011 19:57:01 16.8 C 6.29 g/m*3 16.8 C 0 km/h
1761 14-07-2011 20:09:02 16.6 C 6.22 g/m*3 16.6 C 0 km/h
1762 14-07-2011 20:21:01 16.1 C 6.17 g/m*3 16.1 C 0 km/h
1763 14-07-2011 20:33:02 16 C 6.27 g/m*3 16 C 0 km/h
1764 14-07-2011 20:45:01 15.8 C 6.46 g/m*3 15.8 C 0 km/h
1765 14-07-2011 20:57:01 15.5 C 6.48 g/m*3 15.5 C 0 km/h
1766 14-07-2011 21:09:02 15.2 C 6.62 g/m*3 15.2 C 0 km/h
1767 14-07-2011 21:21:01 15.1 C 6.58 g/m*3 15.1 C 0 km/h
1768 14-07-2011 21:33:02 15 C 6.67 g/m*3 15 C 0 km/h
1769 14-07-2011 21:45:01 15.1 C 6.45 g/m*3 15.1 C 0 km/h
1770 14-07-2011 21:57:01 15 C 6.41 g/m*3 15 C 0 km/h
1771 14-07-2011 22:09:02 14.8 C 6.59 g/m*3 14.8 C 0 km/h
1772 14-07-2011 22:21:02 14.6 C 6.63 g/m*3 14.6 C 0 km/h
1773 14-07-2011 22:33:02 14.2 C 6.72 g/m*3 14.2 C 0 km/h
1774 14-07-2011 22:46:03 14.1 C 6.8 g/m*3 14.1 C 0 km/h
1775 14-07-2011 22:58:03 13.8 C 6.79 g/m*3 13.8 C 0 km/h
Sensor: Nr:Datum:Temp:Abs-Feuchte:Windchill:Wind:
Aussen-T/F 1776 14-07-2011 23:10:03 13.8 C 6.79 g/m*3 13.8 C 0 km/h
1777 14-07-2011 23:22:03 13.8 C 6.91 g/m*3 13.8 C 0 km/h
1778 14-07-2011 23:34:03 13.8 C 6.91 g/m*3 13.8 C 0 km/h
1779 14-07-2011 23:46:03 13.8 C 6.79 g/m*3 13.8 C 0 km/h
1780 14-07-2011 23:58:03 13.5 C 6.9 g/m*3 13.5 C 0 km/h
1781 15-07-2011 00:10:03 13.7 C 7.1 g/m*3 13.7 C 0 km/h
1782 15-07-2011 00:22:03 13.6 C 7.06 g/m*3 13.6 C 0 km/h
1783 15-07-2011 00:34:03 13.4 C 6.97 g/m*3 13.4 C 0 km/h
1784 15-07-2011 00:46:03 13.5 C 6.9 g/m*3 13.5 C 0 km/h
1785 15-07-2011 00:58:03 13.4 C 6.86 g/m*3 13.4 C 0 km/h
1786 15-07-2011 01:10:03 13.5 C 6.9 g/m*3 13.5 C 0 km/h
1787 15-07-2011 01:22:03 13.5 C 6.78 g/m*3 13.5 C 0 km/h
1788 15-07-2011 01:34:03 13.5 C 6.78 g/m*3 13.5 C 0 km/h
1789 15-07-2011 01:46:03 13.4 C 6.74 g/m*3 13.4 C 0 km/h
1790 15-07-2011 01:58:04 13.4 C 6.74 g/m*3 13.4 C 0 km/h
1791 15-07-2011 02:10:04 13.4 C 6.86 g/m*3 13.4 C 0 km/h
1792 15-07-2011 02:22:04 13.4 C 6.86 g/m*3 13.4 C 0 km/h
1793 15-07-2011 02:34:04 13.4 C 6.86 g/m*3 13.4 C 0 km/h
1794 15-07-2011 02:46:04 13.5 C 6.78 g/m*3 13.5 C 0 km/h
1795 15-07-2011 02:58:04 13.4 C 6.86 g/m*3 13.4 C 0 km/h
1796 15-07-2011 03:10:04 13.5 C 6.9 g/m*3 13.5 C 0 km/h
1797 15-07-2011 03:22:04 13.1 C 6.62 g/m*3 13.1 C 0 km/h
1798 15-07-2011 03:34:04 13.6 C 6.83 g/m*3 13.6 C 0 km/h
1799 15-07-2011 03:46:04 13.4 C 6.86 g/m*3 13.4 C 0 km/h
1800 15-07-2011 03:58:04 13.3 C 6.82 g/m*3 13.3 C 0 km/h
Sensor: Nr:Datum:Temp:Abs-Feuchte:Windchill:Wind:
Aussen-T/F 1801 15-07-2011 04:10:04 13.3 C 6.82 g/m*3 13.3 C 0 km/h
1802 15-07-2011 04:22:04 13.5 C 6.78 g/m*3 13.5 C 0 km/h
1803 15-07-2011 04:34:04 13.5 C 6.78 g/m*3 13.5 C 0 km/h
1804 15-07-2011 04:46:04 13.6 C 6.71 g/m*3 13.6 C 0 km/h
1805 15-07-2011 04:58:04 13.6 C 6.83 g/m*3 13.6 C 0 km/h
1806 15-07-2011 05:10:04 13.4 C 6.97 g/m*3 13.4 C 0 km/h
1807 15-07-2011 05:22:04 13.4 C 7.09 g/m*3 13.4 C 0 km/h
1808 15-07-2011 05:34:04 13.4 C 6.97 g/m*3 13.4 C 0 km/h
1809 15-07-2011 05:46:04 13.5 C 7.13 g/m*3 13.5 C 0 km/h
1810 15-07-2011 05:58:04 13.3 C 7.16 g/m*3 13.3 C 0 km/h
1811 15-07-2011 06:10:04 13.1 C 7.19 g/m*3 13.1 C 0 km/h
1812 15-07-2011 06:22:04 13.4 C 7.21 g/m*3 13.4 C 0 km/h
1813 15-07-2011 06:34:05 13.5 C 7.13 g/m*3 13.5 C 0 km/h
1814 15-07-2011 06:46:05 13.7 C 7.1 g/m*3 13.7 C 0 km/h
1815 15-07-2011 06:58:05 13.7 C 7.1 g/m*3 13.7 C 0 km/h
1816 15-07-2011 07:10:05 13.7 C 7.1 g/m*3 13.7 C 0 km/h
1817 15-07-2011 07:22:05 13.9 C 7.07 g/m*3 13.9 C 0 km/h
1818 15-07-2011 07:34:03 14.2 C 7.08 g/m*3 14.2 C 0 km/h
1819 15-07-2011 07:46:02 14.2 C 6.96 g/m*3 14.2 C 0 km/h
1820 15-07-2011 07:58:02 14.4 C 7.05 g/m*3 14.4 C 0 km/h
1821 15-07-2011 08:10:02 14.5 C 7.09 g/m*3 14.5 C 0 km/h
1822 15-07-2011 08:22:02 14.7 C 7.18 g/m*3 14.7 C 0 km/h
1823 15-07-2011 08:34:02 14.9 C 7.14 g/m*3 14.9 C 0 km/h
1824 15-07-2011 08:46:01 15.4 C 7.09 g/m*3 15.4 C 0 km/h
1825 15-07-2011 08:58:01 15.1 C 7.1 g/m*3 15.1 C 0 km/h
Sensor: Nr:Datum:Temp:Abs-Feuchte:Windchill:Wind:
Aussen-T/F 1826 15-07-2011 09:10:01 15 C 7.18 g/m*3 15 C 0 km/h
1827 15-07-2011 09:22:01 15.1 C 7.22 g/m*3 15.1 C 0 km/h
1828 15-07-2011 09:34:02 15.4 C 7.23 g/m*3 15.4 C 0 km/h
1829 15-07-2011 09:46:02 15.6 C 7.31 g/m*3 15.6 C 0 km/h
1830 15-07-2011 09:58:02 16.9 C 7.05 g/m*3 16.9 C 0 km/h
1831 15-07-2011 10:10:02 17.7 C 6.79 g/m*3 17.7 C 0 km/h
1832 15-07-2011 10:22:02 18.2 C 6.37 g/m*3 18.2 C 0 km/h
1833 15-07-2011 10:34:03 18.9 C 6.8 g/m*3 18.9 C 0 km/h
1834 15-07-2011 10:46:02 19.3 C 5.97 g/m*3 19.3 C 0 km/h
1835 15-07-2011 10:58:02 19.5 C 6.04 g/m*3 19.5 C 0 km/h
1836 15-07-2011 11:10:02 19.5 C 5.87 g/m*3 19.5 C 0 km/h
1837 15-07-2011 11:22:02 19.8 C 5.81 g/m*3 19.8 C 0 km/h
1838 15-07-2011 11:34:03 20.8 C 5.79 g/m*3 20.8 C 0 km/h
1839 15-07-2011 11:46:02 19.8 C 5.47 g/m*3 19.8 C 0 km/h
1840 15-07-2011 11:58:02 19.8 C 5.3 g/m*3 19.8 C 0 km/h
1841 15-07-2011 12:10:02 19.8 C 5.3 g/m*3 19.8 C 0 km/h
1842 15-07-2011 12:22:01 20.1 C 5.39 g/m*3 20.1 C 0 km/h
1843 15-07-2011 12:34:02 20.8 C 5.79 g/m*3 20.8 C 0 km/h
1844 15-07-2011 12:46:02 21.3 C 5.59 g/m*3 21.3 C 0 km/h
1845 15-07-2011 12:58:02 21.2 C 5.19 g/m*3 21.2 C 0 km/h
1846 15-07-2011 13:10:02 23 C 5.34 g/m*3 23 C 0 km/h
1847 15-07-2011 13:22:02 22.8 C 5.08 g/m*3 22.8 C 0 km/h
1848 15-07-2011 13:34:02 23.5 C 4.23 g/m*3 23.5 C 0 km/h
1849 15-07-2011 13:46:02 24.2 C 5.28 g/m*3 24.2 C 0 km/h
1850 15-07-2011 13:58:02 24.8 C 4.55 g/m*3 24.8 C 0 km/h
Sensor: Nr:Datum:Temp:Abs-Feuchte:Windchill:Wind:
Aussen-T/F 1851 15-07-2011 14:10:03 25.9 C 4.84 g/m*3 25.9 C 0 km/h
1852 15-07-2011 14:22:02 27.1 C 5.18 g/m*3 27.1 C 0 km/h
1853 15-07-2011 14:34:02 29.3 C 5.84 g/m*3 29.3 C 0 km/h
1854 15-07-2011 14:46:03 29 C 5.74 g/m*3 29 C 0 km/h
1855 15-07-2011 14:58:03 25.5 C 4.73 g/m*3 25.5 C 0 km/h
1856 15-07-2011 15:10:04 28.1 C 5.47 g/m*3 28.1 C 0 km/h
1857 15-07-2011 15:22:03 26.3 C 4.95 g/m*3 26.3 C 0 km/h
1858 15-07-2011 15:34:03 27.6 C 5.32 g/m*3 27.6 C 0 km/h
1859 15-07-2011 15:46:03 26.2 C 4.92 g/m*3 26.2 C 0 km/h
1860 15-07-2011 15:58:03 28.7 C 5.65 g/m*3 28.7 C 0 km/h
1861 15-07-2011 16:10:03 31.3 C 6.5 g/m*3 31.3 C 0 km/h
1862 15-07-2011 16:22:03 28.2 C 5.5 g/m*3 28.2 C 0 km/h
1863 15-07-2011 16:34:03 27.4 C 5.26 g/m*3 27.4 C 0 km/h
1864 15-07-2011 16:46:02 25.7 C 4.79 g/m*3 25.7 C 0 km/h
1865 15-07-2011 16:58:02 28 C 5.44 g/m*3 28 C 0 km/h
1866 15-07-2011 17:10:03 27.3 C 5.23 g/m*3 27.3 C 0 km/h
1867 15-07-2011 17:22:02 28.5 C 5.59 g/m*3 28.5 C 0 km/h
1868 15-07-2011 17:34:03 25.2 C 4.66 g/m*3 25.2 C 0 km/h
1869 15-07-2011 17:46:01 25.2 C 4.66 g/m*3 25.2 C 0 km/h
1870 15-07-2011 17:58:01 25.6 C 4.76 g/m*3 25.6 C 0 km/h
1871 15-07-2011 18:10:03 26.4 C 4.98 g/m*3 26.4 C 0 km/h
1872 15-07-2011 18:22:02 24.3 C 4.43 g/m*3 24.3 C 0 km/h
1873 15-07-2011 18:34:02 27.6 C 5.32 g/m*3 27.6 C 0 km/h
1874 15-07-2011 18:46:02 29.6 C 5.94 g/m*3 29.6 C 0 km/h
1875 15-07-2011 18:58:02 27.1 C 5.18 g/m*3 27.1 C 0 km/h
Sensor: Nr:Datum:Temp:Abs-Feuchte:Windchill:Wind:
Aussen-T/F 1876 15-07-2011 19:10:05 28 C 5.44 g/m*3 28 C 0 km/h
1877 15-07-2011 19:22:02 25.1 C 4.63 g/m*3 25.1 C 0 km/h
1878 15-07-2011 19:34:02 23.2 C 4.16 g/m*3 23.2 C 0 km/h
1879 15-07-2011 19:46:02 24.2 C 4.4 g/m*3 24.2 C 0 km/h
1880 15-07-2011 19:58:02 24 C 4.35 g/m*3 24 C 0 km/h
1881 15-07-2011 20:10:02 23 C 4.32 g/m*3 23 C 0 km/h
1882 15-07-2011 20:22:02 22 C 4.46 g/m*3 22 C 0 km/h
1883 15-07-2011 20:34:02 20.7 C 5.76 g/m*3 20.7 C 0 km/h
1884 15-07-2011 20:46:02 19.9 C 6.01 g/m*3 19.9 C 0 km/h
1885 15-07-2011 20:58:02 19.7 C 5.94 g/m*3 19.7 C 0 km/h
1886 15-07-2011 21:10:03 18.6 C 6.37 g/m*3 18.6 C 0 km/h
1887 15-07-2011 21:22:02 17.9 C 6.26 g/m*3 17.9 C 0 km/h
1888 15-07-2011 21:34:02 17.4 C 5.78 g/m*3 17.4 C 0 km/h
1889 15-07-2011 21:46:02 16.8 C 6 g/m*3 16.8 C 0 km/h
1890 15-07-2011 21:58:02 16.2 C 5.79 g/m*3 16.2 C 0 km/h
1891 15-07-2011 22:10:02 15.8 C 6.46 g/m*3 15.8 C 0 km/h
1892 15-07-2011 22:22:01 15 C 6.03 g/m*3 15 C 0 km/h
1893 15-07-2011 22:34:02 14.5 C 6.34 g/m*3 14.5 C 0 km/h
1894 15-07-2011 22:47:02 14.1 C 6.19 g/m*3 14.1 C 0 km/h
1895 15-07-2011 22:59:02 13.8 C 6.31 g/m*3 13.8 C 0 km/h
1896 15-07-2011 23:11:02 13.4 C 6.04 g/m*3 13.4 C 0 km/h
1897 15-07-2011 23:23:02 13.1 C 6.16 g/m*3 13.1 C 0 km/h
1898 15-07-2011 23:35:02 13 C 6.24 g/m*3 13 C 0 km/h
1899 15-07-2011 23:47:02 12.8 C 6.5 g/m*3 12.8 C 0 km/h
1900 15-07-2011 23:59:02 12.4 C 6.34 g/m*3 12.4 C 0 km/h
Sensor: Nr:Datum:Temp:Abs-Feuchte:Windchill:Wind:
Aussen-T/F 1901 16-07-2011 00:11:02 12.2 C 6.15 g/m*3 12.2 C 0 km/h
1902 16-07-2011 00:23:02 12.3 C 6.3 g/m*3 12.3 C 0 km/h
1903 16-07-2011 00:35:02 12.1 C 6.22 g/m*3 12.1 C 0 km/h
1904 16-07-2011 00:47:02 11.9 C 6.25 g/m*3 11.9 C 0 km/h
1905 16-07-2011 00:59:02 11.7 C 6.28 g/m*3 11.7 C 0 km/h
1906 16-07-2011 01:11:02 11.3 C 6.32 g/m*3 11.3 C 0 km/h
1907 16-07-2011 01:23:02 11.1 C 6.35 g/m*3 11.1 C 0 km/h
1908 16-07-2011 01:35:02 10.8 C 6.42 g/m*3 10.8 C 0 km/h
1909 16-07-2011 01:47:02 10.7 C 6.48 g/m*3 10.7 C 0 km/h
1910 16-07-2011 01:59:02 10.6 C 6.64 g/m*3 10.6 C 0 km/h
1911 16-07-2011 02:11:02 10.4 C 6.65 g/m*3 10.4 C 0 km/h
1912 16-07-2011 02:23:02 10.3 C 6.7 g/m*3 10.3 C 0 km/h
1913 16-07-2011 02:35:02 10.3 C 6.8 g/m*3 10.3 C 0 km/h
1914 16-07-2011 02:47:02 10.1 C 6.71 g/m*3 10.1 C 0 km/h
1915 16-07-2011 02:59:02 9.9 C 6.82 g/m*3 9.9 C 0 km/h
1916 16-07-2011 03:11:03 9.8 C 6.87 g/m*3 9.8 C 0 km/h
1917 16-07-2011 03:23:03 9.7 C 6.91 g/m*3 9.7 C 0 km/h
1918 16-07-2011 03:35:03 9.7 C 7.01 g/m*3 9.7 C 0 km/h
1919 16-07-2011 03:47:03 9.4 C 6.96 g/m*3 9.4 C 0 km/h
1920 16-07-2011 03:59:03 9.1 C 6.74 g/m*3 9.1 C 0 km/h
1921 16-07-2011 04:11:03 9 C 6.79 g/m*3 9 C 0 km/h
1922 16-07-2011 04:23:03 8.9 C 6.92 g/m*3 8.9 C 0 km/h
1923 16-07-2011 04:35:03 8.9 C 7.1 g/m*3 8.9 C 0 km/h
1924 16-07-2011 04:47:03 8.7 C 7.01 g/m*3 8.7 C 0 km/h
1925 16-07-2011 04:59:03 8.5 C 6.92 g/m*3 8.5 C 0 km/h
Sensor: Nr:Datum:Temp:Abs-Feuchte:Windchill:Wind:
Aussen-T/F 1926 16-07-2011 05:11:03 8.5 C 7 g/m*3 8.5 C 0 km/h
1927 16-07-2011 05:23:03 8.5 C 7.09 g/m*3 8.5 C 0 km/h
1928 16-07-2011 05:35:03 8.4 C 7.04 g/m*3 8.4 C 0 km/h
1929 16-07-2011 05:47:03 8.2 C 6.95 g/m*3 8.2 C 0 km/h
1930 16-07-2011 05:59:03 8.5 C 7.17 g/m*3 8.5 C 0 km/h
1931 16-07-2011 06:11:03 8.4 C 7.13 g/m*3 8.4 C 0 km/h
1932 16-07-2011 06:23:03 8.5 C 7.17 g/m*3 8.5 C 0 km/h
1933 16-07-2011 06:35:03 8.6 C 7.3 g/m*3 8.6 C 0 km/h
1934 16-07-2011 06:47:03 8.8 C 7.4 g/m*3 8.8 C 0 km/h
1935 16-07-2011 06:59:03 9.1 C 7.45 g/m*3 9.1 C 0 km/h
1936 16-07-2011 07:11:03 9.8 C 7.79 g/m*3 9.8 C 0 km/h
1937 16-07-2011 07:23:03 11 C 8.31 g/m*3 11 C 0 km/h
1938 16-07-2011 07:35:04 11.7 C 8.26 g/m*3 11.7 C 0 km/h
1939 16-07-2011 07:47:04 11.9 C 7.94 g/m*3 11.9 C 0 km/h
1940 16-07-2011 07:59:04 12.6 C 7.85 g/m*3 12.6 C 0 km/h
1941 16-07-2011 08:11:04 13.5 C 7.95 g/m*3 13.5 C 0 km/h
1942 16-07-2011 08:23:02 13.7 C 7.7 g/m*3 13.7 C 0 km/h
1943 16-07-2011 08:35:02 14.2 C 7.45 g/m*3 14.2 C 0 km/h
1944 16-07-2011 08:47:02 14.8 C 7.47 g/m*3 14.8 C 0 km/h
1945 16-07-2011 08:59:02 15.8 C 7.54 g/m*3 15.8 C 0 km/h
1946 16-07-2011 09:11:03 16.5 C 7.44 g/m*3 16.5 C 0 km/h
1947 16-07-2011 09:23:02 17.1 C 7.57 g/m*3 17.1 C 0 km/h
1948 16-07-2011 09:35:02 17.7 C 7.39 g/m*3 17.7 C 0 km/h
1949 16-07-2011 09:47:02 18.1 C 7.42 g/m*3 18.1 C 0 km/h
1950 16-07-2011 09:59:02 19.7 C 7.3 g/m*3 19.7 C 0 km/h
Sensor: Nr:Datum:Temp:Abs-Feuchte:Windchill:Wind:
Aussen-T/F 1951 16-07-2011 10:11:01 20.1 C 7.3 g/m*3 20.1 C 0 km/h
1952 16-07-2011 10:23:02 20.3 C 8.09 g/m*3 20.3 C 0 km/h
1953 16-07-2011 10:35:02 21.4 C 8.06 g/m*3 21.4 C 0 km/h
1954 16-07-2011 10:47:01 22.5 C 5.99 g/m*3 22.5 C 0 km/h
1955 16-07-2011 10:59:01 23.1 C 5.17 g/m*3 23.1 C 0 km/h
1956 16-07-2011 11:11:02 24 C 5 g/m*3 24 C 0 km/h
1957 16-07-2011 11:23:01 24.4 C 4.67 g/m*3 24.4 C 0 km/h
1958 16-07-2011 11:35:01 25.2 C 4.89 g/m*3 25.2 C 0 km/h
1959 16-07-2011 11:47:01 25.6 C 5 g/m*3 25.6 C 0 km/h
1960 16-07-2011 11:59:01 26.3 C 4.95 g/m*3 26.3 C 0 km/h
1961 16-07-2011 12:11:02 25.7 C 4.79 g/m*3 25.7 C 0 km/h
1962 16-07-2011 12:23:01 26.2 C 5.17 g/m*3 26.2 C 0 km/h
1963 16-07-2011 12:35:02 25.8 C 5.06 g/m*3 25.8 C 0 km/h
1964 16-07-2011 12:47:01 26 C 4.87 g/m*3 26 C 0 km/h
1965 16-07-2011 12:59:01 26 C 5.11 g/m*3 26 C 0 km/h
1966 16-07-2011 13:11:02 26.7 C 5.06 g/m*3 26.7 C 0 km/h
1967 16-07-2011 13:23:02 27.3 C 5.23 g/m*3 27.3 C 0 km/h
1968 16-07-2011 13:35:01 27.2 C 5.2 g/m*3 27.2 C 0 km/h
1969 16-07-2011 13:47:02 26.3 C 4.95 g/m*3 26.3 C 0 km/h
1970 16-07-2011 13:59:02 26.6 C 5.03 g/m*3 26.6 C 0 km/h
1971 16-07-2011 14:11:01 26.6 C 5.03 g/m*3 26.6 C 0 km/h
1972 16-07-2011 14:23:02 26.8 C 5.35 g/m*3 26.8 C 0 km/h
1973 16-07-2011 14:35:01 27.3 C 5.23 g/m*3 27.3 C 0 km/h
1974 16-07-2011 14:47:02 27.4 C 5.26 g/m*3 27.4 C 0 km/h
1975 16-07-2011 14:59:02 28.1 C 5.47 g/m*3 28.1 C 0 km/h
Sensor: Nr:Datum:Temp:Abs-Feuchte:Windchill:Wind:
Aussen-T/F 1976 16-07-2011 15:11:01 27.9 C 5.41 g/m*3 27.9 C 0 km/h
1977 16-07-2011 15:23:02 27.5 C 5.29 g/m*3 27.5 C 0 km/h
1978 16-07-2011 15:35:01 27.7 C 5.35 g/m*3 27.7 C 0 km/h
1979 16-07-2011 15:47:02 27 C 5.15 g/m*3 27 C 0 km/h
1980 16-07-2011 15:59:03 27.3 C 5.23 g/m*3 27.3 C 0 km/h
1981 16-07-2011 16:11:02 27.7 C 5.35 g/m*3 27.7 C 0 km/h
1982 16-07-2011 16:23:02 27.9 C 5.41 g/m*3 27.9 C 0 km/h
1983 16-07-2011 16:35:03 28.3 C 5.53 g/m*3 28.3 C 0 km/h
1984 16-07-2011 16:47:01 27.5 C 5.29 g/m*3 27.5 C 0 km/h
1985 16-07-2011 16:59:01 27.5 C 5.29 g/m*3 27.5 C 0 km/h
1986 16-07-2011 17:11:02 26.8 C 5.09 g/m*3 26.8 C 0 km/h
1987 16-07-2011 17:23:02 26.9 C 5.63 g/m*3 26.9 C 0 km/h
1988 16-07-2011 17:35:02 26.4 C 5.23 g/m*3 26.4 C 0 km/h
1989 16-07-2011 17:47:02 26.5 C 5.51 g/m*3 26.5 C 0 km/h
1990 16-07-2011 17:59:02 25.5 C 5.68 g/m*3 25.5 C 0 km/h
1991 16-07-2011 18:11:02 25.2 C 6.05 g/m*3 25.2 C 0 km/h
1992 16-07-2011 18:23:02 25.1 C 5.79 g/m*3 25.1 C 0 km/h
1993 16-07-2011 18:35:01 25 C 5.75 g/m*3 25 C 0 km/h
1994 16-07-2011 18:47:02 24.9 C 5.72 g/m*3 24.9 C 0 km/h
1995 16-07-2011 18:59:02 24.8 C 5.69 g/m*3 24.8 C 0 km/h
1996 16-07-2011 19:11:01 24.5 C 5.82 g/m*3 24.5 C 0 km/h
1997 16-07-2011 19:23:01 24.3 C 6.2 g/m*3 24.3 C 0 km/h
1998 16-07-2011 19:35:02 24.3 C 5.75 g/m*3 24.3 C 0 km/h
1999 16-07-2011 19:47:02 24.1 C 6.13 g/m*3 24.1 C 0 km/h
2000 16-07-2011 19:59:02 23.7 C 6.2 g/m*3 23.7 C 0 km/h
Sensor: Nr:Datum:Temp:Abs-Feuchte:Windchill:Wind:
Aussen-T/F 2001 16-07-2011 20:11:02 23.4 C 6.31 g/m*3 23.4 C 0 km/h
2002 16-07-2011 20:23:02 23.2 C 6.24 g/m*3 23.2 C 0 km/h
2003 16-07-2011 20:35:02 22.5 C 7.19 g/m*3 22.5 C 0 km/h
2004 16-07-2011 20:47:02 21.9 C 7.53 g/m*3 21.9 C 0 km/h
2005 16-07-2011 20:59:02 21.4 C 7.5 g/m*3 21.4 C 0 km/h
2006 16-07-2011 21:11:02 21.4 C 7.31 g/m*3 21.4 C 0 km/h
2007 16-07-2011 21:23:02 21.3 C 7.46 g/m*3 21.3 C 0 km/h
2008 16-07-2011 21:35:02 21.3 C 7.27 g/m*3 21.3 C 0 km/h
2009 16-07-2011 21:47:01 22.6 C 7.23 g/m*3 22.6 C 0 km/h
2010 16-07-2011 21:59:01 22.1 C 7.42 g/m*3 22.1 C 0 km/h
2011 16-07-2011 22:11:02 21.5 C 7.73 g/m*3 21.5 C 0 km/h
2012 16-07-2011 22:24:02 20.9 C 8.38 g/m*3 20.9 C 0 km/h
2013 16-07-2011 22:36:02 20.3 C 8.09 g/m*3 20.3 C 0 km/h
2014 16-07-2011 22:48:02 19.8 C 8.54 g/m*3 19.8 C 0 km/h
2015 16-07-2011 23:00:02 19.7 C 8.49 g/m*3 19.7 C 0 km/h
2016 16-07-2011 23:12:02 19.7 C 8.49 g/m*3 19.7 C 0 km/h
2017 16-07-2011 23:24:02 19.8 C 8.37 g/m*3 19.8 C 0 km/h
2018 16-07-2011 23:36:02 20.9 C 8.38 g/m*3 20.9 C 0 km/h
2019 16-07-2011 23:48:02 19.9 C 9.28 g/m*3 19.9 C 0 km/h
2020 17-07-2011 00:00:02 19.1 C 9.67 g/m*3 19.1 C 0 km/h
2021 17-07-2011 00:12:02 18.2 C 10.1 g/m*3 18.2 C 0 km/h
2022 17-07-2011 00:24:02 17.4 C 10.67 g/m*3 17.4 C 0 km/h
2023 17-07-2011 00:36:02 17 C 11 g/m*3 17 C 0 km/h
2024 17-07-2011 00:48:02 16.8 C 11.29 g/m*3 16.8 C 0 km/h
2025 17-07-2011 01:00:02 16.6 C 11.44 g/m*3 16.6 C 0 km/h
Sensor: Nr:Datum:Temp:Abs-Feuchte:Windchill:Wind:
Aussen-T/F 2026 17-07-2011 01:12:02 16.5 C 11.51 g/m*3 16.5 C 0 km/h
2027 17-07-2011 01:24:02 16.4 C 11.58 g/m*3 16.4 C 0 km/h
2028 17-07-2011 01:36:02 16.4 C 11.72 g/m*3 16.4 C 0 km/h
2029 17-07-2011 01:48:02 16.5 C 11.94 g/m*3 16.5 C 0 km/h
2030 17-07-2011 02:00:02 16.6 C 12.01 g/m*3 16.6 C 0 km/h
2031 17-07-2011 02:12:02 16.5 C 12.08 g/m*3 16.5 C 0 km/h
2032 17-07-2011 02:24:02 16.5 C 12.08 g/m*3 16.5 C 0 km/h
2033 17-07-2011 02:36:02 16.5 C 12.08 g/m*3 16.5 C 0 km/h
2034 17-07-2011 02:48:03 16.5 C 12.22 g/m*3 16.5 C 0 km/h
2035 17-07-2011 03:00:03 16.6 C 12.29 g/m*3 16.6 C 0 km/h
2036 17-07-2011 03:12:03 16.5 C 12.22 g/m*3 16.5 C 0 km/h
2037 17-07-2011 03:24:03 16.5 C 12.36 g/m*3 16.5 C 0 km/h
2038 17-07-2011 03:36:03 16.5 C 12.36 g/m*3 16.5 C 0 km/h
2039 17-07-2011 03:48:03 16.5 C 12.36 g/m*3 16.5 C 0 km/h
2040 17-07-2011 04:00:03 16.5 C 12.36 g/m*3 16.5 C 0 km/h
2041 17-07-2011 04:12:03 16.5 C 12.36 g/m*3 16.5 C 0 km/h
2042 17-07-2011 04:24:03 16.6 C 12.43 g/m*3 16.6 C 0 km/h
2043 17-07-2011 04:36:03 16.8 C 12.58 g/m*3 16.8 C 0 km/h
2044 17-07-2011 04:48:03 16.4 C 12.28 g/m*3 16.4 C 0 km/h
2045 17-07-2011 05:00:03 16.3 C 12.21 g/m*3 16.3 C 0 km/h
2046 17-07-2011 05:12:03 16.2 C 12.14 g/m*3 16.2 C 0 km/h
2047 17-07-2011 05:24:03 16.2 C 12.14 g/m*3 16.2 C 0 km/h
2048 17-07-2011 05:36:03 16.2 C 12.14 g/m*3 16.2 C 0 km/h
2049 17-07-2011 05:48:03 16.2 C 12.14 g/m*3 16.2 C 0 km/h
2050 17-07-2011 06:00:03 16.2 C 12.14 g/m*3 16.2 C 0 km/h
Sensor: Nr:Datum:Temp:Abs-Feuchte:Windchill:Wind:
Aussen-T/F 2051 17-07-2011 06:12:03 16.2 C 12.27 g/m*3 16.2 C 0 km/h
2052 17-07-2011 06:24:03 16.2 C 12.27 g/m*3 16.2 C 0 km/h
2053 17-07-2011 06:36:03 16 C 12.13 g/m*3 16 C 0 km/h
2054 17-07-2011 06:48:03 16 C 12.13 g/m*3 16 C 0 km/h
2055 17-07-2011 07:00:03 16 C 12.13 g/m*3 16 C 0 km/h
2056 17-07-2011 07:12:04 15.9 C 12.05 g/m*3 15.9 C 0 km/h
2057 17-07-2011 07:24:04 15.9 C 12.05 g/m*3 15.9 C 0 km/h
2058 17-07-2011 07:36:04 15.8 C 11.98 g/m*3 15.8 C 0 km/h
2059 17-07-2011 07:48:04 15.8 C 11.98 g/m*3 15.8 C 0 km/h
2060 17-07-2011 08:00:04 15.9 C 12.05 g/m*3 15.9 C 0 km/h
2061 17-07-2011 08:12:04 16 C 12.13 g/m*3 16 C 0 km/h
2062 17-07-2011 08:24:02 15.6 C 11.84 g/m*3 15.6 C 0 km/h
2063 17-07-2011 08:36:02 15.4 C 11.69 g/m*3 15.4 C 0 km/h
2064 17-07-2011 08:48:02 15.3 C 11.49 g/m*3 15.3 C 0 km/h
2065 17-07-2011 09:00:02 15.5 C 11.63 g/m*3 15.5 C 0 km/h
2066 17-07-2011 09:12:02 15.6 C 11.7 g/m*3 15.6 C 0 km/h
2067 17-07-2011 09:24:02 15.4 C 11.43 g/m*3 15.4 C 0 km/h
2068 17-07-2011 09:36:02 16.2 C 11.58 g/m*3 16.2 C 0 km/h
2069 17-07-2011 09:48:02 16.2 C 11.17 g/m*3 16.2 C 0 km/h
2070 17-07-2011 10:00:02 16.8 C 11.29 g/m*3 16.8 C 0 km/h
2071 17-07-2011 10:12:02 17.3 C 10.9 g/m*3 17.3 C 0 km/h
2072 17-07-2011 10:24:01 18 C 10.91 g/m*3 18 C 0 km/h
2073 17-07-2011 10:36:03 18.2 C 10.72 g/m*3 18.2 C 0 km/h
2074 17-07-2011 10:48:02 18 C 10.75 g/m*3 18 C 0 km/h
2075 17-07-2011 11:00:02 18.4 C 11.01 g/m*3 18.4 C 0 km/h
Sensor: Nr:Datum:Temp:Abs-Feuchte:Windchill:Wind:
Aussen-T/F 2076 17-07-2011 11:12:03 19.2 C 10.72 g/m*3 19.2 C 0 km/h
2077 17-07-2011 11:24:02 19.4 C 10.84 g/m*3 19.4 C 0 km/h
2078 17-07-2011 11:36:02 19.2 C 10.55 g/m*3 19.2 C 0 km/h
2079 17-07-2011 11:48:02 20.2 C 10.67 g/m*3 20.2 C 0 km/h
2080 17-07-2011 12:00:02 20.5 C 10.14 g/m*3 20.5 C 0 km/h
2081 17-07-2011 12:12:03 21.2 C 10.01 g/m*3 21.2 C 0 km/h
2082 17-07-2011 12:24:02 20.4 C 9.91 g/m*3 20.4 C 0 km/h
2083 17-07-2011 12:36:02 20.2 C 10.14 g/m*3 20.2 C 0 km/h
2084 17-07-2011 12:48:01 20.7 C 10.62 g/m*3 20.7 C 0 km/h
2085 17-07-2011 13:00:01 21 C 9.53 g/m*3 21 C 0 km/h
2086 17-07-2011 13:12:02 20.5 C 9.07 g/m*3 20.5 C 0 km/h
2087 17-07-2011 13:24:02 20 C 8.3 g/m*3 20 C 0 km/h
2088 17-07-2011 13:36:01 19.4 C 8.01 g/m*3 19.4 C 0 km/h
2089 17-07-2011 13:48:02 20.1 C 8.69 g/m*3 20.1 C 0 km/h
2090 17-07-2011 14:00:02 20.6 C 8.41 g/m*3 20.6 C 0 km/h
2091 17-07-2011 14:12:01 19.5 C 8.22 g/m*3 19.5 C 0 km/h
2092 17-07-2011 14:24:02 18.7 C 8.49 g/m*3 18.7 C 0 km/h
2093 17-07-2011 14:36:01 18.2 C 8.08 g/m*3 18.2 C 0 km/h
2094 17-07-2011 14:48:02 19.2 C 7.75 g/m*3 19.2 C 0 km/h
2095 17-07-2011 15:00:02 20 C 7.43 g/m*3 20 C 0 km/h
2096 17-07-2011 15:12:02 19.9 C 7.73 g/m*3 19.9 C 0 km/h
2097 17-07-2011 15:24:02 19.9 C 7.56 g/m*3 19.9 C 0 km/h
2098 17-07-2011 15:36:03 20.2 C 7.17 g/m*3 20.2 C 0 km/h
2099 17-07-2011 15:48:02 21.2 C 7.04 g/m*3 21.2 C 0 km/h
2100 17-07-2011 16:00:02 21.2 C 6.86 g/m*3 21.2 C 0 km/h
Sensor: Nr:Datum:Temp:Abs-Feuchte:Windchill:Wind:
Aussen-T/F 2101 17-07-2011 16:12:01 21 C 6.59 g/m*3 21 C 0 km/h
2102 17-07-2011 16:24:02 21.1 C 6.45 g/m*3 21.1 C 0 km/h
2103 17-07-2011 16:36:02 20.3 C 6.68 g/m*3 20.3 C 0 km/h
2104 17-07-2011 16:48:02 20.4 C 6.72 g/m*3 20.4 C 0 km/h
2105 17-07-2011 17:00:02 19.8 C 7 g/m*3 19.8 C 0 km/h
2106 17-07-2011 17:12:03 20.4 C 6.55 g/m*3 20.4 C 0 km/h
2107 17-07-2011 17:24:02 19.4 C 6.67 g/m*3 19.4 C 0 km/h
2108 17-07-2011 17:36:02 19.2 C 6.76 g/m*3 19.2 C 0 km/h
2109 17-07-2011 17:48:01 19.3 C 6.63 g/m*3 19.3 C 0 km/h
2110 17-07-2011 18:00:01 19.3 C 6.63 g/m*3 19.3 C 0 km/h
2111 17-07-2011 18:12:02 20.3 C 6.68 g/m*3 20.3 C 0 km/h
2112 17-07-2011 18:24:01 19.4 C 7.01 g/m*3 19.4 C 0 km/h
2113 17-07-2011 18:36:02 18.4 C 6.76 g/m*3 18.4 C 0 km/h
2114 17-07-2011 18:48:01 18.7 C 7.36 g/m*3 18.7 C 0 km/h
2115 17-07-2011 19:00:01 18.4 C 7.24 g/m*3 18.4 C 0 km/h
2116 17-07-2011 19:12:02 18.3 C 7.66 g/m*3 18.3 C 0 km/h
2117 17-07-2011 19:24:01 18.1 C 7.11 g/m*3 18.1 C 0 km/h
2118 17-07-2011 19:36:02 18.4 C 7.71 g/m*3 18.4 C 0 km/h
2119 17-07-2011 19:48:01 17.8 C 7.59 g/m*3 17.8 C 0 km/h
2120 17-07-2011 20:00:01 17.5 C 8.05 g/m*3 17.5 C 0 km/h
2121 17-07-2011 20:12:02 17.3 C 7.81 g/m*3 17.3 C 0 km/h
2122 17-07-2011 20:24:02 18.1 C 7.26 g/m*3 18.1 C 0 km/h
2123 17-07-2011 20:36:02 18.4 C 7.24 g/m*3 18.4 C 0 km/h
2124 17-07-2011 20:48:01 18.1 C 7.42 g/m*3 18.1 C 0 km/h
2125 17-07-2011 21:00:01 17.5 C 8.2 g/m*3 17.5 C 0 km/h
Sensor: Nr:Datum:Temp:Abs-Feuchte:Windchill:Wind:
Aussen-T/F 2126 17-07-2011 21:12:02 17.1 C 8.73 g/m*3 17.1 C 0 km/h
2127 17-07-2011 21:24:02 16.9 C 8.2 g/m*3 16.9 C 0 km/h
2128 17-07-2011 21:36:01 16.5 C 8.71 g/m*3 16.5 C 0 km/h
2129 17-07-2011 21:48:02 16.4 C 8.23 g/m*3 16.4 C 0 km/h
2130 17-07-2011 22:00:02 15.8 C 8.35 g/m*3 15.8 C 0 km/h
2131 17-07-2011 22:12:02 15.8 C 8.21 g/m*3 15.8 C 0 km/h
2132 17-07-2011 22:25:03 15.9 C 8.13 g/m*3 15.9 C 0 km/h
2133 17-07-2011 22:37:03 16 C 7.49 g/m*3 16 C 0 km/h
2134 17-07-2011 22:49:03 15.3 C 7.7 g/m*3 15.3 C 0 km/h
2135 17-07-2011 23:01:03 14.8 C 7.98 g/m*3 14.8 C 0 km/h
2136 17-07-2011 23:13:04 15.4 C 7.49 g/m*3 15.4 C 0 km/h
2137 17-07-2011 23:25:04 15.8 C 7.54 g/m*3 15.8 C 0 km/h
2138 17-07-2011 23:37:04 15.8 C 7.54 g/m*3 15.8 C 0 km/h
2139 17-07-2011 23:49:04 15.6 C 7.71 g/m*3 15.6 C 0 km/h
2140 18-07-2011 00:01:04 15.9 C 8.13 g/m*3 15.9 C 0 km/h
2141 18-07-2011 00:13:04 15.5 C 8.2 g/m*3 15.5 C 0 km/h
2142 18-07-2011 00:25:04 15.6 C 8.38 g/m*3 15.6 C 0 km/h
2143 18-07-2011 00:37:04 15.3 C 8.36 g/m*3 15.3 C 0 km/h
2144 18-07-2011 00:49:04 15.1 C 8.51 g/m*3 15.1 C 0 km/h
2145 18-07-2011 01:01:04 14.5 C 8.83 g/m*3 14.5 C 0 km/h
2146 18-07-2011 01:13:04 14.5 C 8.95 g/m*3 14.5 C 0 km/h
2147 18-07-2011 01:25:04 14.5 C 8.95 g/m*3 14.5 C 0 km/h
2148 18-07-2011 01:37:04 14.5 C 8.95 g/m*3 14.5 C 0 km/h
2149 18-07-2011 01:49:04 14.4 C 8.9 g/m*3 14.4 C 0 km/h
2150 18-07-2011 02:01:04 14.3 C 8.85 g/m*3 14.3 C 0 km/h
Sensor: Nr:Datum:Temp:Abs-Feuchte:Windchill:Wind:
Aussen-T/F 2151 18-07-2011 02:13:04 14.1 C 8.86 g/m*3 14.1 C 0 km/h
2152 18-07-2011 02:25:04 13.7 C 8.88 g/m*3 13.7 C 0 km/h
2153 18-07-2011 02:37:04 14 C 9.05 g/m*3 14 C 0 km/h
2154 18-07-2011 02:49:04 13.9 C 9.23 g/m*3 13.9 C 0 km/h
2155 18-07-2011 03:01:04 13.4 C 9.3 g/m*3 13.4 C 0 km/h
2156 18-07-2011 03:13:04 13 C 9.3 g/m*3 13 C 0 km/h
2157 18-07-2011 03:25:04 12.7 C 9.35 g/m*3 12.7 C 0 km/h
2158 18-07-2011 03:37:05 12.9 C 9.69 g/m*3 12.9 C 0 km/h
2159 18-07-2011 03:49:05 12.6 C 9.51 g/m*3 12.6 C 0 km/h
2160 18-07-2011 04:01:05 12.2 C 9.28 g/m*3 12.2 C 0 km/h
2161 18-07-2011 04:13:05 12.3 C 9.45 g/m*3 12.3 C 0 km/h
2162 18-07-2011 04:25:05 12.7 C 9.68 g/m*3 12.7 C 0 km/h
2163 18-07-2011 04:37:05 12.9 C 9.69 g/m*3 12.9 C 0 km/h
2164 18-07-2011 04:49:05 13.1 C 9.59 g/m*3 13.1 C 0 km/h
2165 18-07-2011 05:01:05 13.2 C 9.3 g/m*3 13.2 C 0 km/h
2166 18-07-2011 05:13:05 12.9 C 9.24 g/m*3 12.9 C 0 km/h
2167 18-07-2011 05:25:05 13.1 C 9.36 g/m*3 13.1 C 0 km/h
2168 18-07-2011 05:37:05 13.1 C 9.47 g/m*3 13.1 C 0 km/h
2169 18-07-2011 05:49:05 13.4 C 9.42 g/m*3 13.4 C 0 km/h
2170 18-07-2011 06:01:05 13 C 8.85 g/m*3 13 C 0 km/h
2171 18-07-2011 06:13:05 12.8 C 8.96 g/m*3 12.8 C 0 km/h
2172 18-07-2011 06:25:05 13 C 9.19 g/m*3 13 C 0 km/h
2173 18-07-2011 06:37:05 13.4 C 9.18 g/m*3 13.4 C 0 km/h
2174 18-07-2011 06:49:05 13.5 C 9.01 g/m*3 13.5 C 0 km/h
2175 18-07-2011 07:01:05 14.4 C 9.02 g/m*3 14.4 C 0 km/h
Sensor: Nr:Datum:Temp:Abs-Feuchte:Windchill:Wind:
Aussen-T/F 2176 18-07-2011 07:13:05 15.5 C 8.72 g/m*3 15.5 C 0 km/h
2177 18-07-2011 07:25:05 15.9 C 8.67 g/m*3 15.9 C 0 km/h
2178 18-07-2011 07:37:03 16 C 8.45 g/m*3 16 C 0 km/h
2179 18-07-2011 07:49:02 15.6 C 8.64 g/m*3 15.6 C 0 km/h
2180 18-07-2011 08:01:02 15.7 C 8.7 g/m*3 15.7 C 0 km/h
2181 18-07-2011 08:13:02 15.8 C 8.75 g/m*3 15.8 C 0 km/h
2182 18-07-2011 08:25:02 16 C 8.45 g/m*3 16 C 0 km/h
2183 18-07-2011 08:37:01 16.4 C 8.51 g/m*3 16.4 C 0 km/h
2184 18-07-2011 08:49:02 16.6 C 8.48 g/m*3 16.6 C 0 km/h
2185 18-07-2011 09:01:01 16.9 C 8.34 g/m*3 16.9 C 0 km/h
2186 18-07-2011 09:13:01 16.7 C 8.1 g/m*3 16.7 C 0 km/h
2187 18-07-2011 09:25:02 17.4 C 8.15 g/m*3 17.4 C 0 km/h
2188 18-07-2011 09:37:02 17.4 C 7.85 g/m*3 17.4 C 0 km/h
2189 18-07-2011 09:49:02 17.3 C 7.81 g/m*3 17.3 C 0 km/h
2190 18-07-2011 10:01:02 17.1 C 7.86 g/m*3 17.1 C 0 km/h
2191 18-07-2011 10:13:02 17.6 C 7.95 g/m*3 17.6 C 0 km/h
2192 18-07-2011 10:25:02 17.5 C 7.6 g/m*3 17.5 C 0 km/h
2193 18-07-2011 10:37:03 17.5 C 7.6 g/m*3 17.5 C 0 km/h
2194 18-07-2011 10:49:02 18.2 C 7.62 g/m*3 18.2 C 0 km/h
2195 18-07-2011 11:01:02 18.7 C 7.52 g/m*3 18.7 C 0 km/h
2196 18-07-2011 11:13:02 18.3 C 7.51 g/m*3 18.3 C 0 km/h
2197 18-07-2011 11:25:02 18.5 C 7.44 g/m*3 18.5 C 0 km/h
2198 18-07-2011 11:37:02 18.6 C 7.64 g/m*3 18.6 C 0 km/h
2199 18-07-2011 11:49:02 19 C 7.33 g/m*3 19 C 0 km/h
2200 18-07-2011 12:01:02 18.9 C 7.45 g/m*3 18.9 C 0 km/h
Sensor: Nr:Datum:Temp:Abs-Feuchte:Windchill:Wind:
Aussen-T/F 2201 18-07-2011 12:13:02 18.7 C 7.2 g/m*3 18.7 C 0 km/h
2202 18-07-2011 12:25:02 19.2 C 7.09 g/m*3 19.2 C 0 km/h
2203 18-07-2011 12:37:02 19.9 C 7.22 g/m*3 19.9 C 0 km/h
2204 18-07-2011 12:49:02 19.7 C 7.13 g/m*3 19.7 C 0 km/h
2205 18-07-2011 13:01:02 20.6 C 7.16 g/m*3 20.6 C 0 km/h
2206 18-07-2011 13:13:03 20.8 C 7.24 g/m*3 20.8 C 0 km/h
2207 18-07-2011 13:25:02 20.4 C 6.9 g/m*3 20.4 C 0 km/h
2208 18-07-2011 13:37:02 21.5 C 5.85 g/m*3 21.5 C 0 km/h
2209 18-07-2011 13:49:02 20.9 C 6.37 g/m*3 20.9 C 0 km/h
2210 18-07-2011 14:01:02 21.9 C 6.18 g/m*3 21.9 C 0 km/h
2211 18-07-2011 14:13:02 22.5 C 6.59 g/m*3 22.5 C 0 km/h
2212 18-07-2011 14:25:02 24.3 C 6.64 g/m*3 24.3 C 0 km/h
2213 18-07-2011 14:37:02 24.6 C 6.08 g/m*3 24.6 C 0 km/h
2214 18-07-2011 14:49:02 24.5 C 6.04 g/m*3 24.5 C 0 km/h
2215 18-07-2011 15:01:02 23.3 C 6.06 g/m*3 23.3 C 0 km/h
2216 18-07-2011 15:13:02 24.3 C 5.97 g/m*3 24.3 C 0 km/h
2217 18-07-2011 15:25:03 23.7 C 5.99 g/m*3 23.7 C 0 km/h
2218 18-07-2011 15:37:02 24.6 C 6.53 g/m*3 24.6 C 0 km/h
2219 18-07-2011 15:49:03 23.7 C 6.2 g/m*3 23.7 C 0 km/h
2220 18-07-2011 16:01:02 21.2 C 5.93 g/m*3 21.2 C 0 km/h
2221 18-07-2011 16:13:02 16.1 C 5.62 g/m*3 16.1 C 0 km/h
2222 18-07-2011 16:25:02 14.4 C 8.41 g/m*3 14.4 C 0 km/h
2223 18-07-2011 16:37:02 14.7 C 8.94 g/m*3 14.7 C 0 km/h
2224 18-07-2011 16:49:02 18.1 C 9.12 g/m*3 18.1 C 0 km/h
2225 18-07-2011 17:01:02 22.4 C 8.74 g/m*3 22.4 C 0 km/h
Sensor: Nr:Datum:Temp:Abs-Feuchte:Windchill:Wind:
Aussen-T/F 2226 18-07-2011 17:13:02 23.2 C 7.48 g/m*3 23.2 C 0 km/h
2227 18-07-2011 17:25:02 23.7 C 6.84 g/m*3 23.7 C 0 km/h
2228 18-07-2011 17:37:02 24 C 6.74 g/m*3 24 C 0 km/h
2229 18-07-2011 17:49:02 25.2 C 6.75 g/m*3 25.2 C 0 km/h
2230 18-07-2011 18:01:02 21.6 C 7.02 g/m*3 21.6 C 0 km/h
2231 18-07-2011 18:13:02 18.7 C 5.76 g/m*3 18.7 C 0 km/h
2232 18-07-2011 18:25:02 17.7 C 6.04 g/m*3 17.7 C 0 km/h
2233 18-07-2011 18:37:01 17.9 C 6.11 g/m*3 17.9 C 0 km/h
2234 18-07-2011 18:49:02 17.9 C 6.11 g/m*3 17.9 C 0 km/h
2235 18-07-2011 19:01:01 17.6 C 6 g/m*3 17.6 C 0 km/h
2236 18-07-2011 19:13:01 21.2 C 6.12 g/m*3 21.2 C 0 km/h
2237 18-07-2011 19:25:02 20.9 C 5.65 g/m*3 20.9 C 0 km/h
2238 18-07-2011 19:37:02 21.2 C 5.74 g/m*3 21.2 C 0 km/h
2239 18-07-2011 19:49:02 19.7 C 6.11 g/m*3 19.7 C 0 km/h
2240 18-07-2011 20:01:03 18.9 C 6.48 g/m*3 18.9 C 0 km/h
2241 18-07-2011 20:13:03 18.4 C 6.45 g/m*3 18.4 C 0 km/h
2242 18-07-2011 20:25:02 17.5 C 7.01 g/m*3 17.5 C 0 km/h
2243 18-07-2011 20:37:02 16.4 C 7.26 g/m*3 16.4 C 0 km/h
2244 18-07-2011 20:49:01 15.8 C 7.4 g/m*3 15.8 C 0 km/h
2245 18-07-2011 21:01:02 15.4 C 7.62 g/m*3 15.4 C 0 km/h
2246 18-07-2011 21:13:02 14.9 C 7.65 g/m*3 14.9 C 0 km/h
2247 18-07-2011 21:25:01 15 C 7.57 g/m*3 15 C 0 km/h
2248 18-07-2011 21:37:02 14.6 C 7.63 g/m*3 14.6 C 0 km/h
2249 18-07-2011 21:49:02 14.2 C 7.82 g/m*3 14.2 C 0 km/h
2250 18-07-2011 22:02:03 14 C 7.84 g/m*3 14 C 0 km/h
Sensor: Nr:Datum:Temp:Abs-Feuchte:Windchill:Wind:
Aussen-T/F 2251 18-07-2011 22:14:04 13.8 C 7.86 g/m*3 13.8 C 0 km/h
2252 18-07-2011 22:26:04 13.5 C 7.72 g/m*3 13.5 C 0 km/h
2253 18-07-2011 22:38:04 13.5 C 7.84 g/m*3 13.5 C 0 km/h
2254 18-07-2011 22:50:04 13.7 C 8.05 g/m*3 13.7 C 0 km/h
2255 18-07-2011 23:02:04 14 C 7.96 g/m*3 14 C 0 km/h
2256 18-07-2011 23:14:04 14.2 C 7.94 g/m*3 14.2 C 0 km/h
2257 18-07-2011 23:26:04 14.1 C 7.89 g/m*3 14.1 C 0 km/h
2258 18-07-2011 23:38:04 14 C 8.08 g/m*3 14 C 0 km/h
2259 18-07-2011 23:50:04 13.4 C 7.9 g/m*3 13.4 C 0 km/h
2260 19-07-2011 00:02:04 13.1 C 7.99 g/m*3 13.1 C 0 km/h
2261 19-07-2011 00:14:04 12.5 C 8.03 g/m*3 12.5 C 0 km/h
2262 19-07-2011 00:26:04 12.8 C 8.29 g/m*3 12.8 C 0 km/h
2263 19-07-2011 00:38:04 12.8 C 8.06 g/m*3 12.8 C 0 km/h
2264 19-07-2011 00:50:04 12.4 C 7.98 g/m*3 12.4 C 0 km/h
2265 19-07-2011 01:02:04 12.1 C 8.15 g/m*3 12.1 C 0 km/h
2266 19-07-2011 01:14:04 12 C 8.21 g/m*3 12 C 0 km/h
2267 19-07-2011 01:26:04 12.1 C 8.26 g/m*3 12.1 C 0 km/h
2268 19-07-2011 01:38:04 12.1 C 8.26 g/m*3 12.1 C 0 km/h
2269 19-07-2011 01:50:04 11.8 C 8.31 g/m*3 11.8 C 0 km/h
2270 19-07-2011 02:02:04 11.9 C 8.47 g/m*3 11.9 C 0 km/h
2271 19-07-2011 02:14:05 11.5 C 8.26 g/m*3 11.5 C 0 km/h
2272 19-07-2011 02:26:05 11.7 C 8.47 g/m*3 11.7 C 0 km/h
2273 19-07-2011 02:38:05 11.5 C 8.37 g/m*3 11.5 C 0 km/h
2274 19-07-2011 02:50:05 11.4 C 8.42 g/m*3 11.4 C 0 km/h
2275 19-07-2011 03:02:05 11.8 C 8.63 g/m*3 11.8 C 0 km/h
Sensor: Nr:Datum:Temp:Abs-Feuchte:Windchill:Wind:
Aussen-T/F 2276 19-07-2011 03:14:05 11.8 C 8.63 g/m*3 11.8 C 0 km/h
2277 19-07-2011 03:26:05 11.8 C 8.63 g/m*3 11.8 C 0 km/h
2278 19-07-2011 03:38:05 11.2 C 8.31 g/m*3 11.2 C 0 km/h
2279 19-07-2011 03:50:05 11.1 C 8.26 g/m*3 11.1 C 0 km/h
2280 19-07-2011 04:02:05 11.2 C 8.41 g/m*3 11.2 C 0 km/h
2281 19-07-2011 04:14:05 11.6 C 8.73 g/m*3 11.6 C 0 km/h
2282 19-07-2011 04:26:05 11.8 C 8.84 g/m*3 11.8 C 0 km/h
2283 19-07-2011 04:38:05 11.8 C 8.84 g/m*3 11.8 C 0 km/h
2284 19-07-2011 04:50:05 12 C 8.85 g/m*3 12 C 0 km/h
2285 19-07-2011 05:02:05 11.9 C 8.79 g/m*3 11.9 C 0 km/h
2286 19-07-2011 05:14:05 11.9 C 8.68 g/m*3 11.9 C 0 km/h
2287 19-07-2011 05:26:05 12 C 8.74 g/m*3 12 C 0 km/h
2288 19-07-2011 05:38:05 11.8 C 8.74 g/m*3 11.8 C 0 km/h
2289 19-07-2011 05:50:05 11.3 C 8.36 g/m*3 11.3 C 0 km/h
2290 19-07-2011 06:02:05 10.8 C 8.2 g/m*3 10.8 C 0 km/h
2291 19-07-2011 06:14:05 11 C 8.31 g/m*3 11 C 0 km/h
2292 19-07-2011 06:26:06 11 C 8.41 g/m*3 11 C 0 km/h
2293 19-07-2011 06:38:06 10.9 C 8.36 g/m*3 10.9 C 0 km/h
2294 19-07-2011 06:50:06 11.2 C 8.62 g/m*3 11.2 C 0 km/h
2295 19-07-2011 07:02:02 11.2 C 8.62 g/m*3 11.2 C 0 km/h
2296 19-07-2011 07:14:02 11.9 C 9 g/m*3 11.9 C 0 km/h
2297 19-07-2011 07:26:03 12.8 C 9.52 g/m*3 12.8 C 0 km/h
2298 19-07-2011 07:38:02 13.7 C 9.83 g/m*3 13.7 C 0 km/h
2299 19-07-2011 07:50:02 13.8 C 9.29 g/m*3 13.8 C 0 km/h
2300 19-07-2011 08:02:02 14.1 C 9.1 g/m*3 14.1 C 0 km/h
Sensor: Nr:Datum:Temp:Abs-Feuchte:Windchill:Wind:
Aussen-T/F 2301 19-07-2011 08:14:02 14.4 C 9.02 g/m*3 14.4 C 0 km/h
2302 19-07-2011 08:26:03 15.2 C 8.83 g/m*3 15.2 C 0 km/h
2303 19-07-2011 08:38:02 15.7 C 8.7 g/m*3 15.7 C 0 km/h
2304 19-07-2011 08:50:02 16.6 C 8.62 g/m*3 16.6 C 0 km/h
2305 19-07-2011 09:02:02 16.8 C 8.29 g/m*3 16.8 C 0 km/h
2306 19-07-2011 09:14:02 17.4 C 8.45 g/m*3 17.4 C 0 km/h
2307 19-07-2011 09:26:02 17.7 C 8.45 g/m*3 17.7 C 0 km/h
2308 19-07-2011 09:38:02 18.7 C 8.33 g/m*3 18.7 C 0 km/h
2309 19-07-2011 09:50:02 19.2 C 7.91 g/m*3 19.2 C 0 km/h
2310 19-07-2011 10:02:02 18.9 C 7.78 g/m*3 18.9 C 0 km/h
2311 19-07-2011 10:14:02 19.1 C 7.7 g/m*3 19.1 C 0 km/h
2312 19-07-2011 10:26:02 18.8 C 7.57 g/m*3 18.8 C 0 km/h
2313 19-07-2011 10:38:02 19.7 C 7.98 g/m*3 19.7 C 0 km/h
2314 19-07-2011 10:50:02 19.3 C 7.63 g/m*3 19.3 C 0 km/h
2315 19-07-2011 11:02:02 20.8 C 7.42 g/m*3 20.8 C 0 km/h
2316 19-07-2011 11:14:02 21.5 C 7.35 g/m*3 21.5 C 0 km/h
2317 19-07-2011 11:26:02 21.3 C 7.64 g/m*3 21.3 C 0 km/h
2318 19-07-2011 11:38:01 20.2 C 7.34 g/m*3 20.2 C 0 km/h
2319 19-07-2011 11:50:02 21.3 C 7.27 g/m*3 21.3 C 0 km/h
2320 19-07-2011 12:02:01 21.6 C 7.21 g/m*3 21.6 C 0 km/h
2321 19-07-2011 12:14:01 22.2 C 6.68 g/m*3 22.2 C 0 km/h
2322 19-07-2011 12:26:02 22 C 6.79 g/m*3 22 C 0 km/h
2323 19-07-2011 12:38:02 23.1 C 6.41 g/m*3 23.1 C 0 km/h
2324 19-07-2011 12:50:02 23.3 C 6.48 g/m*3 23.3 C 0 km/h
2325 19-07-2011 13:02:02 23.5 C 6.98 g/m*3 23.5 C 0 km/h
Sensor: Nr:Datum:Temp:Abs-Feuchte:Windchill:Wind:
Aussen-T/F 2326 19-07-2011 13:14:02 24.2 C 6.6 g/m*3 24.2 C 0 km/h
2327 19-07-2011 13:26:02 24.4 C 6.9 g/m*3 24.4 C 0 km/h
2328 19-07-2011 13:38:02 24.6 C 6.75 g/m*3 24.6 C 0 km/h
2329 19-07-2011 13:50:02 25.6 C 6.19 g/m*3 25.6 C 0 km/h
2330 19-07-2011 14:02:02 27.2 C 5.72 g/m*3 27.2 C 0 km/h
2331 19-07-2011 14:14:02 26.6 C 6.29 g/m*3 26.6 C 0 km/h
2332 19-07-2011 14:26:02 25.3 C 5.85 g/m*3 25.3 C 0 km/h
2333 19-07-2011 14:38:01 26.9 C 6.4 g/m*3 26.9 C 0 km/h
2334 19-07-2011 14:50:03 25.8 C 6.02 g/m*3 25.8 C 0 km/h
2335 19-07-2011 15:02:02 25.5 C 5.92 g/m*3 25.5 C 0 km/h
2336 19-07-2011 15:14:02 24.5 C 5.6 g/m*3 24.5 C 0 km/h
2337 19-07-2011 15:26:02 25.2 C 6.05 g/m*3 25.2 C 0 km/h
2338 19-07-2011 15:38:03 25.1 C 6.02 g/m*3 25.1 C 0 km/h
2339 19-07-2011 15:50:02 23.9 C 6.27 g/m*3 23.9 C 0 km/h
2340 19-07-2011 16:02:01 23.1 C 7.86 g/m*3 23.1 C 0 km/h
2341 19-07-2011 16:14:01 22.5 C 8.19 g/m*3 22.5 C 0 km/h
2342 19-07-2011 16:26:02 22.1 C 8.59 g/m*3 22.1 C 0 km/h
2343 19-07-2011 16:38:02 21.2 C 7.04 g/m*3 21.2 C 0 km/h
2344 19-07-2011 16:50:02 16.4 C 10.47 g/m*3 16.4 C 0 km/h
2345 19-07-2011 17:02:03 16.2 C 10.89 g/m*3 16.2 C 0 km/h
2346 19-07-2011 17:14:03 16.2 C 11.17 g/m*3 16.2 C 0 km/h
2347 19-07-2011 17:26:02 16.7 C 11.23 g/m*3 16.7 C 0 km/h
2348 19-07-2011 17:38:02 17 C 11.14 g/m*3 17 C 0 km/h
2349 19-07-2011 17:50:01 16.6 C 11.02 g/m*3 16.6 C 0 km/h
2350 19-07-2011 18:02:02 16.9 C 11.22 g/m*3 16.9 C 0 km/h
Sensor: Nr:Datum:Temp:Abs-Feuchte:Windchill:Wind:
Aussen-T/F 2351 19-07-2011 18:14:02 17.1 C 11.35 g/m*3 17.1 C 0 km/h
2352 19-07-2011 18:26:01 17 C 11.29 g/m*3 17 C 0 km/h
2353 19-07-2011 18:38:02 16.7 C 11.37 g/m*3 16.7 C 0 km/h
2354 19-07-2011 18:50:01 16.7 C 11.23 g/m*3 16.7 C 0 km/h
2355 19-07-2011 19:02:02 16.8 C 11.44 g/m*3 16.8 C 0 km/h
2356 19-07-2011 19:14:02 16.6 C 11.3 g/m*3 16.6 C 0 km/h
2357 19-07-2011 19:26:01 16.3 C 10.96 g/m*3 16.3 C 0 km/h
2358 19-07-2011 19:38:02 16.2 C 11.03 g/m*3 16.2 C 0 km/h
2359 19-07-2011 19:50:01 16 C 10.9 g/m*3 16 C 0 km/h
2360 19-07-2011 20:02:02 16.1 C 11.24 g/m*3 16.1 C 0 km/h
2361 19-07-2011 20:14:02 16.2 C 11.45 g/m*3 16.2 C 0 km/h
2362 19-07-2011 20:26:02 16 C 11.31 g/m*3 16 C 0 km/h
2363 19-07-2011 20:38:01 15.7 C 10.97 g/m*3 15.7 C 0 km/h
2364 19-07-2011 20:50:02 15.4 C 10.51 g/m*3 15.4 C 0 km/h
2365 19-07-2011 21:02:01 15.1 C 10.32 g/m*3 15.1 C 0 km/h
2366 19-07-2011 21:14:01 15 C 10.39 g/m*3 15 C 0 km/h
2367 19-07-2011 21:26:02 14.7 C 10.32 g/m*3 14.7 C 0 km/h
2368 19-07-2011 21:38:01 14.6 C 10.14 g/m*3 14.6 C 0 km/h
2369 19-07-2011 21:50:02 14.4 C 10.01 g/m*3 14.4 C 0 km/h
2370 19-07-2011 22:02:03 14.4 C 9.89 g/m*3 14.4 C 0 km/h
2371 19-07-2011 22:14:03 14.3 C 9.71 g/m*3 14.3 C 0 km/h
2372 19-07-2011 22:27:04 14.3 C 9.83 g/m*3 14.3 C 0 km/h
2373 19-07-2011 22:39:04 14.2 C 9.77 g/m*3 14.2 C 0 km/h
2374 19-07-2011 22:51:04 14.3 C 9.71 g/m*3 14.3 C 0 km/h
2375 19-07-2011 23:03:04 14.2 C 9.65 g/m*3 14.2 C 0 km/h
Sensor: Nr:Datum:Temp:Abs-Feuchte:Windchill:Wind:
Aussen-T/F 2376 19-07-2011 23:15:04 14.2 C 9.52 g/m*3 14.2 C 0 km/h
2377 19-07-2011 23:27:04 14.3 C 9.58 g/m*3 14.3 C 0 km/h
2378 19-07-2011 23:39:04 14.4 C 9.39 g/m*3 14.4 C 0 km/h
2379 19-07-2011 23:51:04 14.3 C 9.34 g/m*3 14.3 C 0 km/h
2380 20-07-2011 00:03:04 14.2 C 9.28 g/m*3 14.2 C 0 km/h
2381 20-07-2011 00:15:04 14.3 C 9.58 g/m*3 14.3 C 0 km/h
2382 20-07-2011 00:27:04 14.3 C 9.46 g/m*3 14.3 C 0 km/h
2383 20-07-2011 00:39:05 14.4 C 9.52 g/m*3 14.4 C 0 km/h
2384 20-07-2011 00:51:05 14.4 C 9.39 g/m*3 14.4 C 0 km/h
2385 20-07-2011 01:03:05 14.3 C 9.34 g/m*3 14.3 C 0 km/h
2386 20-07-2011 01:15:05 14.3 C 9.46 g/m*3 14.3 C 0 km/h
2387 20-07-2011 01:27:05 14.3 C 9.34 g/m*3 14.3 C 0 km/h
2388 20-07-2011 01:39:05 14.3 C 9.46 g/m*3 14.3 C 0 km/h
2389 20-07-2011 01:51:05 14.2 C 9.4 g/m*3 14.2 C 0 km/h
2390 20-07-2011 02:03:05 14.3 C 9.21 g/m*3 14.3 C 0 km/h
2391 20-07-2011 02:15:05 14 C 9.17 g/m*3 14 C 0 km/h
2392 20-07-2011 02:27:05 13.8 C 9.41 g/m*3 13.8 C 0 km/h
2393 20-07-2011 02:39:05 13.6 C 9.3 g/m*3 13.6 C 0 km/h
2394 20-07-2011 02:51:05 13.6 C 9.42 g/m*3 13.6 C 0 km/h
2395 20-07-2011 03:03:05 13.5 C 9.47 g/m*3 13.5 C 0 km/h
2396 20-07-2011 03:15:05 13.2 C 9.19 g/m*3 13.2 C 0 km/h
2397 20-07-2011 03:27:05 13.2 C 9.3 g/m*3 13.2 C 0 km/h
2398 20-07-2011 03:39:05 13.3 C 9.47 g/m*3 13.3 C 0 km/h
2399 20-07-2011 03:51:05 13.4 C 9.53 g/m*3 13.4 C 0 km/h
2400 20-07-2011 04:03:05 13.2 C 9.42 g/m*3 13.2 C 0 km/h
Sensor: Nr:Datum:Temp:Abs-Feuchte:Windchill:Wind:
Aussen-T/F 2401 20-07-2011 04:15:05 13.3 C 9.47 g/m*3 13.3 C 0 km/h
2402 20-07-2011 04:27:05 13.4 C 9.65 g/m*3 13.4 C 0 km/h
2403 20-07-2011 04:39:05 13.6 C 9.65 g/m*3 13.6 C 0 km/h
2404 20-07-2011 04:51:06 13.5 C 9.59 g/m*3 13.5 C 0 km/h
2405 20-07-2011 05:03:06 13.3 C 9.47 g/m*3 13.3 C 0 km/h
2406 20-07-2011 05:15:06 13.3 C 9.59 g/m*3 13.3 C 0 km/h
2407 20-07-2011 05:27:06 13.3 C 9.59 g/m*3 13.3 C 0 km/h
2408 20-07-2011 05:39:06 13.2 C 9.42 g/m*3 13.2 C 0 km/h
2409 20-07-2011 05:51:06 13.3 C 9.59 g/m*3 13.3 C 0 km/h
2410 20-07-2011 06:03:06 13.3 C 9.59 g/m*3 13.3 C 0 km/h
2411 20-07-2011 06:15:06 13.4 C 9.65 g/m*3 13.4 C 0 km/h
2412 20-07-2011 06:27:06 13.7 C 9.71 g/m*3 13.7 C 0 km/h
2413 20-07-2011 06:39:06 14.1 C 9.71 g/m*3 14.1 C 0 km/h
2414 20-07-2011 06:51:06 14.3 C 9.71 g/m*3 14.3 C 0 km/h
2415 20-07-2011 07:03:06 14.5 C 9.7 g/m*3 14.5 C 0 km/h
2416 20-07-2011 07:15:03 14.7 C 9.82 g/m*3 14.7 C 0 km/h
2417 20-07-2011 07:27:03 14.8 C 9.88 g/m*3 14.8 C 0 km/h
2418 20-07-2011 07:39:03 14.9 C 9.94 g/m*3 14.9 C 0 km/h
2419 20-07-2011 07:51:02 14.9 C 10.07 g/m*3 14.9 C 0 km/h
2420 20-07-2011 08:03:02 15.1 C 9.93 g/m*3 15.1 C 0 km/h
2421 20-07-2011 08:15:02 15.2 C 9.86 g/m*3 15.2 C 0 km/h
2422 20-07-2011 08:27:02 15.4 C 9.99 g/m*3 15.4 C 0 km/h
2423 20-07-2011 08:39:02 15.6 C 10.11 g/m*3 15.6 C 0 km/h
2424 20-07-2011 08:51:02 15.6 C 9.97 g/m*3 15.6 C 0 km/h
2425 20-07-2011 09:03:01 15.8 C 9.96 g/m*3 15.8 C 0 km/h
Sensor: Nr:Datum:Temp:Abs-Feuchte:Windchill:Wind:
Aussen-T/F 2426 20-07-2011 09:15:02 15.8 C 9.83 g/m*3 15.8 C 0 km/h
2427 20-07-2011 09:27:02 15.9 C 9.89 g/m*3 15.9 C 0 km/h
2428 20-07-2011 09:39:01 16.1 C 9.73 g/m*3 16.1 C 0 km/h
2429 20-07-2011 09:51:01 16.4 C 9.77 g/m*3 16.4 C 0 km/h
2430 20-07-2011 10:03:02 17 C 9.69 g/m*3 17 C 0 km/h
2431 20-07-2011 10:15:02 16.8 C 9.58 g/m*3 16.8 C 0 km/h
2432 20-07-2011 10:27:02 17 C 9.69 g/m*3 17 C 0 km/h
2433 20-07-2011 10:39:02 16.9 C 9.64 g/m*3 16.9 C 0 km/h
2434 20-07-2011 10:51:01 17.1 C 9.75 g/m*3 17.1 C 0 km/h
2435 20-07-2011 11:03:02 17.2 C 9.67 g/m*3 17.2 C 0 km/h
2436 20-07-2011 11:15:02 17.7 C 9.81 g/m*3 17.7 C 0 km/h
2437 20-07-2011 11:27:02 18 C 9.52 g/m*3 18 C 0 km/h
2438 20-07-2011 11:39:01 18.7 C 9.61 g/m*3 18.7 C 0 km/h
2439 20-07-2011 11:51:02 18.8 C 9.34 g/m*3 18.8 C 0 km/h
2440 20-07-2011 12:03:01 19.3 C 8.96 g/m*3 19.3 C 0 km/h
2441 20-07-2011 12:15:02 20.6 C 8.95 g/m*3 20.6 C 0 km/h
2442 20-07-2011 12:27:02 20.7 C 8.82 g/m*3 20.7 C 0 km/h
2443 20-07-2011 12:39:01 21.4 C 8.44 g/m*3 21.4 C 0 km/h
2444 20-07-2011 12:51:02 20.8 C 8.15 g/m*3 20.8 C 0 km/h
2445 20-07-2011 13:03:02 23.2 C 8.73 g/m*3 23.2 C 0 km/h
2446 20-07-2011 13:15:02 24 C 8.05 g/m*3 24 C 0 km/h
2447 20-07-2011 13:27:02 23.8 C 8.6 g/m*3 23.8 C 0 km/h
2448 20-07-2011 13:39:03 22.8 C 8.53 g/m*3 22.8 C 0 km/h
2449 20-07-2011 13:51:02 21.5 C 8.49 g/m*3 21.5 C 0 km/h
2450 20-07-2011 14:03:02 20.5 C 8.54 g/m*3 20.5 C 0 km/h
Sensor: Nr:Datum:Temp:Abs-Feuchte:Windchill:Wind:
Aussen-T/F 2451 20-07-2011 14:15:02 18.2 C 9.33 g/m*3 18.2 C 0 km/h
2452 20-07-2011 14:27:02 16.7 C 10.37 g/m*3 16.7 C 0 km/h
2453 20-07-2011 14:39:02 16.2 C 10.76 g/m*3 16.2 C 0 km/h
2454 20-07-2011 14:51:02 16.2 C 10.89 g/m*3 16.2 C 0 km/h
2455 20-07-2011 15:03:02 16.2 C 11.03 g/m*3 16.2 C 0 km/h
2456 20-07-2011 15:15:02 16.1 C 11.1 g/m*3 16.1 C 0 km/h
2457 20-07-2011 15:27:02 16.3 C 11.38 g/m*3 16.3 C 0 km/h
2458 20-07-2011 15:39:02 16.2 C 11.31 g/m*3 16.2 C 0 km/h
2459 20-07-2011 15:51:02 16.3 C 11.52 g/m*3 16.3 C 0 km/h
2460 20-07-2011 16:03:02 16.8 C 11.87 g/m*3 16.8 C 0 km/h
2461 20-07-2011 16:15:02 17.1 C 11.94 g/m*3 17.1 C 0 km/h
2462 20-07-2011 16:27:02 17.3 C 11.93 g/m*3 17.3 C 0 km/h
2463 20-07-2011 16:39:02 17.7 C 12.07 g/m*3 17.7 C 0 km/h
2464 20-07-2011 16:51:01 18.1 C 12.05 g/m*3 18.1 C 0 km/h
2465 20-07-2011 17:03:01 18.6 C 12.1 g/m*3 18.6 C 0 km/h
2466 20-07-2011 17:15:02 18.5 C 11.71 g/m*3 18.5 C 0 km/h
2467 20-07-2011 17:27:02 18.3 C 11.73 g/m*3 18.3 C 0 km/h
2468 20-07-2011 17:39:01 17.6 C 11.4 g/m*3 17.6 C 0 km/h
2469 20-07-2011 17:51:02 17.4 C 11.56 g/m*3 17.4 C 0 km/h
2470 20-07-2011 18:03:02 17.1 C 11.5 g/m*3 17.1 C 0 km/h
2471 20-07-2011 18:15:02 16.7 C 11.37 g/m*3 16.7 C 0 km/h
2472 20-07-2011 18:27:02 16.6 C 11.58 g/m*3 16.6 C 0 km/h
2473 20-07-2011 18:39:02 16.2 C 11.45 g/m*3 16.2 C 0 km/h
2474 20-07-2011 18:51:02 16.1 C 11.51 g/m*3 16.1 C 0 km/h
2475 20-07-2011 19:03:02 15.8 C 11.44 g/m*3 15.8 C 0 km/h
Sensor: Nr:Datum:Temp:Abs-Feuchte:Windchill:Wind:
Aussen-T/F 2476 20-07-2011 19:15:02 15.8 C 11.58 g/m*3 15.8 C 0 km/h
2477 20-07-2011 19:27:03 15.8 C 11.58 g/m*3 15.8 C 0 km/h
2478 20-07-2011 19:39:02 15.8 C 11.71 g/m*3 15.8 C 0 km/h
2479 20-07-2011 19:51:02 15.9 C 11.78 g/m*3 15.9 C 0 km/h
2480 20-07-2011 20:03:01 16.1 C 11.93 g/m*3 16.1 C 0 km/h
2481 20-07-2011 20:15:02 15.8 C 11.71 g/m*3 15.8 C 0 km/h
2482 20-07-2011 20:27:02 15.6 C 11.57 g/m*3 15.6 C 0 km/h
2483 20-07-2011 20:39:02 15.1 C 11.22 g/m*3 15.1 C 0 km/h
2484 20-07-2011 20:51:02 15 C 11.16 g/m*3 15 C 0 km/h
2485 20-07-2011 21:03:03 14.9 C 11.22 g/m*3 14.9 C 0 km/h
2486 20-07-2011 21:15:02 14.9 C 11.22 g/m*3 14.9 C 0 km/h
2487 20-07-2011 21:27:02 14.8 C 11.27 g/m*3 14.8 C 0 km/h
2488 20-07-2011 21:39:02 14.8 C 11.27 g/m*3 14.8 C 0 km/h
2489 20-07-2011 21:51:01 15 C 11.28 g/m*3 15 C 0 km/h
2490 20-07-2011 22:04:02 14.8 C 11.27 g/m*3 14.8 C 0 km/h
2491 20-07-2011 22:16:03 14.7 C 11.21 g/m*3 14.7 C 0 km/h
2492 20-07-2011 22:28:03 14.7 C 11.21 g/m*3 14.7 C 0 km/h
2493 20-07-2011 22:40:03 14.5 C 11.07 g/m*3 14.5 C 0 km/h
2494 20-07-2011 22:52:03 14.4 C 11 g/m*3 14.4 C 0 km/h
2495 20-07-2011 23:04:03 14.3 C 10.93 g/m*3 14.3 C 0 km/h
2496 20-07-2011 23:16:03 14.4 C 11 g/m*3 14.4 C 0 km/h
2497 20-07-2011 23:28:03 14.5 C 11.19 g/m*3 14.5 C 0 km/h
2498 20-07-2011 23:40:03 14.4 C 11.13 g/m*3 14.4 C 0 km/h
2499 20-07-2011 23:52:03 14.4 C 11.13 g/m*3 14.4 C 0 km/h
2500 21-07-2011 00:04:03 14.4 C 11.13 g/m*3 14.4 C 0 km/h
Sensor: Nr:Datum:Temp:Abs-Feuchte:Windchill:Wind:
Aussen-T/F 2501 21-07-2011 00:16:03 14.2 C 10.99 g/m*3 14.2 C 0 km/h
2502 21-07-2011 00:28:03 14.4 C 11.13 g/m*3 14.4 C 0 km/h
2503 21-07-2011 00:40:03 14.4 C 11.13 g/m*3 14.4 C 0 km/h
2504 21-07-2011 00:52:03 14.4 C 11.13 g/m*3 14.4 C 0 km/h
2505 21-07-2011 01:04:03 14.4 C 11.13 g/m*3 14.4 C 0 km/h
2506 21-07-2011 01:16:03 14.4 C 11.13 g/m*3 14.4 C 0 km/h
2507 21-07-2011 01:28:03 14.4 C 11.13 g/m*3 14.4 C 0 km/h
2508 21-07-2011 01:40:03 14.3 C 11.06 g/m*3 14.3 C 0 km/h
2509 21-07-2011 01:52:03 14.2 C 10.99 g/m*3 14.2 C 0 km/h
2510 21-07-2011 02:04:03 14.2 C 10.99 g/m*3 14.2 C 0 km/h
2511 21-07-2011 02:16:03 14.2 C 10.99 g/m*3 14.2 C 0 km/h
2512 21-07-2011 02:28:04 14.2 C 10.99 g/m*3 14.2 C 0 km/h
2513 21-07-2011 02:40:04 14.1 C 10.92 g/m*3 14.1 C 0 km/h
2514 21-07-2011 02:52:04 14.1 C 10.92 g/m*3 14.1 C 0 km/h
2515 21-07-2011 03:04:04 14 C 10.86 g/m*3 14 C 0 km/h
2516 21-07-2011 03:16:04 13.8 C 10.84 g/m*3 13.8 C 0 km/h
2517 21-07-2011 03:28:04 13.6 C 10.71 g/m*3 13.6 C 0 km/h
2518 21-07-2011 03:40:04 13.6 C 10.71 g/m*3 13.6 C 0 km/h
2519 21-07-2011 03:52:04 13.5 C 10.64 g/m*3 13.5 C 0 km/h
2520 21-07-2011 04:04:04 13.5 C 10.64 g/m*3 13.5 C 0 km/h
2521 21-07-2011 04:16:04 13.4 C 10.58 g/m*3 13.4 C 0 km/h
2522 21-07-2011 04:28:04 13.5 C 10.64 g/m*3 13.5 C 0 km/h
2523 21-07-2011 04:40:04 13.5 C 10.64 g/m*3 13.5 C 0 km/h
2524 21-07-2011 04:52:04 13.4 C 10.58 g/m*3 13.4 C 0 km/h
2525 21-07-2011 05:04:04 13.2 C 10.45 g/m*3 13.2 C 0 km/h
Sensor: Nr:Datum:Temp:Abs-Feuchte:Windchill:Wind:
Aussen-T/F 2526 21-07-2011 05:16:04 13.2 C 10.45 g/m*3 13.2 C 0 km/h
2527 21-07-2011 05:28:04 13.1 C 10.38 g/m*3 13.1 C 0 km/h
2528 21-07-2011 05:40:04 13.1 C 10.38 g/m*3 13.1 C 0 km/h
2529 21-07-2011 05:52:04 13.1 C 10.38 g/m*3 13.1 C 0 km/h
2530 21-07-2011 06:04:04 13.2 C 10.45 g/m*3 13.2 C 0 km/h
2531 21-07-2011 06:16:04 13.3 C 10.51 g/m*3 13.3 C 0 km/h
2532 21-07-2011 06:28:05 13.5 C 10.64 g/m*3 13.5 C 0 km/h
2533 21-07-2011 06:40:05 13.4 C 10.58 g/m*3 13.4 C 0 km/h
2534 21-07-2011 06:52:05 13.6 C 10.71 g/m*3 13.6 C 0 km/h
2535 21-07-2011 07:04:01 13.9 C 10.91 g/m*3 13.9 C 0 km/h
2536 21-07-2011 07:16:02 14.1 C 11.04 g/m*3 14.1 C 0 km/h
2537 21-07-2011 07:28:02 14.1 C 11.04 g/m*3 14.1 C 0 km/h
2538 21-07-2011 07:40:01 14.4 C 11.25 g/m*3 14.4 C 0 km/h
2539 21-07-2011 07:52:02 14.7 C 11.46 g/m*3 14.7 C 0 km/h
2540 21-07-2011 08:04:01 14.9 C 11.6 g/m*3 14.9 C 0 km/h
2541 21-07-2011 08:16:01 15.2 C 11.42 g/m*3 15.2 C 0 km/h
2542 21-07-2011 08:28:01 15.4 C 11.43 g/m*3 15.4 C 0 km/h
2543 21-07-2011 08:40:02 15.9 C 11.24 g/m*3 15.9 C 0 km/h
2544 21-07-2011 08:52:02 16.2 C 10.76 g/m*3 16.2 C 0 km/h
2545 21-07-2011 09:04:02 16.5 C 10.39 g/m*3 16.5 C 0 km/h
2546 21-07-2011 09:16:02 16.9 C 10.07 g/m*3 16.9 C 0 km/h
2547 21-07-2011 09:28:02 17 C 9.41 g/m*3 17 C 0 km/h
2548 21-07-2011 09:40:02 17.7 C 10.11 g/m*3 17.7 C 0 km/h
2549 21-07-2011 09:52:01 18.4 C 10.07 g/m*3 18.4 C 0 km/h
2550 21-07-2011 10:04:02 18.9 C 9.72 g/m*3 18.9 C 0 km/h
Sensor: Nr:Datum:Temp:Abs-Feuchte:Windchill:Wind:
Aussen-T/F 2551 21-07-2011 10:16:02 18.9 C 9.56 g/m*3 18.9 C 0 km/h
2552 21-07-2011 10:28:02 19.1 C 9.18 g/m*3 19.1 C 0 km/h
2553 21-07-2011 10:40:01 19.7 C 9.17 g/m*3 19.7 C 0 km/h
2554 21-07-2011 10:52:02 19.9 C 9.45 g/m*3 19.9 C 0 km/h
2555 21-07-2011 11:04:01 19.3 C 9.29 g/m*3 19.3 C 0 km/h
2556 21-07-2011 11:16:02 20.8 C 9.78 g/m*3 20.8 C 0 km/h
2557 21-07-2011 11:28:03 20.8 C 9.42 g/m*3 20.8 C 0 km/h
2558 21-07-2011 11:40:01 20.1 C 8.52 g/m*3 20.1 C 0 km/h
2559 21-07-2011 11:52:02 19.9 C 8.93 g/m*3 19.9 C 0 km/h
2560 21-07-2011 12:04:02 19.5 C 8.89 g/m*3 19.5 C 0 km/h
2561 21-07-2011 12:16:02 20.4 C 9.73 g/m*3 20.4 C 0 km/h
2562 21-07-2011 12:28:02 20.6 C 9.13 g/m*3 20.6 C 0 km/h
2563 21-07-2011 12:40:03 21.9 C 9.07 g/m*3 21.9 C 0 km/h
2564 21-07-2011 12:52:02 22.3 C 8.1 g/m*3 22.3 C 0 km/h
2565 21-07-2011 13:04:02 22.8 C 8.74 g/m*3 22.8 C 0 km/h
2566 21-07-2011 13:16:01 23.7 C 8.56 g/m*3 23.7 C 0 km/h
2567 21-07-2011 13:28:01 23.8 C 8.17 g/m*3 23.8 C 0 km/h
2568 21-07-2011 13:40:02 24 C 7.83 g/m*3 24 C 0 km/h
2569 21-07-2011 13:52:02 22.2 C 7.85 g/m*3 22.2 C 0 km/h
2570 21-07-2011 14:04:02 22.4 C 7.94 g/m*3 22.4 C 0 km/h
2571 21-07-2011 14:16:02 21.2 C 8.52 g/m*3 21.2 C 0 km/h
2572 21-07-2011 14:28:02 18.8 C 9.02 g/m*3 18.8 C 0 km/h
2573 21-07-2011 14:40:02 16 C 10.49 g/m*3 16 C 0 km/h
2574 21-07-2011 14:52:02 15.8 C 11.04 g/m*3 15.8 C 0 km/h
2575 21-07-2011 15:04:02 16 C 11.31 g/m*3 16 C 0 km/h
Sensor: Nr:Datum:Temp:Abs-Feuchte:Windchill:Wind:
Aussen-T/F 2576 21-07-2011 15:16:02 16.3 C 11.52 g/m*3 16.3 C 0 km/h
2577 21-07-2011 15:28:02 17.3 C 12.23 g/m*3 17.3 C 0 km/h
2578 21-07-2011 15:40:02 18.4 C 12.43 g/m*3 18.4 C 0 km/h
2579 21-07-2011 15:52:02 21.7 C 13.16 g/m*3 21.7 C 0 km/h
2580 21-07-2011 16:04:02 23.3 C 10.45 g/m*3 23.3 C 0 km/h
2581 21-07-2011 16:16:02 22.6 C 11.65 g/m*3 22.6 C 0 km/h
2582 21-07-2011 16:28:02 20.7 C 10.08 g/m*3 20.7 C 0 km/h
2583 21-07-2011 16:40:02 18.7 C 11.21 g/m*3 18.7 C 0 km/h
2584 21-07-2011 16:52:02 17.2 C 10.84 g/m*3 17.2 C 0 km/h
2585 21-07-2011 17:04:02 16.8 C 11.15 g/m*3 16.8 C 0 km/h
2586 21-07-2011 17:16:02 16.8 C 11.44 g/m*3 16.8 C 0 km/h
2587 21-07-2011 17:28:02 17 C 11.43 g/m*3 17 C 0 km/h
2588 21-07-2011 17:40:02 17.5 C 11.63 g/m*3 17.5 C 0 km/h
2589 21-07-2011 17:52:02 17.8 C 11.54 g/m*3 17.8 C 0 km/h
2590 21-07-2011 18:04:01 17.9 C 11.45 g/m*3 17.9 C 0 km/h
2591 21-07-2011 18:16:02 18.1 C 11.28 g/m*3 18.1 C 0 km/h
2592 21-07-2011 18:28:02 18.2 C 11.19 g/m*3 18.2 C 0 km/h
2593 21-07-2011 18:40:01 17.9 C 11.3 g/m*3 17.9 C 0 km/h
2594 21-07-2011 18:52:02 18 C 11.52 g/m*3 18 C 0 km/h
2595 21-07-2011 19:04:01 19.4 C 12.01 g/m*3 19.4 C 0 km/h
2596 21-07-2011 19:16:01 20.2 C 11.02 g/m*3 20.2 C 0 km/h
2597 21-07-2011 19:28:01 18.8 C 11.27 g/m*3 18.8 C 0 km/h
2598 21-07-2011 19:40:02 19.1 C 11.8 g/m*3 19.1 C 0 km/h
2599 21-07-2011 19:52:02 18.4 C 11.48 g/m*3 18.4 C 0 km/h
2600 21-07-2011 20:04:02 17.8 C 11.69 g/m*3 17.8 C 0 km/h
Sensor: Nr:Datum:Temp:Abs-Feuchte:Windchill:Wind:
Aussen-T/F 2601 21-07-2011 20:16:02 17.5 C 11.78 g/m*3 17.5 C 0 km/h
2602 21-07-2011 20:28:03 17.1 C 11.65 g/m*3 17.1 C 0 km/h
2603 21-07-2011 20:40:01 16.4 C 11.31 g/m*3 16.4 C 0 km/h
2604 21-07-2011 20:52:02 15.7 C 11.11 g/m*3 15.7 C 0 km/h
2605 21-07-2011 21:04:01 15.1 C 10.71 g/m*3 15.1 C 0 km/h
2606 21-07-2011 21:16:02 14.7 C 10.58 g/m*3 14.7 C 0 km/h
2607 21-07-2011 21:28:02 14.6 C 10.64 g/m*3 14.6 C 0 km/h
2608 21-07-2011 21:40:02 14.7 C 10.83 g/m*3 14.7 C 0 km/h
2609 21-07-2011 21:52:02 14.7 C 10.83 g/m*3 14.7 C 0 km/h
2610 21-07-2011 22:04:02 14.1 C 10.32 g/m*3 14.1 C 0 km/h
2611 21-07-2011 22:17:04 13.9 C 10.31 g/m*3 13.9 C 0 km/h
2612 21-07-2011 22:29:04 13.8 C 10.37 g/m*3 13.8 C 0 km/h
2613 21-07-2011 22:41:04 13.7 C 10.3 g/m*3 13.7 C 0 km/h
2614 21-07-2011 22:53:04 13.8 C 10.37 g/m*3 13.8 C 0 km/h
2615 21-07-2011 23:05:04 13.8 C 10.37 g/m*3 13.8 C 0 km/h
2616 21-07-2011 23:17:04 13.8 C 10.48 g/m*3 13.8 C 0 km/h
2617 21-07-2011 23:29:04 13.9 C 10.55 g/m*3 13.9 C 0 km/h
2618 21-07-2011 23:41:04 13.7 C 10.42 g/m*3 13.7 C 0 km/h
2619 21-07-2011 23:53:04 13.7 C 10.42 g/m*3 13.7 C 0 km/h
2620 22-07-2011 00:05:04 13.8 C 10.48 g/m*3 13.8 C 0 km/h
2621 22-07-2011 00:17:04 13.9 C 10.55 g/m*3 13.9 C 0 km/h
2622 22-07-2011 00:29:04 14 C 10.61 g/m*3 14 C 0 km/h
2623 22-07-2011 00:41:05 14.1 C 10.68 g/m*3 14.1 C 0 km/h
2624 22-07-2011 00:53:05 14.3 C 10.81 g/m*3 14.3 C 0 km/h
2625 22-07-2011 01:05:05 14.2 C 10.75 g/m*3 14.2 C 0 km/h
Sensor: Nr:Datum:Temp:Abs-Feuchte:Windchill:Wind:
Aussen-T/F 2626 22-07-2011 01:17:05 14.3 C 10.81 g/m*3 14.3 C 0 km/h
2627 22-07-2011 01:29:05 14.4 C 10.88 g/m*3 14.4 C 0 km/h
2628 22-07-2011 01:41:05 14.6 C 11.01 g/m*3 14.6 C 0 km/h
2629 22-07-2011 01:53:05 14.7 C 11.08 g/m*3 14.7 C 0 km/h
2630 22-07-2011 02:05:05 14.7 C 11.08 g/m*3 14.7 C 0 km/h
2631 22-07-2011 02:17:05 14.7 C 11.08 g/m*3 14.7 C 0 km/h
2632 22-07-2011 02:29:05 14.8 C 11.02 g/m*3 14.8 C 0 km/h
2633 22-07-2011 02:41:05 14.8 C 11.02 g/m*3 14.8 C 0 km/h
2634 22-07-2011 02:53:05 14.7 C 10.95 g/m*3 14.7 C 0 km/h
2635 22-07-2011 03:05:05 14.6 C 10.89 g/m*3 14.6 C 0 km/h
2636 22-07-2011 03:17:05 14.7 C 10.95 g/m*3 14.7 C 0 km/h
2637 22-07-2011 03:29:05 14.7 C 10.95 g/m*3 14.7 C 0 km/h
2638 22-07-2011 03:41:05 14.6 C 10.89 g/m*3 14.6 C 0 km/h
2639 22-07-2011 03:53:05 14.6 C 10.76 g/m*3 14.6 C 0 km/h
2640 22-07-2011 04:05:05 14.1 C 10.44 g/m*3 14.1 C 0 km/h
2641 22-07-2011 04:17:05 14 C 10.37 g/m*3 14 C 0 km/h
2642 22-07-2011 04:29:05 14 C 10.49 g/m*3 14 C 0 km/h
2643 22-07-2011 04:41:05 14.2 C 10.62 g/m*3 14.2 C 0 km/h
2644 22-07-2011 04:53:06 14.3 C 10.69 g/m*3 14.3 C 0 km/h
2645 22-07-2011 05:05:06 14.5 C 10.82 g/m*3 14.5 C 0 km/h
2646 22-07-2011 05:17:06 14.5 C 10.82 g/m*3 14.5 C 0 km/h
2647 22-07-2011 05:29:06 14.5 C 10.82 g/m*3 14.5 C 0 km/h
2648 22-07-2011 05:41:06 14.4 C 10.75 g/m*3 14.4 C 0 km/h
2649 22-07-2011 05:53:06 14 C 10.37 g/m*3 14 C 0 km/h
2650 22-07-2011 06:05:06 14.2 C 10.62 g/m*3 14.2 C 0 km/h
Sensor: Nr:Datum:Temp:Abs-Feuchte:Windchill:Wind:
Aussen-T/F 2651 22-07-2011 06:17:06 14.4 C 10.75 g/m*3 14.4 C 0 km/h
2652 22-07-2011 06:29:06 14.5 C 10.82 g/m*3 14.5 C 0 km/h
2653 22-07-2011 06:41:06 14.8 C 10.89 g/m*3 14.8 C 0 km/h
2654 22-07-2011 06:53:06 15.2 C 10.64 g/m*3 15.2 C 0 km/h
2655 22-07-2011 07:05:03 15.1 C 10.45 g/m*3 15.1 C 0 km/h
2656 22-07-2011 07:17:03 15.5 C 10.31 g/m*3 15.5 C 0 km/h
2657 22-07-2011 07:29:03 15.5 C 9.65 g/m*3 15.5 C 0 km/h
2658 22-07-2011 07:41:03 15.4 C 9.33 g/m*3 15.4 C 0 km/h
2659 22-07-2011 07:53:01 15.5 C 9.12 g/m*3 15.5 C 0 km/h
2660 22-07-2011 08:05:02 15.4 C 8.93 g/m*3 15.4 C 0 km/h
2661 22-07-2011 08:17:01 15.4 C 8.93 g/m*3 15.4 C 0 km/h
2662 22-07-2011 08:29:01 15.7 C 8.7 g/m*3 15.7 C 0 km/h
2663 22-07-2011 08:41:01 15.2 C 8.57 g/m*3 15.2 C 0 km/h
2664 22-07-2011 08:53:01 15.1 C 8.13 g/m*3 15.1 C 0 km/h
2665 22-07-2011 09:05:02 15.2 C 7.53 g/m*3 15.2 C 0 km/h
2666 22-07-2011 09:17:01 15.6 C 7.05 g/m*3 15.6 C 0 km/h
2667 22-07-2011 09:29:01 16 C 6.81 g/m*3 16 C 0 km/h
2668 22-07-2011 09:41:01 16.4 C 6.28 g/m*3 16.4 C 0 km/h
2669 22-07-2011 09:53:02 17.6 C 6.15 g/m*3 17.6 C 0 km/h
2670 22-07-2011 10:05:02 18.6 C 6.05 g/m*3 18.6 C 0 km/h
2671 22-07-2011 10:17:02 18.9 C 6.48 g/m*3 18.9 C 0 km/h
2672 22-07-2011 10:29:02 18.5 C 6.33 g/m*3 18.5 C 0 km/h
2673 22-07-2011 10:41:02 17.4 C 6.52 g/m*3 17.4 C 0 km/h
2674 22-07-2011 10:53:02 18.1 C 6.8 g/m*3 18.1 C 0 km/h
2675 22-07-2011 11:05:02 17.8 C 5.92 g/m*3 17.8 C 0 km/h
Sensor: Nr:Datum:Temp:Abs-Feuchte:Windchill:Wind:
Aussen-T/F 2676 22-07-2011 11:17:02 19.5 C 6.38 g/m*3 19.5 C 0 km/h
2677 22-07-2011 11:29:03 19 C 6.52 g/m*3 19 C 0 km/h
2678 22-07-2011 11:41:01 18.9 C 6.64 g/m*3 18.9 C 0 km/h
2679 22-07-2011 11:53:02 18 C 6.76 g/m*3 18 C 0 km/h
2680 22-07-2011 12:05:01 18.5 C 6.65 g/m*3 18.5 C 0 km/h
2681 22-07-2011 12:17:02 19 C 6.84 g/m*3 19 C 0 km/h
2682 22-07-2011 12:29:03 19.6 C 6.75 g/m*3 19.6 C 0 km/h
2683 22-07-2011 12:41:01 19.6 C 6.75 g/m*3 19.6 C 0 km/h
2684 22-07-2011 12:53:01 20.5 C 6.76 g/m*3 20.5 C 0 km/h
2685 22-07-2011 13:05:01 18.5 C 6.8 g/m*3 18.5 C 0 km/h
2686 22-07-2011 13:17:01 19.3 C 6.97 g/m*3 19.3 C 0 km/h
2687 22-07-2011 13:29:01 18.2 C 6.53 g/m*3 18.2 C 0 km/h
2688 22-07-2011 13:41:02 18.1 C 6.95 g/m*3 18.1 C 0 km/h
2689 22-07-2011 13:53:02 18.7 C 7.2 g/m*3 18.7 C 0 km/h
2690 22-07-2011 14:05:02 18.3 C 7.19 g/m*3 18.3 C 0 km/h
2691 22-07-2011 14:17:02 17.5 C 7.16 g/m*3 17.5 C 0 km/h
2692 22-07-2011 14:29:02 17.5 C 7.31 g/m*3 17.5 C 0 km/h
2693 22-07-2011 14:41:02 18.1 C 7.11 g/m*3 18.1 C 0 km/h
2694 22-07-2011 14:53:02 18.5 C 7.28 g/m*3 18.5 C 0 km/h
2695 22-07-2011 15:05:02 17.9 C 7.33 g/m*3 17.9 C 0 km/h
2696 22-07-2011 15:17:02 17.8 C 6.53 g/m*3 17.8 C 0 km/h
2697 22-07-2011 15:29:02 18.1 C 6.64 g/m*3 18.1 C 0 km/h
2698 22-07-2011 15:41:02 17.4 C 6.82 g/m*3 17.4 C 0 km/h
2699 22-07-2011 15:53:02 19.7 C 7.13 g/m*3 19.7 C 0 km/h
2700 22-07-2011 16:05:02 20.8 C 6.88 g/m*3 20.8 C 0 km/h
Sensor: Nr:Datum:Temp:Abs-Feuchte:Windchill:Wind:
Aussen-T/F 2701 22-07-2011 16:17:03 21.1 C 6.26 g/m*3 21.1 C 0 km/h
2702 22-07-2011 16:29:03 20.7 C 6.48 g/m*3 20.7 C 0 km/h
2703 22-07-2011 16:41:03 22.8 C 6.71 g/m*3 22.8 C 0 km/h
2704 22-07-2011 16:53:02 23 C 6.58 g/m*3 23 C 0 km/h
2705 22-07-2011 17:05:03 23.2 C 6.03 g/m*3 23.2 C 0 km/h
2706 22-07-2011 17:17:02 22.1 C 5.66 g/m*3 22.1 C 0 km/h
2707 22-07-2011 17:29:02 22.3 C 6.52 g/m*3 22.3 C 0 km/h
2708 22-07-2011 17:41:03 19.8 C 6.66 g/m*3 19.8 C 0 km/h
2709 22-07-2011 17:53:02 19.6 C 7.09 g/m*3 19.6 C 0 km/h
2710 22-07-2011 18:05:02 19.4 C 6.67 g/m*3 19.4 C 0 km/h
2711 22-07-2011 18:17:01 19.4 C 6.67 g/m*3 19.4 C 0 km/h
2712 22-07-2011 18:29:01 19.4 C 6.67 g/m*3 19.4 C 0 km/h
2713 22-07-2011 18:41:02 19.4 C 6.67 g/m*3 19.4 C 0 km/h
2714 22-07-2011 18:53:02 19.4 C 6.67 g/m*3 19.4 C 0 km/h
2715 22-07-2011 19:05:02 19.4 C 6.67 g/m*3 19.4 C 0 km/h
2716 22-07-2011 19:17:02 19.4 C 6.67 g/m*3 19.4 C 0 km/h
2717 22-07-2011 19:29:02 19.4 C 6.67 g/m*3 19.4 C 0 km/h
2718 22-07-2011 19:41:02 17.9 C 6.72 g/m*3 17.9 C 0 km/h
2719 22-07-2011 19:53:02 17.8 C 6.68 g/m*3 17.8 C 0 km/h
2720 22-07-2011 20:05:02 17.8 C 6.53 g/m*3 17.8 C 0 km/h
2721 22-07-2011 20:17:02 17.7 C 6.64 g/m*3 17.7 C 0 km/h
2722 22-07-2011 20:29:02 17.3 C 6.48 g/m*3 17.3 C 0 km/h
2723 22-07-2011 20:41:02 16.8 C 6.86 g/m*3 16.8 C 0 km/h
2724 22-07-2011 20:53:02 16.8 C 6.72 g/m*3 16.8 C 0 km/h
2725 22-07-2011 21:05:02 16.4 C 6.98 g/m*3 16.4 C 0 km/h
Sensor: Nr:Datum:Temp:Abs-Feuchte:Windchill:Wind:
Aussen-T/F 2726 22-07-2011 21:17:02 16.3 C 6.94 g/m*3 16.3 C 0 km/h
2727 22-07-2011 21:29:02 16.1 C 6.85 g/m*3 16.1 C 0 km/h
2728 22-07-2011 21:41:02 16.1 C 6.72 g/m*3 16.1 C 0 km/h
2729 22-07-2011 21:53:02 16 C 6.27 g/m*3 16 C 0 km/h
2730 22-07-2011 22:06:02 16.1 C 6.31 g/m*3 16.1 C 0 km/h
2731 22-07-2011 22:18:02 16.1 C 6.31 g/m*3 16.1 C 0 km/h
2732 22-07-2011 22:30:02 16.1 C 6.31 g/m*3 16.1 C 0 km/h
2733 22-07-2011 22:42:02 15.7 C 6.56 g/m*3 15.7 C 0 km/h
2734 22-07-2011 22:54:02 15.4 C 6.57 g/m*3 15.4 C 0 km/h
2735 22-07-2011 23:06:02 15.4 C 6.44 g/m*3 15.4 C 0 km/h
2736 22-07-2011 23:18:02 15.3 C 6.4 g/m*3 15.3 C 0 km/h
2737 22-07-2011 23:30:02 15.4 C 6.44 g/m*3 15.4 C 0 km/h
2738 22-07-2011 23:42:02 15.4 C 6.44 g/m*3 15.4 C 0 km/h
2739 22-07-2011 23:54:02 15.1 C 6.58 g/m*3 15.1 C 0 km/h
2740 23-07-2011 00:06:02 15.1 C 6.58 g/m*3 15.1 C 0 km/h
2741 23-07-2011 00:18:02 14.9 C 6.63 g/m*3 14.9 C 0 km/h
2742 23-07-2011 00:30:02 14.5 C 6.59 g/m*3 14.5 C 0 km/h
2743 23-07-2011 00:42:02 14.1 C 6.55 g/m*3 14.1 C 0 km/h
2744 23-07-2011 00:54:02 13 C 6.8 g/m*3 13 C 0 km/h
2745 23-07-2011 01:06:02 13 C 6.8 g/m*3 13 C 0 km/h
2746 23-07-2011 01:18:02 12.4 C 7.1 g/m*3 12.4 C 0 km/h
2747 23-07-2011 01:30:02 11.8 C 7.05 g/m*3 11.8 C 0 km/h
2748 23-07-2011 01:42:02 11.8 C 7.47 g/m*3 11.8 C 0 km/h
2749 23-07-2011 01:54:02 11.7 C 7.32 g/m*3 11.7 C 0 km/h
2750 23-07-2011 02:06:02 11.4 C 7.19 g/m*3 11.4 C 0 km/h
Sensor: Nr:Datum:Temp:Abs-Feuchte:Windchill:Wind:
Aussen-T/F 2751 23-07-2011 02:18:03 11.4 C 7.19 g/m*3 11.4 C 0 km/h
2752 23-07-2011 02:30:03 11.4 C 7.19 g/m*3 11.4 C 0 km/h
2753 23-07-2011 02:42:03 11.4 C 7.19 g/m*3 11.4 C 0 km/h
2754 23-07-2011 02:54:03 10.3 C 7.18 g/m*3 10.3 C 0 km/h
2755 23-07-2011 03:06:03 10.5 C 7.37 g/m*3 10.5 C 0 km/h
2756 23-07-2011 03:18:03 10.7 C 7.46 g/m*3 10.7 C 0 km/h
2757 23-07-2011 03:30:03 11.2 C 7.5 g/m*3 11.2 C 0 km/h
2758 23-07-2011 03:42:03 10.8 C 7.31 g/m*3 10.8 C 0 km/h
2759 23-07-2011 03:54:03 10.4 C 7.23 g/m*3 10.4 C 0 km/h
2760 23-07-2011 04:06:03 9.9 C 7.38 g/m*3 9.9 C 0 km/h
2761 23-07-2011 04:18:03 9.4 C 7.24 g/m*3 9.4 C 0 km/h
2762 23-07-2011 04:30:03 10.2 C 7.71 g/m*3 10.2 C 0 km/h
2763 23-07-2011 04:42:03 10.2 C 7.52 g/m*3 10.2 C 0 km/h
2764 23-07-2011 04:54:03 9.7 C 7.28 g/m*3 9.7 C 0 km/h
2765 23-07-2011 05:06:03 8.9 C 7.1 g/m*3 8.9 C 0 km/h
2766 23-07-2011 05:18:03 9 C 7.32 g/m*3 9 C 0 km/h
2767 23-07-2011 05:30:03 9.8 C 7.79 g/m*3 9.8 C 0 km/h
2768 23-07-2011 05:42:03 9.6 C 7.6 g/m*3 9.6 C 0 km/h
2769 23-07-2011 05:54:03 10.4 C 7.71 g/m*3 10.4 C 0 km/h
2770 23-07-2011 06:06:03 9.9 C 7.38 g/m*3 9.9 C 0 km/h
2771 23-07-2011 06:18:03 9.7 C 7.38 g/m*3 9.7 C 0 km/h
2772 23-07-2011 06:30:03 9.6 C 7.42 g/m*3 9.6 C 0 km/h
2773 23-07-2011 06:42:04 10 C 7.52 g/m*3 10 C 0 km/h
2774 23-07-2011 06:54:04 10.2 C 7.33 g/m*3 10.2 C 0 km/h
2775 23-07-2011 07:06:04 10.3 C 7.28 g/m*3 10.3 C 0 km/h
Sensor: Nr:Datum:Temp:Abs-Feuchte:Windchill:Wind:
Aussen-T/F 2776 23-07-2011 07:18:04 10.7 C 7.37 g/m*3 10.7 C 0 km/h
2777 23-07-2011 07:30:04 11 C 7.31 g/m*3 11 C 0 km/h
2778 23-07-2011 07:42:04 11.1 C 7.35 g/m*3 11.1 C 0 km/h
2779 23-07-2011 07:54:04 11.3 C 7.34 g/m*3 11.3 C 0 km/h
2780 23-07-2011 08:06:04 12.3 C 7.17 g/m*3 12.3 C 0 km/h
2781 23-07-2011 08:18:04 12.4 C 7.21 g/m*3 12.4 C 0 km/h
2782 23-07-2011 08:30:04 12.9 C 7.33 g/m*3 12.9 C 0 km/h
2783 23-07-2011 08:42:04 13.5 C 6.9 g/m*3 13.5 C 0 km/h
2784 23-07-2011 08:54:04 13.8 C 6.91 g/m*3 13.8 C 0 km/h
2785 23-07-2011 09:06:02 13.7 C 6.75 g/m*3 13.7 C 0 km/h
2786 23-07-2011 09:18:02 13.9 C 7.07 g/m*3 13.9 C 0 km/h
2787 23-07-2011 09:30:02 14.8 C 6.71 g/m*3 14.8 C 0 km/h
2788 23-07-2011 09:42:02 14.6 C 6.76 g/m*3 14.6 C 0 km/h
2789 23-07-2011 09:54:01 15.4 C 6.31 g/m*3 15.4 C 0 km/h
2790 23-07-2011 10:06:02 15.6 C 6.25 g/m*3 15.6 C 0 km/h
2791 23-07-2011 10:18:01 15.1 C 6.06 g/m*3 15.1 C 0 km/h
2792 23-07-2011 10:30:01 15.3 C 6.27 g/m*3 15.3 C 0 km/h
2793 23-07-2011 10:42:01 16.1 C 5.89 g/m*3 16.1 C 0 km/h
2794 23-07-2011 10:54:01 16.9 C 6.18 g/m*3 16.9 C 0 km/h
2795 23-07-2011 11:06:02 15.5 C 6.74 g/m*3 15.5 C 0 km/h
2796 23-07-2011 11:18:02 15 C 6.8 g/m*3 15 C 0 km/h
2797 23-07-2011 11:30:02 15.9 C 6.64 g/m*3 15.9 C 0 km/h
2798 23-07-2011 11:42:01 16.2 C 6.48 g/m*3 16.2 C 0 km/h
2799 23-07-2011 11:54:02 16.9 C 6.47 g/m*3 16.9 C 0 km/h
2800 23-07-2011 12:06:01 17 C 5.79 g/m*3 17 C 0 km/h
Sensor: Nr:Datum:Temp:Abs-Feuchte:Windchill:Wind:
Aussen-T/F 2801 23-07-2011 12:18:02 17 C 5.79 g/m*3 17 C 0 km/h
2802 23-07-2011 12:30:02 18.2 C 5.75 g/m*3 18.2 C 0 km/h
2803 23-07-2011 12:42:01 18.3 C 5.63 g/m*3 18.3 C 0 km/h
2804 23-07-2011 12:54:02 19.1 C 5.74 g/m*3 19.1 C 0 km/h
2805 23-07-2011 13:06:01 18.6 C 5.57 g/m*3 18.6 C 0 km/h
2806 23-07-2011 13:18:01 17.5 C 5.67 g/m*3 17.5 C 0 km/h
2807 23-07-2011 13:30:01 17.4 C 5.93 g/m*3 17.4 C 0 km/h
2808 23-07-2011 13:42:01 17.9 C 5.95 g/m*3 17.9 C 0 km/h
2809 23-07-2011 13:54:02 17.6 C 6.15 g/m*3 17.6 C 0 km/h
2810 23-07-2011 14:06:02 18.5 C 6.33 g/m*3 18.5 C 0 km/h
2811 23-07-2011 14:18:02 18.1 C 6.18 g/m*3 18.1 C 0 km/h
2812 23-07-2011 14:30:02 21.6 C 5.88 g/m*3 21.6 C 0 km/h
2813 23-07-2011 14:42:02 19.3 C 5.64 g/m*3 19.3 C 0 km/h
2814 23-07-2011 14:54:01 18.3 C 5.63 g/m*3 18.3 C 0 km/h
2815 23-07-2011 15:06:03 20.3 C 5.8 g/m*3 20.3 C 0 km/h
2816 23-07-2011 15:18:01 19.4 C 5.67 g/m*3 19.4 C 0 km/h
2817 23-07-2011 15:30:01 18.9 C 5.67 g/m*3 18.9 C 0 km/h
2818 23-07-2011 15:42:02 18.4 C 6.45 g/m*3 18.4 C 0 km/h
2819 23-07-2011 15:54:02 17.5 C 6.86 g/m*3 17.5 C 0 km/h
2820 23-07-2011 16:06:02 17.4 C 6.97 g/m*3 17.4 C 0 km/h
2821 23-07-2011 16:18:01 17.1 C 6.99 g/m*3 17.1 C 0 km/h
2822 23-07-2011 16:30:01 16.3 C 6.94 g/m*3 16.3 C 0 km/h
2823 23-07-2011 16:42:02 16.8 C 7.01 g/m*3 16.8 C 0 km/h
2824 23-07-2011 16:54:02 16 C 6.81 g/m*3 16 C 0 km/h
2825 23-07-2011 17:06:02 15.6 C 7.18 g/m*3 15.6 C 0 km/h
Sensor: Nr:Datum:Temp:Abs-Feuchte:Windchill:Wind:
Aussen-T/F 2826 23-07-2011 17:18:02 16 C 7.22 g/m*3 16 C 0 km/h
2827 23-07-2011 17:30:02 16 C 7.22 g/m*3 16 C 0 km/h
2828 23-07-2011 17:42:02 16.7 C 7.11 g/m*3 16.7 C 0 km/h
2829 23-07-2011 17:54:02 16.7 C 7.11 g/m*3 16.7 C 0 km/h
2830 23-07-2011 18:06:02 16.7 C 7.11 g/m*3 16.7 C 0 km/h
2831 23-07-2011 18:18:02 16.7 C 7.11 g/m*3 16.7 C 0 km/h
2832 23-07-2011 18:30:02 16.7 C 7.11 g/m*3 16.7 C 0 km/h
2833 23-07-2011 18:42:02 16.7 C 7.11 g/m*3 16.7 C 0 km/h
2834 23-07-2011 18:54:01 16.7 C 7.11 g/m*3 16.7 C 0 km/h
2835 23-07-2011 19:06:01 16.7 C 7.11 g/m*3 16.7 C 0 km/h
2836 23-07-2011 19:18:02 16.7 C 7.11 g/m*3 16.7 C 0 km/h
2837 23-07-2011 19:30:02 16.7 C 7.11 g/m*3 16.7 C 0 km/h
2838 23-07-2011 19:42:01 16.7 C 7.11 g/m*3 16.7 C 0 km/h
2839 23-07-2011 19:54:02 13.4 C 9.53 g/m*3 13.4 C 0 km/h
2840 23-07-2011 20:06:02 13 C 9.3 g/m*3 13 C 0 km/h
2841 23-07-2011 20:18:03 12.9 C 9.35 g/m*3 12.9 C 0 km/h
2842 23-07-2011 20:30:03 12.5 C 9.24 g/m*3 12.5 C 0 km/h
2843 23-07-2011 20:42:02 12.4 C 9.18 g/m*3 12.4 C 0 km/h
2844 23-07-2011 20:54:03 12.4 C 9.18 g/m*3 12.4 C 0 km/h
2845 23-07-2011 21:06:02 12.3 C 9.23 g/m*3 12.3 C 0 km/h
2846 23-07-2011 21:18:02 12.2 C 9.17 g/m*3 12.2 C 0 km/h
2847 23-07-2011 21:30:03 12.3 C 9.34 g/m*3 12.3 C 0 km/h
2848 23-07-2011 21:42:02 12.2 C 9.17 g/m*3 12.2 C 0 km/h
2849 23-07-2011 21:54:02 12.2 C 9.17 g/m*3 12.2 C 0 km/h
2850 23-07-2011 22:06:02 11.8 C 8.95 g/m*3 11.8 C 0 km/h
Sensor: Nr:Datum:Temp:Abs-Feuchte:Windchill:Wind:
Aussen-T/F 2851 23-07-2011 22:18:01 11.8 C 9.05 g/m*3 11.8 C 0 km/h
2852 23-07-2011 22:30:01 11.5 C 8.88 g/m*3 11.5 C 0 km/h
2853 23-07-2011 22:42:02 11.3 C 8.77 g/m*3 11.3 C 0 km/h
2854 23-07-2011 22:54:02 11.1 C 8.66 g/m*3 11.1 C 0 km/h
2855 23-07-2011 23:06:02 11.1 C 8.66 g/m*3 11.1 C 0 km/h
2856 23-07-2011 23:18:02 11.1 C 8.66 g/m*3 11.1 C 0 km/h
2857 23-07-2011 23:30:02 11.2 C 8.72 g/m*3 11.2 C 0 km/h
2858 23-07-2011 23:42:02 11.2 C 8.82 g/m*3 11.2 C 0 km/h
2859 23-07-2011 23:54:02 11.1 C 8.76 g/m*3 11.1 C 0 km/h
2860 24-07-2011 00:06:02 11.1 C 8.76 g/m*3 11.1 C 0 km/h
2861 24-07-2011 00:18:02 11.2 C 8.72 g/m*3 11.2 C 0 km/h
2862 24-07-2011 00:30:02 11.3 C 8.77 g/m*3 11.3 C 0 km/h
2863 24-07-2011 00:42:02 11.2 C 8.72 g/m*3 11.2 C 0 km/h
2864 24-07-2011 00:54:02 11.2 C 8.72 g/m*3 11.2 C 0 km/h
2865 24-07-2011 01:06:01 11.2 C 8.72 g/m*3 11.2 C 0 km/h
2866 24-07-2011 01:18:02 11.2 C 8.72 g/m*3 11.2 C 0 km/h
2867 24-07-2011 01:30:02 11.1 C 8.66 g/m*3 11.1 C 0 km/h
2868 24-07-2011 01:42:02 11.1 C 8.66 g/m*3 11.1 C 0 km/h
2869 24-07-2011 01:54:02 11.3 C 8.77 g/m*3 11.3 C 0 km/h
2870 24-07-2011 02:06:03 11.3 C 8.57 g/m*3 11.3 C 0 km/h
2871 24-07-2011 02:18:02 11.3 C 8.36 g/m*3 11.3 C 0 km/h
2872 24-07-2011 02:30:02 11 C 8.01 g/m*3 11 C 0 km/h
2873 24-07-2011 02:42:02 11 C 7.91 g/m*3 11 C 0 km/h
2874 24-07-2011 02:55:03 10.8 C 7.81 g/m*3 10.8 C 0 km/h
2875 24-07-2011 03:07:03 10.7 C 7.76 g/m*3 10.7 C 0 km/h
Sensor: Nr:Datum:Temp:Abs-Feuchte:Windchill:Wind:
Aussen-T/F 2876 24-07-2011 03:19:03 10.2 C 7.52 g/m*3 10.2 C 0 km/h
2877 24-07-2011 03:31:02 10.2 C 7.52 g/m*3 10.2 C 0 km/h
2878 24-07-2011 03:43:02 10.2 C 7.61 g/m*3 10.2 C 0 km/h
2879 24-07-2011 03:55:02 10.5 C 7.66 g/m*3 10.5 C 0 km/h
2880 24-07-2011 04:07:01 10.9 C 7.46 g/m*3 10.9 C 0 km/h
2881 24-07-2011 04:19:02 10.9 C 7.36 g/m*3 10.9 C 0 km/h
2882 24-07-2011 04:31:01 10.9 C 7.36 g/m*3 10.9 C 0 km/h
2883 24-07-2011 04:43:01 10.9 C 7.36 g/m*3 10.9 C 0 km/h
2884 24-07-2011 04:55:02 11.3 C 6.94 g/m*3 11.3 C 0 km/h
2885 24-07-2011 05:07:01 11.3 C 6.94 g/m*3 11.3 C 0 km/h
2886 24-07-2011 05:19:01 10.5 C 7.27 g/m*3 10.5 C 0 km/h
2887 24-07-2011 05:31:02 10.5 C 7.27 g/m*3 10.5 C 0 km/h
2888 24-07-2011 05:43:02 10.5 C 7.27 g/m*3 10.5 C 0 km/h
2889 24-07-2011 05:55:02 10 C 7.42 g/m*3 10 C 0 km/h
2890 24-07-2011 06:07:01 10 C 7.42 g/m*3 10 C 0 km/h
2891 24-07-2011 06:19:02 10 C 7.42 g/m*3 10 C 0 km/h
2892 24-07-2011 06:31:02 10 C 7.42 g/m*3 10 C 0 km/h
2893 24-07-2011 06:43:02 10 C 7.42 g/m*3 10 C 0 km/h
2894 24-07-2011 06:55:02 10 C 7.42 g/m*3 10 C 0 km/h
2895 24-07-2011 07:07:03 10 C 7.42 g/m*3 10 C 0 km/h
2896 24-07-2011 07:19:02 10 C 7.42 g/m*3 10 C 0 km/h
2897 24-07-2011 07:31:02 10 C 7.42 g/m*3 10 C 0 km/h
2898 24-07-2011 07:43:03 10 C 7.42 g/m*3 10 C 0 km/h
2899 24-07-2011 07:55:01 10 C 7.42 g/m*3 10 C 0 km/h
2900 24-07-2011 08:07:02 9.9 C 8.22 g/m*3 9.9 C 0 km/h
Sensor: Nr:Datum:Temp:Abs-Feuchte:Windchill:Wind:
Aussen-T/F 2901 24-07-2011 08:19:01 9.9 C 8.22 g/m*3 9.9 C 0 km/h
2902 24-07-2011 08:31:01 9.9 C 8.22 g/m*3 9.9 C 0 km/h
2903 24-07-2011 08:43:01 9.9 C 8.22 g/m*3 9.9 C 0 km/h
2904 24-07-2011 08:55:01 9.9 C 8.22 g/m*3 9.9 C 0 km/h
2905 24-07-2011 09:07:02 9.9 C 8.22 g/m*3 9.9 C 0 km/h
2906 24-07-2011 09:19:01 9.9 C 8.22 g/m*3 9.9 C 0 km/h
2907 24-07-2011 09:31:02 9.9 C 8.22 g/m*3 9.9 C 0 km/h
2908 24-07-2011 09:43:03 10.8 C 8.5 g/m*3 10.8 C 0 km/h
2909 24-07-2011 09:55:02 10.9 C 8.45 g/m*3 10.9 C 0 km/h
2910 24-07-2011 10:07:02 11 C 8.51 g/m*3 11 C 0 km/h
2911 24-07-2011 10:19:01 11.4 C 8.62 g/m*3 11.4 C 0 km/h
2912 24-07-2011 10:31:02 11.5 C 8.68 g/m*3 11.5 C 0 km/h
2913 24-07-2011 10:43:02 11.8 C 8.63 g/m*3 11.8 C 0 km/h
2914 24-07-2011 10:55:02 12.1 C 8.47 g/m*3 12.1 C 0 km/h
2915 24-07-2011 11:07:02 12.2 C 8.52 g/m*3 12.2 C 0 km/h
2916 24-07-2011 11:19:01 12.4 C 8.41 g/m*3 12.4 C 0 km/h
2917 24-07-2011 11:31:02 12.5 C 8.36 g/m*3 12.5 C 0 km/h
2918 24-07-2011 11:43:02 12.5 C 8.47 g/m*3 12.5 C 0 km/h
2919 24-07-2011 11:55:01 12.9 C 8.57 g/m*3 12.9 C 0 km/h
2920 24-07-2011 12:07:02 13.2 C 8.61 g/m*3 13.2 C 0 km/h
2921 24-07-2011 12:19:02 13.2 C 8.61 g/m*3 13.2 C 0 km/h
2922 24-07-2011 12:31:01 13.2 C 8.61 g/m*3 13.2 C 0 km/h
2923 24-07-2011 12:43:01 13.2 C 8.61 g/m*3 13.2 C 0 km/h
2924 24-07-2011 12:55:02 14.2 C 8.18 g/m*3 14.2 C 0 km/h
2925 24-07-2011 13:07:01 13.9 C 8.03 g/m*3 13.9 C 0 km/h
Sensor: Nr:Datum:Temp:Abs-Feuchte:Windchill:Wind:
Aussen-T/F 2926 24-07-2011 13:19:02 13.9 C 8.03 g/m*3 13.9 C 0 km/h
2927 24-07-2011 13:31:01 15.6 C 7.85 g/m*3 15.6 C 0 km/h
2928 24-07-2011 13:43:01 15 C 7.69 g/m*3 15 C 0 km/h
2929 24-07-2011 13:55:02 15.1 C 7.61 g/m*3 15.1 C 0 km/h
2930 24-07-2011 14:07:02 15.3 C 7.7 g/m*3 15.3 C 0 km/h
2931 24-07-2011 14:19:02 15.3 C 7.7 g/m*3 15.3 C 0 km/h
2932 24-07-2011 14:31:03 15.3 C 7.7 g/m*3 15.3 C 0 km/h
2933 24-07-2011 14:43:03 15.3 C 7.7 g/m*3 15.3 C 0 km/h
2934 24-07-2011 14:55:02 15.3 C 7.7 g/m*3 15.3 C 0 km/h
2935 24-07-2011 15:07:01 15.3 C 7.7 g/m*3 15.3 C 0 km/h
2936 24-07-2011 15:19:02 15.3 C 7.7 g/m*3 15.3 C 0 km/h
2937 24-07-2011 15:31:02 15.3 C 7.7 g/m*3 15.3 C 0 km/h
2938 24-07-2011 15:43:02 15.3 C 7.7 g/m*3 15.3 C 0 km/h
2939 24-07-2011 15:55:02 18.1 C 7.42 g/m*3 18.1 C 0 km/h
2940 24-07-2011 16:07:02 18.1 C 7.42 g/m*3 18.1 C 0 km/h
2941 24-07-2011 16:19:02 17.7 C 7.54 g/m*3 17.7 C 0 km/h
2942 24-07-2011 16:31:02 17.8 C 7.89 g/m*3 17.8 C 0 km/h
2943 24-07-2011 16:43:03 17.1 C 7.42 g/m*3 17.1 C 0 km/h
2944 24-07-2011 16:55:01 17.1 C 7.42 g/m*3 17.1 C 0 km/h
2945 24-07-2011 17:07:02 17.1 C 7.42 g/m*3 17.1 C 0 km/h
2946 24-07-2011 17:19:01 16.2 C 8.14 g/m*3 16.2 C 0 km/h
2947 24-07-2011 17:31:01 16 C 8.31 g/m*3 16 C 0 km/h
2948 24-07-2011 17:43:01 16 C 8.31 g/m*3 16 C 0 km/h
2949 24-07-2011 17:55:02 15.8 C 8.21 g/m*3 15.8 C 0 km/h
2950 24-07-2011 18:07:02 15.3 C 8.36 g/m*3 15.3 C 0 km/h
Sensor: Nr:Datum:Temp:Abs-Feuchte:Windchill:Wind:
Aussen-T/F 2951 24-07-2011 18:19:01 15.7 C 8.43 g/m*3 15.7 C 0 km/h
2952 24-07-2011 18:31:02 15.4 C 8.41 g/m*3 15.4 C 0 km/h
2953 24-07-2011 18:43:02 15.1 C 7.74 g/m*3 15.1 C 0 km/h
2954 24-07-2011 18:55:02 15 C 8.21 g/m*3 15 C 0 km/h
2955 24-07-2011 19:07:02 14.7 C 8.69 g/m*3 14.7 C 0 km/h
2956 24-07-2011 19:19:01 14.7 C 8.69 g/m*3 14.7 C 0 km/h
2957 24-07-2011 19:31:02 14.1 C 9.59 g/m*3 14.1 C 0 km/h
2958 24-07-2011 19:43:02 14 C 9.65 g/m*3 14 C 0 km/h
2959 24-07-2011 19:55:02 14.1 C 9.83 g/m*3 14.1 C 0 km/h
2960 24-07-2011 20:07:02 13.9 C 9.83 g/m*3 13.9 C 0 km/h
2961 24-07-2011 20:19:02 13.6 C 9.65 g/m*3 13.6 C 0 km/h
2962 24-07-2011 20:31:02 13.5 C 9.71 g/m*3 13.5 C 0 km/h
2963 24-07-2011 20:43:02 13.1 C 9.59 g/m*3 13.1 C 0 km/h
2964 24-07-2011 20:55:02 13.3 C 9.7 g/m*3 13.3 C 0 km/h
2965 24-07-2011 21:07:02 13.2 C 9.64 g/m*3 13.2 C 0 km/h
2966 24-07-2011 21:19:02 13.1 C 9.59 g/m*3 13.1 C 0 km/h
2967 24-07-2011 21:31:01 13.1 C 9.59 g/m*3 13.1 C 0 km/h
2968 24-07-2011 21:43:01 13.1 C 9.59 g/m*3 13.1 C 0 km/h
2969 24-07-2011 21:55:02 12.5 C 9.46 g/m*3 12.5 C 0 km/h
2970 24-07-2011 22:08:02 12.4 C 9.51 g/m*3 12.4 C 0 km/h
2971 24-07-2011 22:20:02 12.2 C 9.39 g/m*3 12.2 C 0 km/h
2972 24-07-2011 22:32:02 12.1 C 9.33 g/m*3 12.1 C 0 km/h
2973 24-07-2011 22:44:02 12.1 C 9.33 g/m*3 12.1 C 0 km/h
2974 24-07-2011 22:56:02 12.1 C 9.44 g/m*3 12.1 C 0 km/h
2975 24-07-2011 23:08:02 12.3 C 9.56 g/m*3 12.3 C 0 km/h
Sensor: Nr:Datum:Temp:Abs-Feuchte:Windchill:Wind:
Aussen-T/F 2976 24-07-2011 23:20:02 12.3 C 9.56 g/m*3 12.3 C 0 km/h
2977 24-07-2011 23:32:02 12.4 C 9.62 g/m*3 12.4 C 0 km/h
2978 24-07-2011 23:44:02 12.1 C 9.44 g/m*3 12.1 C 0 km/h
2979 24-07-2011 23:56:02 12 C 9.38 g/m*3 12 C 0 km/h
2980 25-07-2011 00:08:02 12 C 9.38 g/m*3 12 C 0 km/h
2981 25-07-2011 00:20:02 12 C 9.38 g/m*3 12 C 0 km/h
2982 25-07-2011 00:32:02 11.8 C 9.37 g/m*3 11.8 C 0 km/h
2983 25-07-2011 00:44:03 11.7 C 9.31 g/m*3 11.7 C 0 km/h
2984 25-07-2011 00:56:03 11.6 C 9.25 g/m*3 11.6 C 0 km/h
2985 25-07-2011 01:08:03 11.7 C 9.31 g/m*3 11.7 C 0 km/h
2986 25-07-2011 01:20:03 11.8 C 9.37 g/m*3 11.8 C 0 km/h
2987 25-07-2011 01:32:03 11.6 C 9.25 g/m*3 11.6 C 0 km/h
2988 25-07-2011 01:44:03 11.6 C 9.25 g/m*3 11.6 C 0 km/h
2989 25-07-2011 01:56:03 11.5 C 9.19 g/m*3 11.5 C 0 km/h
2990 25-07-2011 02:08:03 11.5 C 9.19 g/m*3 11.5 C 0 km/h
2991 25-07-2011 02:20:03 11.4 C 9.14 g/m*3 11.4 C 0 km/h
2992 25-07-2011 02:32:03 11.8 C 9.37 g/m*3 11.8 C 0 km/h
2993 25-07-2011 02:44:03 11.5 C 9.3 g/m*3 11.5 C 0 km/h
2994 25-07-2011 02:56:03 11.4 C 9.14 g/m*3 11.4 C 0 km/h
2995 25-07-2011 03:08:03 11.4 C 9.24 g/m*3 11.4 C 0 km/h
2996 25-07-2011 03:20:03 11.5 C 9.3 g/m*3 11.5 C 0 km/h
2997 25-07-2011 03:32:03 11.5 C 9.3 g/m*3 11.5 C 0 km/h
2998 25-07-2011 03:44:03 11.5 C 9.3 g/m*3 11.5 C 0 km/h
2999 25-07-2011 03:56:03 11.3 C 9.18 g/m*3 11.3 C 0 km/h
3000 25-07-2011 04:08:03 10.8 C 8.9 g/m*3 10.8 C 0 km/h
Sensor: Nr:Datum:Temp:Abs-Feuchte:Windchill:Wind:
Aussen-T/F 3001 25-07-2011 04:20:03 10.6 C 8.78 g/m*3 10.6 C 0 km/h
3002 25-07-2011 04:32:03 10.2 C 8.47 g/m*3 10.2 C 0 km/h
3003 25-07-2011 04:44:03 10 C 8.36 g/m*3 10 C 0 km/h
3004 25-07-2011 04:56:03 9.8 C 8.44 g/m*3 9.8 C 0 km/h
3005 25-07-2011 05:08:03 9.8 C 8.44 g/m*3 9.8 C 0 km/h
3006 25-07-2011 05:20:04 10.3 C 8.62 g/m*3 10.3 C 0 km/h
3007 25-07-2011 05:32:04 10.2 C 8.56 g/m*3 10.2 C 0 km/h
3008 25-07-2011 05:44:04 10 C 8.46 g/m*3 10 C 0 km/h
3009 25-07-2011 05:56:04 9.9 C 8.5 g/m*3 9.9 C 0 km/h
3010 25-07-2011 06:08:04 9.6 C 8.34 g/m*3 9.6 C 0 km/h
3011 25-07-2011 06:20:04 9.4 C 8.23 g/m*3 9.4 C 0 km/h
3012 25-07-2011 06:32:04 9.2 C 8.13 g/m*3 9.2 C 0 km/h
3013 25-07-2011 06:44:04 9.2 C 8.13 g/m*3 9.2 C 0 km/h
3014 25-07-2011 06:56:04 8.9 C 8.06 g/m*3 8.9 C 0 km/h
3015 25-07-2011 07:08:02 9.4 C 8.23 g/m*3 9.4 C 0 km/h
3016 25-07-2011 07:20:01 9.4 C 8.23 g/m*3 9.4 C 0 km/h
3017 25-07-2011 07:32:02 9.4 C 8.23 g/m*3 9.4 C 0 km/h
3018 25-07-2011 07:44:02 9.4 C 8.23 g/m*3 9.4 C 0 km/h
3019 25-07-2011 07:56:02 9.4 C 8.23 g/m*3 9.4 C 0 km/h
3020 25-07-2011 08:08:02 9.4 C 8.23 g/m*3 9.4 C 0 km/h
3021 25-07-2011 08:20:02 11 C 8.81 g/m*3 11 C 0 km/h
3022 25-07-2011 08:32:02 11 C 8.81 g/m*3 11 C 0 km/h
3023 25-07-2011 08:44:02 11 C 8.81 g/m*3 11 C 0 km/h
3024 25-07-2011 08:56:02 11.2 C 8.92 g/m*3 11.2 C 0 km/h
3025 25-07-2011 09:08:02 11.4 C 9.03 g/m*3 11.4 C 0 km/h
Sensor: Nr:Datum:Temp:Abs-Feuchte:Windchill:Wind:
Aussen-T/F 3026 25-07-2011 09:20:03 11.7 C 9.2 g/m*3 11.7 C 0 km/h
3027 25-07-2011 09:32:02 12 C 9.27 g/m*3 12 C 0 km/h
3028 25-07-2011 09:44:02 12.3 C 9.45 g/m*3 12.3 C 0 km/h
3029 25-07-2011 09:56:02 12.7 C 9.57 g/m*3 12.7 C 0 km/h
3030 25-07-2011 10:08:02 13.4 C 9.76 g/m*3 13.4 C 0 km/h
3031 25-07-2011 10:20:03 14.7 C 10.2 g/m*3 14.7 C 0 km/h
3032 25-07-2011 10:32:02 15 C 9.23 g/m*3 15 C 0 km/h
3033 25-07-2011 10:44:02 15 C 9.23 g/m*3 15 C 0 km/h
3034 25-07-2011 10:56:02 15.5 C 9.12 g/m*3 15.5 C 0 km/h
3035 25-07-2011 11:08:02 16.3 C 8.32 g/m*3 16.3 C 0 km/h
3036 25-07-2011 11:20:02 17.1 C 6.99 g/m*3 17.1 C 0 km/h
3037 25-07-2011 11:32:03 17.5 C 7.75 g/m*3 17.5 C 0 km/h
3038 25-07-2011 11:44:03 18.3 C 5.94 g/m*3 18.3 C 0 km/h
3039 25-07-2011 11:56:02 18.7 C 5.92 g/m*3 18.7 C 0 km/h
3040 25-07-2011 12:08:01 19.1 C 5.74 g/m*3 19.1 C 0 km/h
3041 25-07-2011 12:20:02 19.5 C 5.87 g/m*3 19.5 C 0 km/h
3042 25-07-2011 12:32:02 19.6 C 5.74 g/m*3 19.6 C 0 km/h
3043 25-07-2011 12:44:02 19.5 C 6.21 g/m*3 19.5 C 0 km/h
3044 25-07-2011 12:56:02 20.4 C 6.19 g/m*3 20.4 C 0 km/h
3045 25-07-2011 13:08:03 21.3 C 5.22 g/m*3 21.3 C 0 km/h
3046 25-07-2011 13:20:02 21.6 C 4.93 g/m*3 21.6 C 0 km/h
3047 25-07-2011 13:32:03 22.5 C 4.59 g/m*3 22.5 C 0 km/h
3048 25-07-2011 13:44:03 27.2 C 5.2 g/m*3 27.2 C 0 km/h
3049 25-07-2011 13:56:02 29.3 C 5.84 g/m*3 29.3 C 0 km/h
3050 25-07-2011 14:08:01 26.1 C 4.9 g/m*3 26.1 C 0 km/h
Sensor: Nr:Datum:Temp:Abs-Feuchte:Windchill:Wind:
Aussen-T/F 3051 25-07-2011 14:20:02 24.4 C 4.45 g/m*3 24.4 C 0 km/h
3052 25-07-2011 14:32:02 23.9 C 4.54 g/m*3 23.9 C 0 km/h
3053 25-07-2011 14:44:02 27.9 C 5.41 g/m*3 27.9 C 0 km/h
3054 25-07-2011 14:56:02 23 C 6.78 g/m*3 23 C 0 km/h
3055 25-07-2011 15:08:01 23.1 C 6.82 g/m*3 23.1 C 0 km/h
3056 25-07-2011 15:20:01 29.4 C 5.87 g/m*3 29.4 C 0 km/h
3057 25-07-2011 15:32:02 28 C 5.44 g/m*3 28 C 0 km/h
3058 25-07-2011 15:44:02 27.3 C 5.23 g/m*3 27.3 C 0 km/h
3059 25-07-2011 15:56:02 24.3 C 4.43 g/m*3 24.3 C 0 km/h
3060 25-07-2011 16:08:02 26.2 C 7.14 g/m*3 26.2 C 0 km/h
3061 25-07-2011 16:20:02 23.9 C 7.36 g/m*3 23.9 C 0 km/h
3062 25-07-2011 16:32:02 22.7 C 7.48 g/m*3 22.7 C 0 km/h
3063 25-07-2011 16:44:02 22.1 C 8 g/m*3 22.1 C 0 km/h
3064 25-07-2011 16:56:01 22.8 C 8.13 g/m*3 22.8 C 0 km/h
3065 25-07-2011 17:08:02 22.7 C 8.28 g/m*3 22.7 C 0 km/h
3066 25-07-2011 17:20:01 24.8 C 6.83 g/m*3 24.8 C 0 km/h
3067 25-07-2011 17:32:02 24.5 C 5.15 g/m*3 24.5 C 0 km/h
3068 25-07-2011 17:44:02 27.9 C 5.41 g/m*3 27.9 C 0 km/h
3069 25-07-2011 17:56:02 30.1 C 6.1 g/m*3 30.1 C 0 km/h
3070 25-07-2011 18:08:02 24 C 5.66 g/m*3 24 C 0 km/h
3071 25-07-2011 18:20:01 21.7 C 8.01 g/m*3 21.7 C 0 km/h
3072 25-07-2011 18:32:02 21.2 C 8.15 g/m*3 21.2 C 0 km/h
3073 25-07-2011 18:44:02 23.7 C 6.42 g/m*3 23.7 C 0 km/h
3074 25-07-2011 18:56:02 22.3 C 8.29 g/m*3 22.3 C 0 km/h
3075 25-07-2011 19:08:02 23.7 C 8.56 g/m*3 23.7 C 0 km/h
Sensor: Nr:Datum:Temp:Abs-Feuchte:Windchill:Wind:
Aussen-T/F 3076 25-07-2011 19:20:01 20.6 C 8.77 g/m*3 20.6 C 0 km/h
3077 25-07-2011 19:32:02 21.7 C 8.39 g/m*3 21.7 C 0 km/h
3078 25-07-2011 19:44:02 20.1 C 8.69 g/m*3 20.1 C 0 km/h
3079 25-07-2011 19:56:02 19 C 8.47 g/m*3 19 C 0 km/h
3080 25-07-2011 20:08:02 18.2 C 8.55 g/m*3 18.2 C 0 km/h
3081 25-07-2011 20:20:02 17.3 C 8.69 g/m*3 17.3 C 0 km/h
3082 25-07-2011 20:32:02 16.9 C 8.49 g/m*3 16.9 C 0 km/h
3083 25-07-2011 20:44:02 17 C 8.1 g/m*3 17 C 0 km/h
3084 25-07-2011 20:56:02 16.7 C 8.53 g/m*3 16.7 C 0 km/h
3085 25-07-2011 21:08:02 16.2 C 8.27 g/m*3 16.2 C 0 km/h
3086 25-07-2011 21:20:02 16.1 C 8.36 g/m*3 16.1 C 0 km/h
3087 25-07-2011 21:32:02 16.1 C 8.64 g/m*3 16.1 C 0 km/h
3088 25-07-2011 21:44:02 16 C 8.58 g/m*3 16 C 0 km/h
3089 25-07-2011 21:56:02 16 C 8.58 g/m*3 16 C 0 km/h
3090 25-07-2011 22:08:02 15.9 C 8.67 g/m*3 15.9 C 0 km/h
3091 25-07-2011 22:21:03 15.8 C 8.62 g/m*3 15.8 C 0 km/h
3092 25-07-2011 22:33:03 15.9 C 8.67 g/m*3 15.9 C 0 km/h
3093 25-07-2011 22:45:03 15.9 C 8.53 g/m*3 15.9 C 0 km/h
3094 25-07-2011 22:57:04 15.7 C 8.56 g/m*3 15.7 C 0 km/h
3095 25-07-2011 23:09:04 15.5 C 8.99 g/m*3 15.5 C 0 km/h
3096 25-07-2011 23:21:04 15.3 C 9.01 g/m*3 15.3 C 0 km/h
3097 25-07-2011 23:33:04 15.2 C 9.09 g/m*3 15.2 C 0 km/h
3098 25-07-2011 23:45:04 15.2 C 9.22 g/m*3 15.2 C 0 km/h
3099 25-07-2011 23:57:04 15.1 C 9.16 g/m*3 15.1 C 0 km/h
3100 26-07-2011 00:09:04 15.3 C 9.4 g/m*3 15.3 C 0 km/h
Sensor: Nr:Datum:Temp:Abs-Feuchte:Windchill:Wind:
Aussen-T/F 3101 26-07-2011 00:21:04 15.4 C 9.2 g/m*3 15.4 C 0 km/h
3102 26-07-2011 00:33:04 15.2 C 9.09 g/m*3 15.2 C 0 km/h
3103 26-07-2011 00:45:04 15 C 8.85 g/m*3 15 C 0 km/h
3104 26-07-2011 00:57:04 15.3 C 8.75 g/m*3 15.3 C 0 km/h
3105 26-07-2011 01:09:04 15.1 C 9.29 g/m*3 15.1 C 0 km/h
3106 26-07-2011 01:21:04 14.9 C 9.56 g/m*3 14.9 C 0 km/h
3107 26-07-2011 01:33:04 14.2 C 9.28 g/m*3 14.2 C 0 km/h
3108 26-07-2011 01:45:04 14.2 C 9.65 g/m*3 14.2 C 0 km/h
3109 26-07-2011 01:57:04 14.1 C 9.83 g/m*3 14.1 C 0 km/h
3110 26-07-2011 02:09:04 13.9 C 9.95 g/m*3 13.9 C 0 km/h
3111 26-07-2011 02:21:04 13.7 C 9.83 g/m*3 13.7 C 0 km/h
3112 26-07-2011 02:33:04 13.6 C 9.77 g/m*3 13.6 C 0 km/h
3113 26-07-2011 02:45:04 13.6 C 9.77 g/m*3 13.6 C 0 km/h
3114 26-07-2011 02:57:04 13.6 C 9.77 g/m*3 13.6 C 0 km/h
3115 26-07-2011 03:09:04 13.5 C 9.71 g/m*3 13.5 C 0 km/h
3116 26-07-2011 03:21:05 13.5 C 9.71 g/m*3 13.5 C 0 km/h
3117 26-07-2011 03:33:05 13.6 C 9.77 g/m*3 13.6 C 0 km/h
3118 26-07-2011 03:45:05 13.4 C 9.65 g/m*3 13.4 C 0 km/h
3119 26-07-2011 03:57:05 13.6 C 9.77 g/m*3 13.6 C 0 km/h
3120 26-07-2011 04:09:05 13.8 C 10.01 g/m*3 13.8 C 0 km/h
3121 26-07-2011 04:21:05 13.8 C 9.89 g/m*3 13.8 C 0 km/h
3122 26-07-2011 04:33:05 13.9 C 9.95 g/m*3 13.9 C 0 km/h
3123 26-07-2011 04:45:05 13.9 C 9.83 g/m*3 13.9 C 0 km/h
3124 26-07-2011 04:57:05 13.9 C 9.95 g/m*3 13.9 C 0 km/h
3125 26-07-2011 05:09:05 13.8 C 9.77 g/m*3 13.8 C 0 km/h
Sensor: Nr:Datum:Temp:Abs-Feuchte:Windchill:Wind:
Aussen-T/F 3126 26-07-2011 05:21:05 13.8 C 9.77 g/m*3 13.8 C 0 km/h
3127 26-07-2011 05:33:05 13.7 C 9.71 g/m*3 13.7 C 0 km/h
3128 26-07-2011 05:45:05 13.6 C 9.65 g/m*3 13.6 C 0 km/h
3129 26-07-2011 05:57:05 13.4 C 9.53 g/m*3 13.4 C 0 km/h
3130 26-07-2011 06:09:05 13.2 C 9.42 g/m*3 13.2 C 0 km/h
3131 26-07-2011 06:21:05 13.2 C 9.53 g/m*3 13.2 C 0 km/h
3132 26-07-2011 06:33:05 13.3 C 9.59 g/m*3 13.3 C 0 km/h
3133 26-07-2011 06:45:05 13.5 C 9.71 g/m*3 13.5 C 0 km/h
3134 26-07-2011 06:57:05 13.7 C 9.95 g/m*3 13.7 C 0 km/h
3135 26-07-2011 07:09:05 13.8 C 10.01 g/m*3 13.8 C 0 km/h
3136 26-07-2011 07:21:02 14 C 10.01 g/m*3 14 C 0 km/h
3137 26-07-2011 07:33:02 14.2 C 10.14 g/m*3 14.2 C 0 km/h
3138 26-07-2011 07:45:02 14.3 C 10.2 g/m*3 14.3 C 0 km/h
3139 26-07-2011 07:57:02 14.3 C 10.2 g/m*3 14.3 C 0 km/h
3140 26-07-2011 08:09:02 14.2 C 10.14 g/m*3 14.2 C 0 km/h
3141 26-07-2011 08:21:02 14.3 C 10.2 g/m*3 14.3 C 0 km/h
3142 26-07-2011 08:33:02 14.4 C 10.38 g/m*3 14.4 C 0 km/h
3143 26-07-2011 08:45:01 14.5 C 10.57 g/m*3 14.5 C 0 km/h
3144 26-07-2011 08:57:01 14.7 C 10.83 g/m*3 14.7 C 0 km/h
3145 26-07-2011 09:09:01 14.7 C 10.83 g/m*3 14.7 C 0 km/h
3146 26-07-2011 09:21:02 14.7 C 10.7 g/m*3 14.7 C 0 km/h
3147 26-07-2011 09:33:01 15.3 C 10.97 g/m*3 15.3 C 0 km/h
3148 26-07-2011 09:45:02 15.5 C 10.97 g/m*3 15.5 C 0 km/h
3149 26-07-2011 09:57:02 15.5 C 10.84 g/m*3 15.5 C 0 km/h
3150 26-07-2011 10:09:01 15.4 C 10.9 g/m*3 15.4 C 0 km/h
Sensor: Nr:Datum:Temp:Abs-Feuchte:Windchill:Wind:
Aussen-T/F 3151 26-07-2011 10:21:02 15.3 C 10.71 g/m*3 15.3 C 0 km/h
3152 26-07-2011 10:33:01 15 C 10.51 g/m*3 15 C 0 km/h
3153 26-07-2011 10:45:02 15.3 C 10.84 g/m*3 15.3 C 0 km/h
3154 26-07-2011 10:57:02 15.3 C 10.84 g/m*3 15.3 C 0 km/h
3155 26-07-2011 11:09:02 15.8 C 10.9 g/m*3 15.8 C 0 km/h
3156 26-07-2011 11:21:03 16.4 C 11.03 g/m*3 16.4 C 0 km/h
3157 26-07-2011 11:33:02 17.7 C 11.16 g/m*3 17.7 C 0 km/h
3158 26-07-2011 11:45:02 18.6 C 10.5 g/m*3 18.6 C 0 km/h
3159 26-07-2011 11:57:02 17.5 C 10.29 g/m*3 17.5 C 0 km/h
3160 26-07-2011 12:09:02 17.5 C 10.29 g/m*3 17.5 C 0 km/h
3161 26-07-2011 12:21:02 18.3 C 10.48 g/m*3 18.3 C 0 km/h
3162 26-07-2011 12:33:02 18.7 C 9.93 g/m*3 18.7 C 0 km/h
3163 26-07-2011 12:45:02 19.4 C 10.01 g/m*3 19.4 C 0 km/h
3164 26-07-2011 12:57:02 19.3 C 9.79 g/m*3 19.3 C 0 km/h
3165 26-07-2011 13:09:02 20.5 C 9.61 g/m*3 20.5 C 0 km/h
3166 26-07-2011 13:21:02 21.7 C 9.92 g/m*3 21.7 C 0 km/h
3167 26-07-2011 13:33:01 21.8 C 9.4 g/m*3 21.8 C 0 km/h
3168 26-07-2011 13:45:02 22.2 C 9.62 g/m*3 22.2 C 0 km/h
3169 26-07-2011 13:57:02 22.1 C 9.56 g/m*3 22.1 C 0 km/h
3170 26-07-2011 14:09:01 22.3 C 9.28 g/m*3 22.3 C 0 km/h
3171 26-07-2011 14:21:02 25.7 C 8.86 g/m*3 25.7 C 0 km/h
3172 26-07-2011 14:33:02 24.2 C 8.8 g/m*3 24.2 C 0 km/h
3173 26-07-2011 14:45:02 24.5 C 8.73 g/m*3 24.5 C 0 km/h
3174 26-07-2011 14:57:02 23.4 C 7.99 g/m*3 23.4 C 0 km/h
3175 26-07-2011 15:09:03 25 C 8.52 g/m*3 25 C 0 km/h
Sensor: Nr:Datum:Temp:Abs-Feuchte:Windchill:Wind:
Aussen-T/F 3176 26-07-2011 15:21:02 23.7 C 8.56 g/m*3 23.7 C 0 km/h
3177 26-07-2011 15:33:02 22.6 C 9.24 g/m*3 22.6 C 0 km/h
3178 26-07-2011 15:45:01 22.3 C 9.08 g/m*3 22.3 C 0 km/h
3179 26-07-2011 15:57:01 22.2 C 9.03 g/m*3 22.2 C 0 km/h
3180 26-07-2011 16:09:02 21.4 C 9 g/m*3 21.4 C 0 km/h
3181 26-07-2011 16:21:01 20.5 C 9.61 g/m*3 20.5 C 0 km/h
3182 26-07-2011 16:33:01 20.3 C 10.38 g/m*3 20.3 C 0 km/h
3183 26-07-2011 16:45:01 20.6 C 10.2 g/m*3 20.6 C 0 km/h
3184 26-07-2011 16:57:01 20.1 C 10.78 g/m*3 20.1 C 0 km/h
3185 26-07-2011 17:09:02 19 C 9.94 g/m*3 19 C 0 km/h
3186 26-07-2011 17:21:01 18.7 C 11.05 g/m*3 18.7 C 0 km/h
3187 26-07-2011 17:33:02 19 C 11.57 g/m*3 19 C 0 km/h
3188 26-07-2011 17:45:01 18.6 C 10.66 g/m*3 18.6 C 0 km/h
3189 26-07-2011 17:57:01 18.8 C 10.95 g/m*3 18.8 C 0 km/h
3190 26-07-2011 18:09:02 18.9 C 11.5 g/m*3 18.9 C 0 km/h
3191 26-07-2011 18:21:02 18.5 C 10.76 g/m*3 18.5 C 0 km/h
3192 26-07-2011 18:33:01 18.4 C 10.38 g/m*3 18.4 C 0 km/h
3193 26-07-2011 18:45:02 18.1 C 10.51 g/m*3 18.1 C 0 km/h
3194 26-07-2011 18:57:02 17.9 C 10.69 g/m*3 17.9 C 0 km/h
3195 26-07-2011 19:09:01 17.7 C 10.56 g/m*3 17.7 C 0 km/h
3196 26-07-2011 19:21:02 17.4 C 10.52 g/m*3 17.4 C 0 km/h
3197 26-07-2011 19:33:01 17.3 C 10.61 g/m*3 17.3 C 0 km/h
3198 26-07-2011 19:45:02 17.2 C 10.69 g/m*3 17.2 C 0 km/h
3199 26-07-2011 19:57:02 16.9 C 10.79 g/m*3 16.9 C 0 km/h
3200 26-07-2011 20:09:01 16.7 C 10.94 g/m*3 16.7 C 0 km/h
Sensor: Nr:Datum:Temp:Abs-Feuchte:Windchill:Wind:
Aussen-T/F 3201 26-07-2011 20:21:01 16.4 C 10.75 g/m*3 16.4 C 0 km/h
3202 26-07-2011 20:33:01 16.5 C 10.95 g/m*3 16.5 C 0 km/h
3203 26-07-2011 20:45:02 16.6 C 11.02 g/m*3 16.6 C 0 km/h
3204 26-07-2011 20:57:02 16.5 C 11.09 g/m*3 16.5 C 0 km/h
3205 26-07-2011 21:09:02 16.4 C 11.17 g/m*3 16.4 C 0 km/h
3206 26-07-2011 21:21:02 16 C 10.9 g/m*3 16 C 0 km/h
3207 26-07-2011 21:33:02 15.7 C 10.97 g/m*3 15.7 C 0 km/h
3208 26-07-2011 21:46:04 15.4 C 10.9 g/m*3 15.4 C 0 km/h
3209 26-07-2011 21:58:04 15 C 10.64 g/m*3 15 C 0 km/h
3210 26-07-2011 22:10:04 14.7 C 10.58 g/m*3 14.7 C 0 km/h
3211 26-07-2011 22:22:04 14.3 C 10.32 g/m*3 14.3 C 0 km/h
3212 26-07-2011 22:34:04 14.1 C 10.32 g/m*3 14.1 C 0 km/h
3213 26-07-2011 22:46:04 13.7 C 10.07 g/m*3 13.7 C 0 km/h
3214 26-07-2011 22:58:04 13.8 C 10.25 g/m*3 13.8 C 0 km/h
3215 26-07-2011 23:10:04 13.8 C 10.37 g/m*3 13.8 C 0 km/h
3216 26-07-2011 23:22:04 13.7 C 10.3 g/m*3 13.7 C 0 km/h
3217 26-07-2011 23:34:04 14.1 C 10.56 g/m*3 14.1 C 0 km/h
3218 26-07-2011 23:46:04 14.2 C 10.75 g/m*3 14.2 C 0 km/h
3219 26-07-2011 23:58:05 14.3 C 10.81 g/m*3 14.3 C 0 km/h
3220 27-07-2011 00:10:05 14.3 C 10.81 g/m*3 14.3 C 0 km/h
3221 27-07-2011 00:22:05 14.3 C 10.81 g/m*3 14.3 C 0 km/h
3222 27-07-2011 00:34:05 14.2 C 10.75 g/m*3 14.2 C 0 km/h
3223 27-07-2011 00:46:05 14.2 C 10.75 g/m*3 14.2 C 0 km/h
3224 27-07-2011 00:58:05 13.9 C 10.67 g/m*3 13.9 C 0 km/h
3225 27-07-2011 01:10:05 13.8 C 10.6 g/m*3 13.8 C 0 km/h
Sensor: Nr:Datum:Temp:Abs-Feuchte:Windchill:Wind:
Aussen-T/F 3226 27-07-2011 01:22:05 13.7 C 10.54 g/m*3 13.7 C 0 km/h
3227 27-07-2011 01:34:05 13.5 C 10.41 g/m*3 13.5 C 0 km/h
3228 27-07-2011 01:46:05 13.2 C 10.22 g/m*3 13.2 C 0 km/h
3229 27-07-2011 01:58:05 13.2 C 10.22 g/m*3 13.2 C